Darstellungsparameter: Aktuell verwendete Einstellungen:
Skalierung der Graphiken ... ?
xyx+y,   Skalierungsfaktor:      Skalierung: Modus: x, Faktor: 1
Darstellungszeitraum ... ?
Vom - - bis: - -   Zeitraum: 26.01.2009 - 24.04.2009
Min/Max/Avg-Anzeige ... ?
Zeige MMA aktuell
Zeige MMA Monat
Zeige MMA alles
Zeige --A aktuell
Zeige --A Monat
Zeige --A alles
Keine MMA-Anzeige
MMA:
Average (ber die Originaldaten)
MMA-Basis: 26.01.2009 - 24.04.2009
Quicknavigation für Darstellung... ?
Tage:      1T, 2T, 3T, 5T -1T -2T -3T -5T +1T +2T +3T +5T
Wochen: 1W, 2W, 3W -1W -2W -3W +1W +2W +3W
Monate: 1M, 3M, 6M -1M -3M -6M +1M +3M +6M
Jahre:    1J, 3J, 5J, 10J -1J -3J -5J -10J +1J +3J +5J +10J
Nutze für die Darstellung ... ?
Originaldaten oder Mittelwerte auf ...
Stundenbasis Tagesbasis Wochenbasis
Monatsbasis Jahresbasis      Datenbasis: Original-Daten
Darstellen als:
Statistik (Auto) Statistik J:M      Darstellung:
Zur Graphik,    zurück zur Übersicht aller Sensoren.
 
Tabellarische Datenbersicht: ?
 
Sensor: Nr:Datum:Temp:Abs-Feuchte:Windchill:Wind:
Aussen-T/F 1 26-01-2009 00:06:53 -2.2 C 3.74 g/m*3 -2.2 C 0 km/h
2 26-01-2009 00:18:53 -2.4 C 3.69 g/m*3 -2.4 C 0 km/h
3 26-01-2009 00:30:53 -2.4 C 3.69 g/m*3 -2.4 C 0 km/h
4 26-01-2009 00:42:53 -2.5 C 3.62 g/m*3 -2.5 C 0 km/h
5 26-01-2009 00:54:53 -2.5 C 3.66 g/m*3 -2.5 C 0 km/h
6 26-01-2009 01:06:53 -2.5 C 3.66 g/m*3 -2.5 C 0 km/h
7 26-01-2009 01:18:53 -2.7 C 3.57 g/m*3 -2.7 C 0 km/h
8 26-01-2009 01:30:53 -2.9 C 3.52 g/m*3 -2.9 C 0 km/h
9 26-01-2009 01:42:53 -3 C 3.5 g/m*3 -3 C 0 km/h
10 26-01-2009 01:54:53 -3.1 C 3.47 g/m*3 -3.1 C 0 km/h
11 26-01-2009 02:06:53 -3.2 C 3.45 g/m*3 -3.2 C 0 km/h
12 26-01-2009 02:18:53 -3.2 C 3.45 g/m*3 -3.2 C 0 km/h
13 26-01-2009 02:30:54 -3.3 C 3.42 g/m*3 -3.3 C 0 km/h
14 26-01-2009 02:42:54 -3.2 C 3.49 g/m*3 -3.2 C 0 km/h
15 26-01-2009 02:54:54 -3.2 C 3.49 g/m*3 -3.2 C 0 km/h
16 26-01-2009 03:06:54 -3.2 C 3.49 g/m*3 -3.2 C 0 km/h
17 26-01-2009 03:18:54 -3.3 C 3.46 g/m*3 -3.3 C 0 km/h
18 26-01-2009 03:30:54 -3.4 C 3.47 g/m*3 -3.4 C 0 km/h
19 26-01-2009 03:42:54 -3.4 C 3.47 g/m*3 -3.4 C 0 km/h
20 26-01-2009 03:54:54 -3.4 C 3.47 g/m*3 -3.4 C 0 km/h
21 26-01-2009 04:06:54 -3.5 C 3.45 g/m*3 -3.5 C 0 km/h
22 26-01-2009 04:18:54 -3.8 C 3.38 g/m*3 -3.8 C 0 km/h
23 26-01-2009 04:30:54 -3.7 C 3.4 g/m*3 -3.7 C 0 km/h
24 26-01-2009 04:42:54 -3.8 C 3.38 g/m*3 -3.8 C 0 km/h
25 26-01-2009 04:54:54 -3.8 C 3.38 g/m*3 -3.8 C 0 km/h
Sensor: Nr:Datum:Temp:Abs-Feuchte:Windchill:Wind:
Aussen-T/F 26 26-01-2009 05:06:54 -3.8 C 3.38 g/m*3 -3.8 C 0 km/h
27 26-01-2009 05:18:54 -3.9 C 3.39 g/m*3 -3.9 C 0 km/h
28 26-01-2009 05:30:54 -3.7 C 3.44 g/m*3 -3.7 C 0 km/h
29 26-01-2009 05:42:54 -3.7 C 3.44 g/m*3 -3.7 C 0 km/h
30 26-01-2009 05:54:54 -3.6 C 3.46 g/m*3 -3.6 C 0 km/h
31 26-01-2009 06:06:54 -3.5 C 3.49 g/m*3 -3.5 C 0 km/h
32 26-01-2009 06:18:55 -3.4 C 3.55 g/m*3 -3.4 C 0 km/h
33 26-01-2009 06:30:55 -3.4 C 3.55 g/m*3 -3.4 C 0 km/h
34 26-01-2009 06:42:55 -3.4 C 3.55 g/m*3 -3.4 C 0 km/h
35 26-01-2009 06:54:55 -3.3 C 3.58 g/m*3 -3.3 C 0 km/h
36 26-01-2009 07:06:52 -3.4 C 3.55 g/m*3 -3.4 C 0 km/h
37 26-01-2009 07:18:53 -3.3 C 3.58 g/m*3 -3.3 C 0 km/h
38 26-01-2009 07:30:52 -3.4 C 3.55 g/m*3 -3.4 C 0 km/h
39 26-01-2009 07:42:52 -3.5 C 3.53 g/m*3 -3.5 C 0 km/h
40 26-01-2009 07:54:52 -3.5 C 3.53 g/m*3 -3.5 C 0 km/h
41 26-01-2009 08:06:52 -3.4 C 3.59 g/m*3 -3.4 C 0 km/h
42 26-01-2009 08:18:52 -3.3 C 3.61 g/m*3 -3.3 C 0 km/h
43 26-01-2009 08:30:52 -3.4 C 3.59 g/m*3 -3.4 C 0 km/h
44 26-01-2009 08:42:52 -3.4 C 3.59 g/m*3 -3.4 C 0 km/h
45 26-01-2009 08:54:52 -3.4 C 3.59 g/m*3 -3.4 C 0 km/h
46 26-01-2009 09:06:52 -3.1 C 3.67 g/m*3 -3.1 C 0 km/h
47 26-01-2009 09:18:51 -3.1 C 3.67 g/m*3 -3.1 C 0 km/h
48 26-01-2009 09:30:51 -3.1 C 3.67 g/m*3 -3.1 C 0 km/h
49 26-01-2009 09:42:51 -3.1 C 3.67 g/m*3 -3.1 C 0 km/h
50 26-01-2009 09:54:51 -2.9 C 3.72 g/m*3 -2.9 C 0 km/h
Sensor: Nr:Datum:Temp:Abs-Feuchte:Windchill:Wind:
Aussen-T/F 51 26-01-2009 10:06:51 -2.6 C 3.8 g/m*3 -2.6 C 0 km/h
52 26-01-2009 10:18:50 -2.2 C 3.91 g/m*3 -2.2 C 0 km/h
53 26-01-2009 10:30:51 -2 C 3.96 g/m*3 -2 C 0 km/h
54 26-01-2009 10:42:51 -1.7 C 4.05 g/m*3 -1.7 C 0 km/h
55 26-01-2009 10:54:50 -1.5 C 4.1 g/m*3 -1.5 C 0 km/h
56 26-01-2009 11:06:50 -1.6 C 4.03 g/m*3 -1.6 C 0 km/h
57 26-01-2009 11:18:51 -1.8 C 3.93 g/m*3 -1.8 C 0 km/h
58 26-01-2009 11:30:50 -1.9 C 3.82 g/m*3 -1.9 C 0 km/h
59 26-01-2009 11:42:50 -1.6 C 3.9 g/m*3 -1.6 C 0 km/h
60 26-01-2009 11:54:50 -1.1 C 4.04 g/m*3 -1.1 C 0 km/h
61 26-01-2009 12:06:50 -0.4 C 4.19 g/m*3 -0.4 C 0 km/h
62 26-01-2009 12:18:50 -0.1 C 4.23 g/m*3 -0.1 C 0 km/h
63 26-01-2009 12:30:49 0.3 C 4.3 g/m*3 0.3 C 0 km/h
64 26-01-2009 12:42:49 0 C 4.07 g/m*3 0 C 0 km/h
65 26-01-2009 12:54:50 0.1 C 4.05 g/m*3 0.1 C 0 km/h
66 26-01-2009 13:06:50 0.5 C 4.16 g/m*3 0.5 C 0 km/h
67 26-01-2009 13:18:50 0.7 C 4.17 g/m*3 0.7 C 0 km/h
68 26-01-2009 13:30:52 0.6 C 4.14 g/m*3 0.6 C 0 km/h
69 26-01-2009 13:42:52 0.6 C 4.14 g/m*3 0.6 C 0 km/h
70 26-01-2009 13:54:49 1 C 4.26 g/m*3 1 C 0 km/h
71 26-01-2009 14:06:48 1.3 C 4.34 g/m*3 1.3 C 0 km/h
72 26-01-2009 14:18:49 1.3 C 4.24 g/m*3 1.3 C 0 km/h
73 26-01-2009 14:30:49 1.2 C 4.21 g/m*3 1.2 C 0 km/h
74 26-01-2009 14:42:49 1.1 C 4.18 g/m*3 1.1 C 0 km/h
75 26-01-2009 14:54:48 1.2 C 4.21 g/m*3 1.2 C 0 km/h
Sensor: Nr:Datum:Temp:Abs-Feuchte:Windchill:Wind:
Aussen-T/F 76 26-01-2009 15:06:49 1.3 C 4.24 g/m*3 1.3 C 0 km/h
77 26-01-2009 15:18:48 1.2 C 4.21 g/m*3 1.2 C 0 km/h
78 26-01-2009 15:30:48 1.1 C 4.18 g/m*3 1.1 C 0 km/h
79 26-01-2009 15:42:48 1 C 4.2 g/m*3 1 C 0 km/h
80 26-01-2009 15:54:48 0.9 C 4.23 g/m*3 0.9 C 0 km/h
81 26-01-2009 16:06:47 0.7 C 4.17 g/m*3 0.7 C 0 km/h
82 26-01-2009 16:18:48 0.4 C 4.08 g/m*3 0.4 C 0 km/h
83 26-01-2009 16:30:47 0.2 C 4.03 g/m*3 0.2 C 0 km/h
84 26-01-2009 16:42:47 -0.2 C 3.92 g/m*3 -0.2 C 0 km/h
85 26-01-2009 16:54:27 -0.5 C 3.84 g/m*3 -0.5 C 0 km/h
86 26-01-2009 17:06:02 -0.8 C 3.76 g/m*3 -0.8 C 0 km/h
87 26-01-2009 17:18:02 -1 C 3.75 g/m*3 -1 C 0 km/h
88 26-01-2009 17:30:02 -1.4 C 3.69 g/m*3 -1.4 C 0 km/h
89 26-01-2009 17:42:02 -1.7 C 3.62 g/m*3 -1.7 C 0 km/h
90 26-01-2009 17:54:02 -1.8 C 3.63 g/m*3 -1.8 C 0 km/h
91 26-01-2009 18:06:01 -1.8 C 3.72 g/m*3 -1.8 C 0 km/h
92 26-01-2009 18:18:01 -1.9 C 3.69 g/m*3 -1.9 C 0 km/h
93 26-01-2009 18:30:01 -2 C 3.67 g/m*3 -2 C 0 km/h
94 26-01-2009 18:42:01 -2 C 3.71 g/m*3 -2 C 0 km/h
95 26-01-2009 18:54:01 -2.1 C 3.68 g/m*3 -2.1 C 0 km/h
96 26-01-2009 19:06:00 -2.1 C 3.68 g/m*3 -2.1 C 0 km/h
97 26-01-2009 19:18:01 -2.3 C 3.63 g/m*3 -2.3 C 0 km/h
98 26-01-2009 19:30:02 -2.4 C 3.61 g/m*3 -2.4 C 0 km/h
99 26-01-2009 19:42:00 -2.3 C 3.63 g/m*3 -2.3 C 0 km/h
100 26-01-2009 19:54:00 -2.6 C 3.56 g/m*3 -2.6 C 0 km/h
Sensor: Nr:Datum:Temp:Abs-Feuchte:Windchill:Wind:
Aussen-T/F 101 26-01-2009 20:06:00 -2.6 C 3.56 g/m*3 -2.6 C 0 km/h
102 26-01-2009 20:18:00 -2.6 C 3.56 g/m*3 -2.6 C 0 km/h
103 26-01-2009 20:30:00 -2.8 C 3.51 g/m*3 -2.8 C 0 km/h
104 26-01-2009 20:42:00 -3 C 3.46 g/m*3 -3 C 0 km/h
105 26-01-2009 20:54:00 -2.9 C 3.48 g/m*3 -2.9 C 0 km/h
106 26-01-2009 21:06:00 -3.1 C 3.43 g/m*3 -3.1 C 0 km/h
107 26-01-2009 21:18:59 -3.3 C 3.38 g/m*3 -3.3 C 0 km/h
108 26-01-2009 21:29:59 -3.2 C 3.41 g/m*3 -3.2 C 0 km/h
109 26-01-2009 21:41:59 -3.3 C 3.38 g/m*3 -3.3 C 0 km/h
110 26-01-2009 21:55:00 -3.3 C 3.42 g/m*3 -3.3 C 0 km/h
111 26-01-2009 22:07:00 -3.2 C 3.45 g/m*3 -3.2 C 0 km/h
112 26-01-2009 22:19:00 -3.4 C 3.4 g/m*3 -3.4 C 0 km/h
113 26-01-2009 22:31:00 -3.7 C 3.33 g/m*3 -3.7 C 0 km/h
114 26-01-2009 22:43:00 -3.8 C 3.3 g/m*3 -3.8 C 0 km/h
115 26-01-2009 22:55:00 -3.9 C 3.28 g/m*3 -3.9 C 0 km/h
116 26-01-2009 23:07:00 -3.8 C 3.3 g/m*3 -3.8 C 0 km/h
117 26-01-2009 23:19:01 -3.8 C 3.3 g/m*3 -3.8 C 0 km/h
118 26-01-2009 23:31:01 -3.7 C 3.33 g/m*3 -3.7 C 0 km/h
119 26-01-2009 23:43:01 -3.8 C 3.3 g/m*3 -3.8 C 0 km/h
120 26-01-2009 23:55:01 -3.8 C 3.34 g/m*3 -3.8 C 0 km/h
121 27-01-2009 00:07:01 -3.8 C 3.34 g/m*3 -3.8 C 0 km/h
122 27-01-2009 00:19:01 -3.9 C 3.32 g/m*3 -3.9 C 0 km/h
123 27-01-2009 00:31:01 -3.8 C 3.34 g/m*3 -3.8 C 0 km/h
124 27-01-2009 00:43:01 -3.8 C 3.34 g/m*3 -3.8 C 0 km/h
125 27-01-2009 00:55:01 -3.7 C 3.36 g/m*3 -3.7 C 0 km/h
Sensor: Nr:Datum:Temp:Abs-Feuchte:Windchill:Wind:
Aussen-T/F 126 27-01-2009 01:07:01 -3.7 C 3.4 g/m*3 -3.7 C 0 km/h
127 27-01-2009 01:19:01 -3.6 C 3.43 g/m*3 -3.6 C 0 km/h
128 27-01-2009 01:31:01 -3.6 C 3.43 g/m*3 -3.6 C 0 km/h
129 27-01-2009 01:43:01 -3.7 C 3.4 g/m*3 -3.7 C 0 km/h
130 27-01-2009 01:55:01 -3.8 C 3.38 g/m*3 -3.8 C 0 km/h
131 27-01-2009 02:07:01 -3.8 C 3.38 g/m*3 -3.8 C 0 km/h
132 27-01-2009 02:19:01 -3.8 C 3.38 g/m*3 -3.8 C 0 km/h
133 27-01-2009 02:31:01 -3.7 C 3.44 g/m*3 -3.7 C 0 km/h
134 27-01-2009 02:43:01 -3.6 C 3.46 g/m*3 -3.6 C 0 km/h
135 27-01-2009 02:55:01 -3.5 C 3.49 g/m*3 -3.5 C 0 km/h
136 27-01-2009 03:07:02 -3.4 C 3.51 g/m*3 -3.4 C 0 km/h
137 27-01-2009 03:19:02 -3.2 C 3.6 g/m*3 -3.2 C 0 km/h
138 27-01-2009 03:31:02 -3.1 C 3.63 g/m*3 -3.1 C 0 km/h
139 27-01-2009 03:43:02 -3 C 3.65 g/m*3 -3 C 0 km/h
140 27-01-2009 03:55:02 -3 C 3.65 g/m*3 -3 C 0 km/h
141 27-01-2009 04:07:02 -2.9 C 3.68 g/m*3 -2.9 C 0 km/h
142 27-01-2009 04:19:02 -2.7 C 3.73 g/m*3 -2.7 C 0 km/h
143 27-01-2009 04:31:02 -2.7 C 3.73 g/m*3 -2.7 C 0 km/h
144 27-01-2009 04:43:02 -2.7 C 3.73 g/m*3 -2.7 C 0 km/h
145 27-01-2009 04:55:02 -2.8 C 3.71 g/m*3 -2.8 C 0 km/h
146 27-01-2009 05:07:02 -2.7 C 3.73 g/m*3 -2.7 C 0 km/h
147 27-01-2009 05:19:02 -2.5 C 3.78 g/m*3 -2.5 C 0 km/h
148 27-01-2009 05:31:02 -2.5 C 3.78 g/m*3 -2.5 C 0 km/h
149 27-01-2009 05:43:02 -2.4 C 3.81 g/m*3 -2.4 C 0 km/h
150 27-01-2009 05:55:02 -2.5 C 3.78 g/m*3 -2.5 C 0 km/h
Sensor: Nr:Datum:Temp:Abs-Feuchte:Windchill:Wind:
Aussen-T/F 151 27-01-2009 06:07:02 -2.4 C 3.81 g/m*3 -2.4 C 0 km/h
152 27-01-2009 06:19:02 -2.6 C 3.72 g/m*3 -2.6 C 0 km/h
153 27-01-2009 06:31:00 -2.6 C 3.72 g/m*3 -2.6 C 0 km/h
154 27-01-2009 06:43:00 -2.5 C 3.7 g/m*3 -2.5 C 0 km/h
155 27-01-2009 06:55:00 -2.5 C 3.66 g/m*3 -2.5 C 0 km/h
156 27-01-2009 07:07:00 -2.5 C 3.66 g/m*3 -2.5 C 0 km/h
157 27-01-2009 07:19:59 -2.4 C 3.69 g/m*3 -2.4 C 0 km/h
158 27-01-2009 07:31:59 -2.3 C 3.71 g/m*3 -2.3 C 0 km/h
159 27-01-2009 07:42:59 -2.3 C 3.67 g/m*3 -2.3 C 0 km/h
160 27-01-2009 07:55:59 -2.2 C 3.7 g/m*3 -2.2 C 0 km/h
161 27-01-2009 08:07:59 -2.1 C 3.73 g/m*3 -2.1 C 0 km/h
162 27-01-2009 08:19:58 -2.1 C 3.73 g/m*3 -2.1 C 0 km/h
163 27-01-2009 08:31:59 -2.1 C 3.73 g/m*3 -2.1 C 0 km/h
164 27-01-2009 08:43:59 -2.1 C 3.73 g/m*3 -2.1 C 0 km/h
165 27-01-2009 08:55:00 -2 C 3.75 g/m*3 -2 C 0 km/h
166 27-01-2009 09:07:59 -2 C 3.75 g/m*3 -2 C 0 km/h
167 27-01-2009 09:19:58 -1.9 C 3.78 g/m*3 -1.9 C 0 km/h
168 27-01-2009 09:31:58 -1.8 C 3.8 g/m*3 -1.8 C 0 km/h
169 27-01-2009 09:43:58 -1.7 C 3.79 g/m*3 -1.7 C 0 km/h
170 27-01-2009 09:55:58 -1.6 C 3.81 g/m*3 -1.6 C 0 km/h
171 27-01-2009 10:07:57 -1.5 C 3.84 g/m*3 -1.5 C 0 km/h
172 27-01-2009 10:19:58 -1.5 C 3.84 g/m*3 -1.5 C 0 km/h
173 27-01-2009 10:30:59 -1.4 C 3.82 g/m*3 -1.4 C 0 km/h
174 27-01-2009 10:42:59 -1.2 C 3.88 g/m*3 -1.2 C 0 km/h
175 27-01-2009 10:55:57 -1 C 3.93 g/m*3 -1 C 0 km/h
Sensor: Nr:Datum:Temp:Abs-Feuchte:Windchill:Wind:
Aussen-T/F 176 27-01-2009 11:07:57 -0.9 C 3.91 g/m*3 -0.9 C 0 km/h
177 27-01-2009 11:19:57 -0.8 C 3.94 g/m*3 -0.8 C 0 km/h
178 27-01-2009 11:31:57 -0.5 C 3.98 g/m*3 -0.5 C 0 km/h
179 27-01-2009 11:43:58 -0.4 C 3.96 g/m*3 -0.4 C 0 km/h
180 27-01-2009 11:55:56 -0.3 C 3.99 g/m*3 -0.3 C 0 km/h
181 27-01-2009 12:07:57 -0.1 C 3.99 g/m*3 -0.1 C 0 km/h
182 27-01-2009 12:19:56 0.1 C 4.05 g/m*3 0.1 C 0 km/h
183 27-01-2009 12:31:56 0.4 C 4.08 g/m*3 0.4 C 0 km/h
184 27-01-2009 12:43:56 0.7 C 4.17 g/m*3 0.7 C 0 km/h
185 27-01-2009 12:55:56 0.8 C 4.15 g/m*3 0.8 C 0 km/h
186 27-01-2009 13:07:56 1 C 4.15 g/m*3 1 C 0 km/h
187 27-01-2009 13:19:56 1.2 C 4.21 g/m*3 1.2 C 0 km/h
188 27-01-2009 13:31:55 1.2 C 4.1 g/m*3 1.2 C 0 km/h
189 27-01-2009 13:43:55 1.4 C 4.16 g/m*3 1.4 C 0 km/h
190 27-01-2009 13:55:56 1.4 C 4.11 g/m*3 1.4 C 0 km/h
191 27-01-2009 14:07:55 1.5 C 4.14 g/m*3 1.5 C 0 km/h
192 27-01-2009 14:19:55 1.6 C 4.16 g/m*3 1.6 C 0 km/h
193 27-01-2009 14:31:55 1.7 C 4.19 g/m*3 1.7 C 0 km/h
194 27-01-2009 14:43:55 1.7 C 4.25 g/m*3 1.7 C 0 km/h
195 27-01-2009 14:55:56 1.8 C 4.28 g/m*3 1.8 C 0 km/h
196 27-01-2009 15:07:55 1.8 C 4.28 g/m*3 1.8 C 0 km/h
197 27-01-2009 15:19:54 1.8 C 4.28 g/m*3 1.8 C 0 km/h
198 27-01-2009 15:31:54 1.8 C 4.28 g/m*3 1.8 C 0 km/h
199 27-01-2009 15:43:54 1.7 C 4.25 g/m*3 1.7 C 0 km/h
200 27-01-2009 15:55:54 1.5 C 4.24 g/m*3 1.5 C 0 km/h
Sensor: Nr:Datum:Temp:Abs-Feuchte:Windchill:Wind:
Aussen-T/F 201 27-01-2009 16:07:54 1.4 C 4.21 g/m*3 1.4 C 0 km/h
202 27-01-2009 16:19:54 1.2 C 4.16 g/m*3 1.2 C 0 km/h
203 27-01-2009 16:31:54 1 C 4.1 g/m*3 1 C 0 km/h
204 27-01-2009 16:43:54 0.8 C 4.15 g/m*3 0.8 C 0 km/h
205 27-01-2009 16:55:54 0.6 C 4.09 g/m*3 0.6 C 0 km/h
206 27-01-2009 17:07:54 0.5 C 4.06 g/m*3 0.5 C 0 km/h
207 27-01-2009 17:19:53 0.4 C 4.08 g/m*3 0.4 C 0 km/h
208 27-01-2009 17:31:54 0.3 C 4.06 g/m*3 0.3 C 0 km/h
209 27-01-2009 17:43:54 0.3 C 4.06 g/m*3 0.3 C 0 km/h
210 27-01-2009 17:55:53 0.3 C 4.11 g/m*3 0.3 C 0 km/h
211 27-01-2009 18:07:53 0.3 C 4.11 g/m*3 0.3 C 0 km/h
212 27-01-2009 18:19:53 0.1 C 4.05 g/m*3 0.1 C 0 km/h
213 27-01-2009 18:31:53 0.1 C 4.1 g/m*3 0.1 C 0 km/h
214 27-01-2009 18:43:54 0.1 C 4.1 g/m*3 0.1 C 0 km/h
215 27-01-2009 18:55:52 0.1 C 4.1 g/m*3 0.1 C 0 km/h
216 27-01-2009 19:07:53 0.1 C 4.15 g/m*3 0.1 C 0 km/h
217 27-01-2009 19:19:52 0.1 C 4.15 g/m*3 0.1 C 0 km/h
218 27-01-2009 19:31:52 0.2 C 4.18 g/m*3 0.2 C 0 km/h
219 27-01-2009 19:43:52 0.3 C 4.25 g/m*3 0.3 C 0 km/h
220 27-01-2009 19:55:52 0.2 C 4.22 g/m*3 0.2 C 0 km/h
221 27-01-2009 20:07:52 0.3 C 4.25 g/m*3 0.3 C 0 km/h
222 27-01-2009 20:19:52 0.3 C 4.25 g/m*3 0.3 C 0 km/h
223 27-01-2009 20:31:52 0.3 C 4.25 g/m*3 0.3 C 0 km/h
224 27-01-2009 20:43:52 0.3 C 4.25 g/m*3 0.3 C 0 km/h
225 27-01-2009 20:55:51 0.3 C 4.25 g/m*3 0.3 C 0 km/h
Sensor: Nr:Datum:Temp:Abs-Feuchte:Windchill:Wind:
Aussen-T/F 226 27-01-2009 21:07:51 0.3 C 4.25 g/m*3 0.3 C 0 km/h
227 27-01-2009 21:19:52 0.3 C 4.3 g/m*3 0.3 C 0 km/h
228 27-01-2009 21:31:51 0.3 C 4.3 g/m*3 0.3 C 0 km/h
229 27-01-2009 21:43:51 0.3 C 4.3 g/m*3 0.3 C 0 km/h
230 27-01-2009 21:55:51 0.2 C 4.27 g/m*3 0.2 C 0 km/h
231 27-01-2009 22:08:51 0.3 C 4.3 g/m*3 0.3 C 0 km/h
232 27-01-2009 22:20:51 0.3 C 4.3 g/m*3 0.3 C 0 km/h
233 27-01-2009 22:32:51 0.3 C 4.35 g/m*3 0.3 C 0 km/h
234 27-01-2009 22:44:51 0.3 C 4.35 g/m*3 0.3 C 0 km/h
235 27-01-2009 22:56:51 0.3 C 4.35 g/m*3 0.3 C 0 km/h
236 27-01-2009 23:08:51 0.3 C 4.35 g/m*3 0.3 C 0 km/h
237 27-01-2009 23:20:51 0.3 C 4.35 g/m*3 0.3 C 0 km/h
238 27-01-2009 23:32:51 0.3 C 4.35 g/m*3 0.3 C 0 km/h
239 27-01-2009 23:44:52 0.3 C 4.35 g/m*3 0.3 C 0 km/h
240 27-01-2009 23:56:52 0.3 C 4.35 g/m*3 0.3 C 0 km/h
241 28-01-2009 00:08:52 0.2 C 4.32 g/m*3 0.2 C 0 km/h
242 28-01-2009 00:20:52 0.2 C 4.32 g/m*3 0.2 C 0 km/h
243 28-01-2009 00:32:52 0.2 C 4.32 g/m*3 0.2 C 0 km/h
244 28-01-2009 00:44:52 0.2 C 4.32 g/m*3 0.2 C 0 km/h
245 28-01-2009 00:56:52 0.1 C 4.29 g/m*3 0.1 C 0 km/h
246 28-01-2009 01:08:52 0 C 4.26 g/m*3 0 C 0 km/h
247 28-01-2009 01:20:52 0.1 C 4.29 g/m*3 0.1 C 0 km/h
248 28-01-2009 01:32:52 0.1 C 4.29 g/m*3 0.1 C 0 km/h
249 28-01-2009 01:44:52 0.1 C 4.29 g/m*3 0.1 C 0 km/h
250 28-01-2009 01:56:52 0.1 C 4.29 g/m*3 0.1 C 0 km/h
Sensor: Nr:Datum:Temp:Abs-Feuchte:Windchill:Wind:
Aussen-T/F 251 28-01-2009 02:08:52 0.1 C 4.29 g/m*3 0.1 C 0 km/h
252 28-01-2009 02:20:52 0 C 4.22 g/m*3 0 C 0 km/h
253 28-01-2009 02:32:52 0 C 4.22 g/m*3 0 C 0 km/h
254 28-01-2009 02:44:52 0 C 4.22 g/m*3 0 C 0 km/h
255 28-01-2009 02:56:52 0 C 4.22 g/m*3 0 C 0 km/h
256 28-01-2009 03:08:52 0 C 4.22 g/m*3 0 C 0 km/h
257 28-01-2009 03:20:52 -0.2 C 4.16 g/m*3 -0.2 C 0 km/h
258 28-01-2009 03:32:53 -0.2 C 4.16 g/m*3 -0.2 C 0 km/h
259 28-01-2009 03:44:53 -0.2 C 4.16 g/m*3 -0.2 C 0 km/h
260 28-01-2009 03:56:53 -0.2 C 4.16 g/m*3 -0.2 C 0 km/h
261 28-01-2009 04:08:53 -0.3 C 4.13 g/m*3 -0.3 C 0 km/h
262 28-01-2009 04:20:53 -0.3 C 4.13 g/m*3 -0.3 C 0 km/h
263 28-01-2009 04:32:53 -0.4 C 4.05 g/m*3 -0.4 C 0 km/h
264 28-01-2009 04:44:53 -0.6 C 4 g/m*3 -0.6 C 0 km/h
265 28-01-2009 04:56:53 -0.8 C 3.94 g/m*3 -0.8 C 0 km/h
266 28-01-2009 05:08:53 -1 C 3.89 g/m*3 -1 C 0 km/h
267 28-01-2009 05:20:53 -0.9 C 3.91 g/m*3 -0.9 C 0 km/h
268 28-01-2009 05:32:53 -0.6 C 4.04 g/m*3 -0.6 C 0 km/h
269 28-01-2009 05:44:53 -0.6 C 4 g/m*3 -0.6 C 0 km/h
270 28-01-2009 05:56:53 -0.6 C 4 g/m*3 -0.6 C 0 km/h
271 28-01-2009 06:08:53 -0.6 C 4 g/m*3 -0.6 C 0 km/h
272 28-01-2009 06:20:53 -0.7 C 3.97 g/m*3 -0.7 C 0 km/h
273 28-01-2009 06:32:53 -0.7 C 3.97 g/m*3 -0.7 C 0 km/h
274 28-01-2009 06:44:53 -0.7 C 3.92 g/m*3 -0.7 C 0 km/h
275 28-01-2009 06:56:53 -0.6 C 3.95 g/m*3 -0.6 C 0 km/h
Sensor: Nr:Datum:Temp:Abs-Feuchte:Windchill:Wind:
Aussen-T/F 276 28-01-2009 07:08:52 -0.6 C 3.95 g/m*3 -0.6 C 0 km/h
277 28-01-2009 07:20:51 -0.6 C 3.95 g/m*3 -0.6 C 0 km/h
278 28-01-2009 07:32:51 -0.5 C 3.98 g/m*3 -0.5 C 0 km/h
279 28-01-2009 07:44:51 -0.5 C 3.98 g/m*3 -0.5 C 0 km/h
280 28-01-2009 07:56:51 -0.5 C 3.98 g/m*3 -0.5 C 0 km/h
281 28-01-2009 08:08:51 -0.4 C 4.01 g/m*3 -0.4 C 0 km/h
282 28-01-2009 08:20:50 -0.5 C 3.93 g/m*3 -0.5 C 0 km/h
283 28-01-2009 08:32:50 -0.5 C 3.93 g/m*3 -0.5 C 0 km/h
284 28-01-2009 08:44:50 -0.4 C 3.96 g/m*3 -0.4 C 0 km/h
285 28-01-2009 08:56:50 -0.5 C 3.93 g/m*3 -0.5 C 0 km/h
286 28-01-2009 09:08:50 -0.4 C 3.96 g/m*3 -0.4 C 0 km/h
287 28-01-2009 09:20:49 -0.3 C 3.99 g/m*3 -0.3 C 0 km/h
288 28-01-2009 09:32:50 -0.3 C 3.94 g/m*3 -0.3 C 0 km/h
289 28-01-2009 09:44:50 -0.1 C 3.99 g/m*3 -0.1 C 0 km/h
290 28-01-2009 09:56:50 0.1 C 4.05 g/m*3 0.1 C 0 km/h
291 28-01-2009 10:08:49 0.2 C 4.08 g/m*3 0.2 C 0 km/h
292 28-01-2009 10:20:50 0.3 C 4.06 g/m*3 0.3 C 0 km/h
293 28-01-2009 10:32:49 0.4 C 4.03 g/m*3 0.4 C 0 km/h
294 28-01-2009 10:44:49 0.6 C 4.09 g/m*3 0.6 C 0 km/h
295 28-01-2009 10:56:49 0.7 C 4.07 g/m*3 0.7 C 0 km/h
296 28-01-2009 11:08:48 0.8 C 3.99 g/m*3 0.8 C 0 km/h
297 28-01-2009 11:20:49 0.8 C 3.94 g/m*3 0.8 C 0 km/h
298 28-01-2009 11:32:48 1 C 3.94 g/m*3 1 C 0 km/h
299 28-01-2009 11:44:48 1.3 C 3.92 g/m*3 1.3 C 0 km/h
300 28-01-2009 11:56:48 1.4 C 3.89 g/m*3 1.4 C 0 km/h
Sensor: Nr:Datum:Temp:Abs-Feuchte:Windchill:Wind:
Aussen-T/F 301 28-01-2009 12:08:48 1.7 C 3.92 g/m*3 1.7 C 0 km/h
302 28-01-2009 12:20:48 2.2 C 4 g/m*3 2.2 C 0 km/h
303 28-01-2009 12:32:48 2.3 C 3.86 g/m*3 2.3 C 0 km/h
304 28-01-2009 12:44:48 2.5 C 3.91 g/m*3 2.5 C 0 km/h
305 28-01-2009 12:56:48 2.7 C 3.96 g/m*3 2.7 C 0 km/h
306 28-01-2009 13:08:48 2.6 C 3.88 g/m*3 2.6 C 0 km/h
307 28-01-2009 13:20:47 2.6 C 3.94 g/m*3 2.6 C 0 km/h
308 28-01-2009 13:32:48 2.6 C 3.94 g/m*3 2.6 C 0 km/h
309 28-01-2009 13:44:47 2.9 C 4.07 g/m*3 2.9 C 0 km/h
310 28-01-2009 13:56:47 3.2 C 4.1 g/m*3 3.2 C 0 km/h
311 28-01-2009 14:08:47 3.1 C 4.01 g/m*3 3.1 C 0 km/h
312 28-01-2009 14:20:46 3.1 C 4.07 g/m*3 3.1 C 0 km/h
313 28-01-2009 14:32:47 2.7 C 4.08 g/m*3 2.7 C 0 km/h
314 28-01-2009 14:44:46 2.8 C 4.11 g/m*3 2.8 C 0 km/h
315 28-01-2009 14:56:46 2.7 C 4.14 g/m*3 2.7 C 0 km/h
316 28-01-2009 15:08:46 2.6 C 4.17 g/m*3 2.6 C 0 km/h
317 28-01-2009 15:20:47 2.4 C 4.11 g/m*3 2.4 C 0 km/h
318 28-01-2009 15:32:46 2 C 4 g/m*3 2 C 0 km/h
319 28-01-2009 15:44:46 1.6 C 3.95 g/m*3 1.6 C 0 km/h
320 28-01-2009 15:56:46 1.3 C 3.92 g/m*3 1.3 C 0 km/h
321 28-01-2009 16:08:46 1.1 C 3.92 g/m*3 1.1 C 0 km/h
322 28-01-2009 16:20:46 1 C 3.89 g/m*3 1 C 0 km/h
323 28-01-2009 16:32:46 0.7 C 3.86 g/m*3 0.7 C 0 km/h
324 28-01-2009 16:44:45 0.5 C 3.86 g/m*3 0.5 C 0 km/h
325 28-01-2009 16:56:45 0.4 C 3.88 g/m*3 0.4 C 0 km/h
Sensor: Nr:Datum:Temp:Abs-Feuchte:Windchill:Wind:
Aussen-T/F 326 28-01-2009 17:08:46 0.2 C 3.83 g/m*3 0.2 C 0 km/h
327 28-01-2009 17:20:45 0 C 3.78 g/m*3 0 C 0 km/h
328 28-01-2009 17:32:45 -0.3 C 3.75 g/m*3 -0.3 C 0 km/h
329 28-01-2009 17:44:47 -0.4 C 3.77 g/m*3 -0.4 C 0 km/h
330 28-01-2009 17:56:47 -0.7 C 3.69 g/m*3 -0.7 C 0 km/h
331 28-01-2009 18:08:45 -0.8 C 3.67 g/m*3 -0.8 C 0 km/h
332 28-01-2009 18:20:45 -0.4 C 3.86 g/m*3 -0.4 C 0 km/h
333 28-01-2009 18:32:45 0 C 4.02 g/m*3 0 C 0 km/h
334 28-01-2009 18:44:44 0.2 C 4.08 g/m*3 0.2 C 0 km/h
335 28-01-2009 18:56:44 0.3 C 4.06 g/m*3 0.3 C 0 km/h
336 28-01-2009 19:08:45 0.4 C 4.08 g/m*3 0.4 C 0 km/h
337 28-01-2009 19:20:44 0.4 C 4.08 g/m*3 0.4 C 0 km/h
338 28-01-2009 19:32:44 0.5 C 4.11 g/m*3 0.5 C 0 km/h
339 28-01-2009 19:44:44 0.5 C 4.11 g/m*3 0.5 C 0 km/h
340 28-01-2009 19:56:44 0.6 C 4.14 g/m*3 0.6 C 0 km/h
341 28-01-2009 20:08:44 0.6 C 4.09 g/m*3 0.6 C 0 km/h
342 28-01-2009 20:20:43 0.6 C 4.09 g/m*3 0.6 C 0 km/h
343 28-01-2009 20:32:43 0.7 C 4.12 g/m*3 0.7 C 0 km/h
344 28-01-2009 20:44:43 0.8 C 4.15 g/m*3 0.8 C 0 km/h
345 28-01-2009 20:56:43 0.8 C 4.1 g/m*3 0.8 C 0 km/h
346 28-01-2009 21:08:43 0.8 C 4.1 g/m*3 0.8 C 0 km/h
347 28-01-2009 21:20:43 0.7 C 4.12 g/m*3 0.7 C 0 km/h
348 28-01-2009 21:32:43 0.7 C 4.07 g/m*3 0.7 C 0 km/h
349 28-01-2009 21:44:42 0.7 C 4.02 g/m*3 0.7 C 0 km/h
350 28-01-2009 21:56:42 0.8 C 4.04 g/m*3 0.8 C 0 km/h
Sensor: Nr:Datum:Temp:Abs-Feuchte:Windchill:Wind:
Aussen-T/F 351 28-01-2009 22:09:44 0.8 C 3.94 g/m*3 0.8 C 0 km/h
352 28-01-2009 22:21:44 0.7 C 3.81 g/m*3 0.7 C 0 km/h
353 28-01-2009 22:33:44 0.7 C 3.76 g/m*3 0.7 C 0 km/h
354 28-01-2009 22:45:44 0.7 C 3.71 g/m*3 0.7 C 0 km/h
355 28-01-2009 22:57:44 0.7 C 3.66 g/m*3 0.7 C 0 km/h
356 28-01-2009 23:09:44 0.7 C 3.61 g/m*3 0.7 C 0 km/h
357 28-01-2009 23:21:44 0.7 C 3.56 g/m*3 0.7 C 0 km/h
358 28-01-2009 23:33:44 0.7 C 3.51 g/m*3 0.7 C 0 km/h
359 28-01-2009 23:45:44 0.8 C 3.53 g/m*3 0.8 C 0 km/h
360 28-01-2009 23:57:44 0.8 C 3.48 g/m*3 0.8 C 0 km/h
361 29-01-2009 00:09:44 0.7 C 3.46 g/m*3 0.7 C 0 km/h
362 29-01-2009 00:21:44 0.7 C 3.46 g/m*3 0.7 C 0 km/h
363 29-01-2009 00:33:44 0.7 C 3.46 g/m*3 0.7 C 0 km/h
364 29-01-2009 00:45:44 0.7 C 3.46 g/m*3 0.7 C 0 km/h
365 29-01-2009 00:57:44 0.7 C 3.46 g/m*3 0.7 C 0 km/h
366 29-01-2009 01:09:44 0.7 C 3.41 g/m*3 0.7 C 0 km/h
367 29-01-2009 01:21:44 0.7 C 3.36 g/m*3 0.7 C 0 km/h
368 29-01-2009 01:33:44 0.6 C 3.38 g/m*3 0.6 C 0 km/h
369 29-01-2009 01:45:44 0.5 C 3.36 g/m*3 0.5 C 0 km/h
370 29-01-2009 01:57:44 0.4 C 3.34 g/m*3 0.4 C 0 km/h
371 29-01-2009 02:09:45 0.4 C 3.19 g/m*3 0.4 C 0 km/h
372 29-01-2009 02:21:45 0.5 C 3.21 g/m*3 0.5 C 0 km/h
373 29-01-2009 02:33:45 0.6 C 3.13 g/m*3 0.6 C 0 km/h
374 29-01-2009 02:45:45 0.6 C 3.08 g/m*3 0.6 C 0 km/h
375 29-01-2009 02:57:45 0.5 C 3.11 g/m*3 0.5 C 0 km/h
Sensor: Nr:Datum:Temp:Abs-Feuchte:Windchill:Wind:
Aussen-T/F 376 29-01-2009 03:09:45 0.5 C 3.16 g/m*3 0.5 C 0 km/h
377 29-01-2009 03:21:45 0.5 C 3.11 g/m*3 0.5 C 0 km/h
378 29-01-2009 03:33:45 0.6 C 3.13 g/m*3 0.6 C 0 km/h
379 29-01-2009 03:45:45 0.6 C 3.18 g/m*3 0.6 C 0 km/h
380 29-01-2009 03:57:45 0.7 C 3.05 g/m*3 0.7 C 0 km/h
381 29-01-2009 04:09:45 0.6 C 3.13 g/m*3 0.6 C 0 km/h
382 29-01-2009 04:21:45 0.7 C 3.15 g/m*3 0.7 C 0 km/h
383 29-01-2009 04:33:45 0.7 C 3.15 g/m*3 0.7 C 0 km/h
384 29-01-2009 04:45:45 0.6 C 3.18 g/m*3 0.6 C 0 km/h
385 29-01-2009 04:57:45 0.6 C 3.18 g/m*3 0.6 C 0 km/h
386 29-01-2009 05:09:45 0.8 C 3.12 g/m*3 0.8 C 0 km/h
387 29-01-2009 05:21:45 0.8 C 3.17 g/m*3 0.8 C 0 km/h
388 29-01-2009 05:33:45 0.7 C 3.2 g/m*3 0.7 C 0 km/h
389 29-01-2009 05:45:45 0.7 C 3.25 g/m*3 0.7 C 0 km/h
390 29-01-2009 05:57:45 0.7 C 3.3 g/m*3 0.7 C 0 km/h
391 29-01-2009 06:09:46 0.7 C 3.36 g/m*3 0.7 C 0 km/h
392 29-01-2009 06:21:46 0.8 C 3.33 g/m*3 0.8 C 0 km/h
393 29-01-2009 06:33:46 0.8 C 3.28 g/m*3 0.8 C 0 km/h
394 29-01-2009 06:45:44 0.8 C 3.28 g/m*3 0.8 C 0 km/h
395 29-01-2009 06:57:44 0.8 C 3.23 g/m*3 0.8 C 0 km/h
396 29-01-2009 07:09:44 0.9 C 3.25 g/m*3 0.9 C 0 km/h
397 29-01-2009 07:21:43 0.8 C 3.23 g/m*3 0.8 C 0 km/h
398 29-01-2009 07:33:43 0.8 C 3.17 g/m*3 0.8 C 0 km/h
399 29-01-2009 07:45:43 0.8 C 3.17 g/m*3 0.8 C 0 km/h
400 29-01-2009 07:57:43 0.8 C 3.17 g/m*3 0.8 C 0 km/h
Sensor: Nr:Datum:Temp:Abs-Feuchte:Windchill:Wind:
Aussen-T/F 401 29-01-2009 08:09:43 0.8 C 3.23 g/m*3 0.8 C 0 km/h
402 29-01-2009 08:21:42 0.8 C 3.23 g/m*3 0.8 C 0 km/h
403 29-01-2009 08:33:43 0.8 C 3.17 g/m*3 0.8 C 0 km/h
404 29-01-2009 08:45:42 0.8 C 3.17 g/m*3 0.8 C 0 km/h
405 29-01-2009 08:57:42 0.8 C 3.12 g/m*3 0.8 C 0 km/h
406 29-01-2009 09:09:42 0.9 C 3.14 g/m*3 0.9 C 0 km/h
407 29-01-2009 09:21:43 1 C 3.06 g/m*3 1 C 0 km/h
408 29-01-2009 09:33:42 1.1 C 2.98 g/m*3 1.1 C 0 km/h
409 29-01-2009 09:45:42 1.2 C 3 g/m*3 1.2 C 0 km/h
410 29-01-2009 09:57:42 1.4 C 3.04 g/m*3 1.4 C 0 km/h
411 29-01-2009 10:09:42 1.6 C 3.03 g/m*3 1.6 C 0 km/h
412 29-01-2009 10:21:42 1.5 C 2.95 g/m*3 1.5 C 0 km/h
413 29-01-2009 10:33:41 1.2 C 2.89 g/m*3 1.2 C 0 km/h
414 29-01-2009 10:45:41 1 C 2.96 g/m*3 1 C 0 km/h
415 29-01-2009 10:57:42 1 C 3.01 g/m*3 1 C 0 km/h
416 29-01-2009 11:09:41 1 C 3.11 g/m*3 1 C 0 km/h
417 29-01-2009 11:21:41 1.4 C 3.04 g/m*3 1.4 C 0 km/h
418 29-01-2009 11:33:41 1.6 C 3.03 g/m*3 1.6 C 0 km/h
419 29-01-2009 11:45:41 1.7 C 2.99 g/m*3 1.7 C 0 km/h
420 29-01-2009 11:57:41 2 C 3 g/m*3 2 C 0 km/h
421 29-01-2009 12:09:41 2.2 C 2.99 g/m*3 2.2 C 0 km/h
422 29-01-2009 12:21:40 2.6 C 3.01 g/m*3 2.6 C 0 km/h
423 29-01-2009 12:33:40 2.9 C 3.01 g/m*3 2.9 C 0 km/h
424 29-01-2009 12:45:40 3.3 C 2.97 g/m*3 3.3 C 0 km/h
425 29-01-2009 12:57:40 3.9 C 2.97 g/m*3 3.9 C 0 km/h
Sensor: Nr:Datum:Temp:Abs-Feuchte:Windchill:Wind:
Aussen-T/F 426 29-01-2009 13:09:40 4.2 C 2.9 g/m*3 4.2 C 0 km/h
427 29-01-2009 13:21:39 4.4 C 2.81 g/m*3 4.4 C 0 km/h
428 29-01-2009 13:33:40 4.8 C 2.82 g/m*3 4.8 C 0 km/h
429 29-01-2009 13:45:40 5.1 C 2.74 g/m*3 5.1 C 0 km/h
430 29-01-2009 13:57:40 5.3 C 2.77 g/m*3 5.3 C 0 km/h
431 29-01-2009 14:09:39 5.5 C 2.67 g/m*3 5.5 C 0 km/h
432 29-01-2009 14:21:40 5.8 C 2.72 g/m*3 5.8 C 0 km/h
433 29-01-2009 14:33:39 6.1 C 2.63 g/m*3 6.1 C 0 km/h
434 29-01-2009 14:45:39 6.2 C 2.65 g/m*3 6.2 C 0 km/h
435 29-01-2009 14:57:39 6.4 C 2.61 g/m*3 6.4 C 0 km/h
436 29-01-2009 15:09:39 6.6 C 2.64 g/m*3 6.6 C 0 km/h
437 29-01-2009 15:21:39 6.8 C 2.68 g/m*3 6.8 C 0 km/h
438 29-01-2009 15:33:39 6.5 C 2.62 g/m*3 6.5 C 0 km/h
439 29-01-2009 15:45:39 6.4 C 2.61 g/m*3 6.4 C 0 km/h
440 29-01-2009 15:57:39 5.6 C 2.55 g/m*3 5.6 C 0 km/h
441 29-01-2009 16:09:39 4.7 C 2.66 g/m*3 4.7 C 0 km/h
442 29-01-2009 16:21:38 4 C 2.61 g/m*3 4 C 0 km/h
443 29-01-2009 16:33:38 3.5 C 2.77 g/m*3 3.5 C 0 km/h
444 29-01-2009 16:45:38 3 C 2.73 g/m*3 3 C 0 km/h
445 29-01-2009 16:57:38 2.5 C 2.82 g/m*3 2.5 C 0 km/h
446 29-01-2009 17:09:38 2.1 C 2.85 g/m*3 2.1 C 0 km/h
447 29-01-2009 17:21:37 1.7 C 2.89 g/m*3 1.7 C 0 km/h
448 29-01-2009 17:33:37 1.2 C 2.95 g/m*3 1.2 C 0 km/h
449 29-01-2009 17:45:37 1 C 2.96 g/m*3 1 C 0 km/h
450 29-01-2009 17:57:37 0.7 C 3.05 g/m*3 0.7 C 0 km/h
Sensor: Nr:Datum:Temp:Abs-Feuchte:Windchill:Wind:
Aussen-T/F 451 29-01-2009 18:09:37 0.5 C 3.06 g/m*3 0.5 C 0 km/h
452 29-01-2009 18:21:38 0.4 C 3.09 g/m*3 0.4 C 0 km/h
453 29-01-2009 18:33:37 0.3 C 3.12 g/m*3 0.3 C 0 km/h
454 29-01-2009 18:45:37 0.2 C 3.09 g/m*3 0.2 C 0 km/h
455 29-01-2009 18:57:37 0.1 C 3.12 g/m*3 0.1 C 0 km/h
456 29-01-2009 19:09:37 -0.1 C 3.13 g/m*3 -0.1 C 0 km/h
457 29-01-2009 19:21:36 -0.3 C 3.13 g/m*3 -0.3 C 0 km/h
458 29-01-2009 19:33:36 -0.4 C 3.11 g/m*3 -0.4 C 0 km/h
459 29-01-2009 19:45:36 -0.6 C 3.11 g/m*3 -0.6 C 0 km/h
460 29-01-2009 19:57:37 -0.8 C 3.12 g/m*3 -0.8 C 0 km/h
461 29-01-2009 20:09:36 -0.9 C 3.14 g/m*3 -0.9 C 0 km/h
462 29-01-2009 20:21:36 -0.9 C 3.14 g/m*3 -0.9 C 0 km/h
463 29-01-2009 20:33:36 -1.1 C 3.14 g/m*3 -1.1 C 0 km/h
464 29-01-2009 20:45:36 -1.1 C 3.14 g/m*3 -1.1 C 0 km/h
465 29-01-2009 20:57:36 -1.2 C 3.12 g/m*3 -1.2 C 0 km/h
466 29-01-2009 21:09:35 -1.4 C 3.08 g/m*3 -1.4 C 0 km/h
467 29-01-2009 21:21:35 -1.5 C 3.1 g/m*3 -1.5 C 0 km/h
468 29-01-2009 21:34:36 -1.6 C 3.12 g/m*3 -1.6 C 0 km/h
469 29-01-2009 21:46:36 -1.7 C 3.14 g/m*3 -1.7 C 0 km/h
470 29-01-2009 21:58:36 -1.8 C 3.12 g/m*3 -1.8 C 0 km/h
471 29-01-2009 22:10:36 -2 C 3.08 g/m*3 -2 C 0 km/h
472 29-01-2009 22:22:36 -1.9 C 3.14 g/m*3 -1.9 C 0 km/h
473 29-01-2009 22:34:36 -2 C 3.12 g/m*3 -2 C 0 km/h
474 29-01-2009 22:46:36 -2.2 C 3.08 g/m*3 -2.2 C 0 km/h
475 29-01-2009 22:58:36 -2.4 C 3.03 g/m*3 -2.4 C 0 km/h
Sensor: Nr:Datum:Temp:Abs-Feuchte:Windchill:Wind:
Aussen-T/F 476 29-01-2009 23:10:36 -2.3 C 3.1 g/m*3 -2.3 C 0 km/h
477 29-01-2009 23:22:36 -2.4 C 3.07 g/m*3 -2.4 C 0 km/h
478 29-01-2009 23:34:36 -2.5 C 3.05 g/m*3 -2.5 C 0 km/h
479 29-01-2009 23:46:36 -2.5 C 3.09 g/m*3 -2.5 C 0 km/h
480 29-01-2009 23:58:36 -2.5 C 3.09 g/m*3 -2.5 C 0 km/h
481 30-01-2009 00:10:36 -2.5 C 3.13 g/m*3 -2.5 C 0 km/h
482 30-01-2009 00:22:37 -2.5 C 3.13 g/m*3 -2.5 C 0 km/h
483 30-01-2009 00:34:37 -2.5 C 3.13 g/m*3 -2.5 C 0 km/h
484 30-01-2009 00:46:37 -2.6 C 3.11 g/m*3 -2.6 C 0 km/h
485 30-01-2009 00:58:37 -2.7 C 3.09 g/m*3 -2.7 C 0 km/h
486 30-01-2009 01:10:37 -2.7 C 3.09 g/m*3 -2.7 C 0 km/h
487 30-01-2009 01:22:37 -2.9 C 3.05 g/m*3 -2.9 C 0 km/h
488 30-01-2009 01:34:37 -2.8 C 3.11 g/m*3 -2.8 C 0 km/h
489 30-01-2009 01:46:37 -3 C 3.06 g/m*3 -3 C 0 km/h
490 30-01-2009 01:58:37 -3.1 C 3 g/m*3 -3.1 C 0 km/h
491 30-01-2009 02:10:37 -3.2 C 3.02 g/m*3 -3.2 C 0 km/h
492 30-01-2009 02:22:37 -3.2 C 3.02 g/m*3 -3.2 C 0 km/h
493 30-01-2009 02:34:37 -3.5 C 2.96 g/m*3 -3.5 C 0 km/h
494 30-01-2009 02:46:37 -3.5 C 2.96 g/m*3 -3.5 C 0 km/h
495 30-01-2009 02:58:37 -3.5 C 2.96 g/m*3 -3.5 C 0 km/h
496 30-01-2009 03:10:37 -3.6 C 2.94 g/m*3 -3.6 C 0 km/h
497 30-01-2009 03:22:37 -3.7 C 2.95 g/m*3 -3.7 C 0 km/h
498 30-01-2009 03:34:37 -3.8 C 2.93 g/m*3 -3.8 C 0 km/h
499 30-01-2009 03:46:37 -3.6 C 3.01 g/m*3 -3.6 C 0 km/h
500 30-01-2009 03:58:37 -3.7 C 2.99 g/m*3 -3.7 C 0 km/h
Sensor: Nr:Datum:Temp:Abs-Feuchte:Windchill:Wind:
Aussen-T/F 501 30-01-2009 04:10:37 -3.8 C 2.97 g/m*3 -3.8 C 0 km/h
502 30-01-2009 04:22:37 -3.8 C 2.97 g/m*3 -3.8 C 0 km/h
503 30-01-2009 04:34:38 -3.9 C 2.95 g/m*3 -3.9 C 0 km/h
504 30-01-2009 04:46:38 -3.9 C 2.98 g/m*3 -3.9 C 0 km/h
505 30-01-2009 04:58:38 -3.9 C 2.98 g/m*3 -3.9 C 0 km/h
506 30-01-2009 05:10:38 -3.9 C 2.98 g/m*3 -3.9 C 0 km/h
507 30-01-2009 05:22:38 -3.8 C 3.04 g/m*3 -3.8 C 0 km/h
508 30-01-2009 05:34:38 -3.8 C 3.04 g/m*3 -3.8 C 0 km/h
509 30-01-2009 05:46:38 -3.8 C 3.04 g/m*3 -3.8 C 0 km/h
510 30-01-2009 05:58:38 -3.9 C 3.02 g/m*3 -3.9 C 0 km/h
511 30-01-2009 06:10:38 -3.9 C 3.02 g/m*3 -3.9 C 0 km/h
512 30-01-2009 06:22:38 -4.1 C 2.98 g/m*3 -4.1 C 0 km/h
513 30-01-2009 06:34:35 -4.1 C 2.98 g/m*3 -4.1 C 0 km/h
514 30-01-2009 06:46:35 -4.3 C 2.94 g/m*3 -4.3 C 0 km/h
515 30-01-2009 06:58:35 -4.3 C 2.94 g/m*3 -4.3 C 0 km/h
516 30-01-2009 07:10:35 -4.4 C 2.92 g/m*3 -4.4 C 0 km/h
517 30-01-2009 07:22:35 -4.6 C 2.87 g/m*3 -4.6 C 0 km/h
518 30-01-2009 07:34:34 -4.8 C 2.83 g/m*3 -4.8 C 0 km/h
519 30-01-2009 07:46:35 -4.8 C 2.83 g/m*3 -4.8 C 0 km/h
520 30-01-2009 07:58:35 -4.7 C 2.85 g/m*3 -4.7 C 0 km/h
521 30-01-2009 08:10:34 -4.7 C 2.89 g/m*3 -4.7 C 0 km/h
522 30-01-2009 08:22:34 -4.6 C 2.91 g/m*3 -4.6 C 0 km/h
523 30-01-2009 08:34:34 -4.2 C 3.03 g/m*3 -4.2 C 0 km/h
524 30-01-2009 08:46:34 -3.6 C 3.2 g/m*3 -3.6 C 0 km/h
525 30-01-2009 08:58:34 -3.3 C 3.31 g/m*3 -3.3 C 0 km/h
Sensor: Nr:Datum:Temp:Abs-Feuchte:Windchill:Wind:
Aussen-T/F 526 30-01-2009 09:10:33 -3 C 3.38 g/m*3 -3 C 0 km/h
527 30-01-2009 09:22:34 -2.7 C 3.45 g/m*3 -2.7 C 0 km/h
528 30-01-2009 09:34:34 -2.5 C 3.46 g/m*3 -2.5 C 0 km/h
529 30-01-2009 09:46:33 -2.2 C 3.49 g/m*3 -2.2 C 0 km/h
530 30-01-2009 09:58:33 -1.8 C 3.55 g/m*3 -1.8 C 0 km/h
531 30-01-2009 10:10:34 -1.5 C 3.54 g/m*3 -1.5 C 0 km/h
532 30-01-2009 10:22:33 -1.2 C 3.43 g/m*3 -1.2 C 0 km/h
533 30-01-2009 10:34:33 -1 C 3.25 g/m*3 -1 C 0 km/h
534 30-01-2009 10:46:32 -0.8 C 3.21 g/m*3 -0.8 C 0 km/h
535 30-01-2009 10:58:32 -0.7 C 3.18 g/m*3 -0.7 C 0 km/h
536 30-01-2009 11:10:33 -0.5 C 3.14 g/m*3 -0.5 C 0 km/h
537 30-01-2009 11:22:32 -0.3 C 3.08 g/m*3 -0.3 C 0 km/h
538 30-01-2009 11:34:32 0 C 3.1 g/m*3 0 C 0 km/h
539 30-01-2009 11:46:32 0.2 C 3.09 g/m*3 0.2 C 0 km/h
540 30-01-2009 11:58:32 0.5 C 3.16 g/m*3 0.5 C 0 km/h
541 30-01-2009 12:10:32 0.4 C 2.99 g/m*3 0.4 C 0 km/h
542 30-01-2009 12:22:32 0.4 C 2.99 g/m*3 0.4 C 0 km/h
543 30-01-2009 12:34:31 0.4 C 2.99 g/m*3 0.4 C 0 km/h
544 30-01-2009 12:46:32 0.6 C 3.03 g/m*3 0.6 C 0 km/h
545 30-01-2009 12:58:32 1.1 C 3.03 g/m*3 1.1 C 0 km/h
546 30-01-2009 13:10:31 1.4 C 2.99 g/m*3 1.4 C 0 km/h
547 30-01-2009 13:22:31 2 C 2.95 g/m*3 2 C 0 km/h
548 30-01-2009 13:34:31 2.5 C 2.93 g/m*3 2.5 C 0 km/h
549 30-01-2009 13:46:31 2.8 C 2.93 g/m*3 2.8 C 0 km/h
550 30-01-2009 13:58:31 3 C 2.73 g/m*3 3 C 0 km/h
Sensor: Nr:Datum:Temp:Abs-Feuchte:Windchill:Wind:
Aussen-T/F 551 30-01-2009 14:10:30 3.3 C 2.79 g/m*3 3.3 C 0 km/h
552 30-01-2009 14:22:31 3.4 C 2.75 g/m*3 3.4 C 0 km/h
553 30-01-2009 14:34:30 3.6 C 2.79 g/m*3 3.6 C 0 km/h
554 30-01-2009 14:46:30 3.8 C 2.82 g/m*3 3.8 C 0 km/h
555 30-01-2009 14:58:30 3.8 C 2.76 g/m*3 3.8 C 0 km/h
556 30-01-2009 15:10:30 3.9 C 2.72 g/m*3 3.9 C 0 km/h
557 30-01-2009 15:22:30 4.2 C 2.71 g/m*3 4.2 C 0 km/h
558 30-01-2009 15:34:30 3.9 C 2.72 g/m*3 3.9 C 0 km/h
559 30-01-2009 15:46:30 3.7 C 2.68 g/m*3 3.7 C 0 km/h
560 30-01-2009 15:58:30 3.6 C 2.72 g/m*3 3.6 C 0 km/h
561 30-01-2009 16:10:30 2.8 C 2.7 g/m*3 2.8 C 0 km/h
562 30-01-2009 16:22:29 2 C 2.72 g/m*3 2 C 0 km/h
563 30-01-2009 16:34:29 1.5 C 2.79 g/m*3 1.5 C 0 km/h
564 30-01-2009 16:46:29 0.8 C 2.87 g/m*3 0.8 C 0 km/h
565 30-01-2009 16:58:29 0.4 C 2.89 g/m*3 0.4 C 0 km/h
566 30-01-2009 17:10:29 0 C 2.91 g/m*3 0 C 0 km/h
567 30-01-2009 17:22:29 -0.2 C 2.87 g/m*3 -0.2 C 0 km/h
568 30-01-2009 17:34:29 -0.5 C 2.9 g/m*3 -0.5 C 0 km/h
569 30-01-2009 17:46:28 -0.8 C 2.89 g/m*3 -0.8 C 0 km/h
570 30-01-2009 17:58:28 -0.9 C 2.91 g/m*3 -0.9 C 0 km/h
571 30-01-2009 18:10:29 -1 C 2.94 g/m*3 -1 C 0 km/h
572 30-01-2009 18:22:29 -1 C 2.98 g/m*3 -1 C 0 km/h
573 30-01-2009 18:34:28 -1.1 C 2.96 g/m*3 -1.1 C 0 km/h
574 30-01-2009 18:46:29 -1.1 C 3.01 g/m*3 -1.1 C 0 km/h
575 30-01-2009 18:58:29 -1.2 C 2.99 g/m*3 -1.2 C 0 km/h
Sensor: Nr:Datum:Temp:Abs-Feuchte:Windchill:Wind:
Aussen-T/F 576 30-01-2009 19:10:28 -1.2 C 3.03 g/m*3 -1.2 C 0 km/h
577 30-01-2009 19:22:28 -1.2 C 3.03 g/m*3 -1.2 C 0 km/h
578 30-01-2009 19:34:27 -1.3 C 3.05 g/m*3 -1.3 C 0 km/h
579 30-01-2009 19:46:28 -1.5 C 3.06 g/m*3 -1.5 C 0 km/h
580 30-01-2009 19:58:28 -1.5 C 3.06 g/m*3 -1.5 C 0 km/h
581 30-01-2009 20:10:27 -1.5 C 3.1 g/m*3 -1.5 C 0 km/h
582 30-01-2009 20:22:27 -1.7 C 3.06 g/m*3 -1.7 C 0 km/h
583 30-01-2009 20:34:27 -1.7 C 3.1 g/m*3 -1.7 C 0 km/h
584 30-01-2009 20:46:27 -1.7 C 3.1 g/m*3 -1.7 C 0 km/h
585 30-01-2009 20:58:27 -1.8 C 3.08 g/m*3 -1.8 C 0 km/h
586 30-01-2009 21:10:27 -1.8 C 3.12 g/m*3 -1.8 C 0 km/h
587 30-01-2009 21:22:26 -1.8 C 3.12 g/m*3 -1.8 C 0 km/h
588 30-01-2009 21:34:26 -2 C 3.08 g/m*3 -2 C 0 km/h
589 30-01-2009 21:46:26 -2.1 C 3.1 g/m*3 -2.1 C 0 km/h
590 30-01-2009 21:58:26 -2 C 3.12 g/m*3 -2 C 0 km/h
591 30-01-2009 22:10:26 -2.1 C 3.06 g/m*3 -2.1 C 0 km/h
592 30-01-2009 22:22:26 -2.2 C 3.03 g/m*3 -2.2 C 0 km/h
593 30-01-2009 22:34:26 -2.3 C 3.01 g/m*3 -2.3 C 0 km/h
594 30-01-2009 22:46:26 -2.4 C 2.99 g/m*3 -2.4 C 0 km/h
595 30-01-2009 22:58:26 -2.4 C 2.99 g/m*3 -2.4 C 0 km/h
596 30-01-2009 23:10:25 -2.4 C 2.99 g/m*3 -2.4 C 0 km/h
597 30-01-2009 23:22:26 -2.6 C 2.95 g/m*3 -2.6 C 0 km/h
598 30-01-2009 23:35:25 -2.8 C 2.91 g/m*3 -2.8 C 0 km/h
599 30-01-2009 23:47:25 -2.8 C 2.95 g/m*3 -2.8 C 0 km/h
600 30-01-2009 23:59:25 -2.8 C 2.99 g/m*3 -2.8 C 0 km/h
Sensor: Nr:Datum:Temp:Abs-Feuchte:Windchill:Wind:
Aussen-T/F 601 31-01-2009 00:11:25 -2.7 C 3.01 g/m*3 -2.7 C 0 km/h
602 31-01-2009 00:23:25 -2.3 C 3.1 g/m*3 -2.3 C 0 km/h
603 31-01-2009 00:35:25 -2.1 C 3.1 g/m*3 -2.1 C 0 km/h
604 31-01-2009 00:47:25 -1.8 C 3.12 g/m*3 -1.8 C 0 km/h
605 31-01-2009 00:59:26 -1.7 C 3.06 g/m*3 -1.7 C 0 km/h
606 31-01-2009 01:11:26 -1.6 C 3.03 g/m*3 -1.6 C 0 km/h
607 31-01-2009 01:23:26 -1.5 C 2.97 g/m*3 -1.5 C 0 km/h
608 31-01-2009 01:35:26 -1.4 C 2.99 g/m*3 -1.4 C 0 km/h
609 31-01-2009 01:47:26 -1.3 C 2.97 g/m*3 -1.3 C 0 km/h
610 31-01-2009 01:59:26 -1.2 C 2.9 g/m*3 -1.2 C 0 km/h
611 31-01-2009 02:11:26 -1.2 C 2.85 g/m*3 -1.2 C 0 km/h
612 31-01-2009 02:23:26 -1.2 C 2.81 g/m*3 -1.2 C 0 km/h
613 31-01-2009 02:35:26 -1.2 C 2.81 g/m*3 -1.2 C 0 km/h
614 31-01-2009 02:47:26 -1.1 C 2.78 g/m*3 -1.1 C 0 km/h
615 31-01-2009 02:59:26 -1.1 C 2.78 g/m*3 -1.1 C 0 km/h
616 31-01-2009 03:11:26 -1.1 C 2.74 g/m*3 -1.1 C 0 km/h
617 31-01-2009 03:23:26 -1.1 C 2.74 g/m*3 -1.1 C 0 km/h
618 31-01-2009 03:35:26 -1 C 2.71 g/m*3 -1 C 0 km/h
619 31-01-2009 03:47:26 -1 C 2.76 g/m*3 -1 C 0 km/h
620 31-01-2009 03:59:26 -1 C 2.71 g/m*3 -1 C 0 km/h
621 31-01-2009 04:11:26 -0.9 C 2.73 g/m*3 -0.9 C 0 km/h
622 31-01-2009 04:23:26 -0.9 C 2.73 g/m*3 -0.9 C 0 km/h
623 31-01-2009 04:35:26 -0.9 C 2.73 g/m*3 -0.9 C 0 km/h
624 31-01-2009 04:47:26 -0.9 C 2.78 g/m*3 -0.9 C 0 km/h
625 31-01-2009 04:59:27 -0.9 C 2.73 g/m*3 -0.9 C 0 km/h
Sensor: Nr:Datum:Temp:Abs-Feuchte:Windchill:Wind:
Aussen-T/F 626 31-01-2009 05:11:27 -0.9 C 2.73 g/m*3 -0.9 C 0 km/h
627 31-01-2009 05:23:27 -0.8 C 2.7 g/m*3 -0.8 C 0 km/h
628 31-01-2009 05:35:27 -0.8 C 2.66 g/m*3 -0.8 C 0 km/h
629 31-01-2009 05:47:27 -0.7 C 2.68 g/m*3 -0.7 C 0 km/h
630 31-01-2009 05:59:27 -0.7 C 2.72 g/m*3 -0.7 C 0 km/h
631 31-01-2009 06:11:27 -0.7 C 2.68 g/m*3 -0.7 C 0 km/h
632 31-01-2009 06:23:27 -0.7 C 2.68 g/m*3 -0.7 C 0 km/h
633 31-01-2009 06:35:27 -0.6 C 2.65 g/m*3 -0.6 C 0 km/h
634 31-01-2009 06:47:27 -0.6 C 2.6 g/m*3 -0.6 C 0 km/h
635 31-01-2009 06:59:27 -0.6 C 2.6 g/m*3 -0.6 C 0 km/h
636 31-01-2009 07:11:27 -0.6 C 2.6 g/m*3 -0.6 C 0 km/h
637 31-01-2009 07:23:27 -0.6 C 2.6 g/m*3 -0.6 C 0 km/h
638 31-01-2009 07:35:27 -0.6 C 2.6 g/m*3 -0.6 C 0 km/h
639 31-01-2009 07:47:27 -0.6 C 2.6 g/m*3 -0.6 C 0 km/h
640 31-01-2009 07:59:27 -0.5 C 2.57 g/m*3 -0.5 C 0 km/h
641 31-01-2009 08:11:27 -0.6 C 2.56 g/m*3 -0.6 C 0 km/h
642 31-01-2009 08:23:27 -0.5 C 2.57 g/m*3 -0.5 C 0 km/h
643 31-01-2009 08:35:27 -0.5 C 2.57 g/m*3 -0.5 C 0 km/h
644 31-01-2009 08:47:27 -0.4 C 2.59 g/m*3 -0.4 C 0 km/h
645 31-01-2009 08:59:28 -0.4 C 2.59 g/m*3 -0.4 C 0 km/h
646 31-01-2009 09:11:25 -0.4 C 2.59 g/m*3 -0.4 C 0 km/h
647 31-01-2009 09:23:25 -0.3 C 2.61 g/m*3 -0.3 C 0 km/h
648 31-01-2009 09:35:26 -0.3 C 2.56 g/m*3 -0.3 C 0 km/h
649 31-01-2009 09:47:25 -0.2 C 2.53 g/m*3 -0.2 C 0 km/h
650 31-01-2009 09:59:25 -0.2 C 2.53 g/m*3 -0.2 C 0 km/h
Sensor: Nr:Datum:Temp:Abs-Feuchte:Windchill:Wind:
Aussen-T/F 651 31-01-2009 10:11:25 -0.1 C 2.55 g/m*3 -0.1 C 0 km/h
652 31-01-2009 10:23:25 -0.1 C 2.55 g/m*3 -0.1 C 0 km/h
653 31-01-2009 10:35:25 0 C 2.62 g/m*3 0 C 0 km/h
654 31-01-2009 10:47:24 0.1 C 2.59 g/m*3 0.1 C 0 km/h
655 31-01-2009 10:59:24 0.1 C 2.59 g/m*3 0.1 C 0 km/h
656 31-01-2009 11:11:25 0.2 C 2.55 g/m*3 0.2 C 0 km/h
657 31-01-2009 11:23:24 0.3 C 2.57 g/m*3 0.3 C 0 km/h
658 31-01-2009 11:35:24 0.5 C 2.56 g/m*3 0.5 C 0 km/h
659 31-01-2009 11:47:23 0.5 C 2.56 g/m*3 0.5 C 0 km/h
660 31-01-2009 11:59:23 0.6 C 2.52 g/m*3 0.6 C 0 km/h
661 31-01-2009 12:11:24 0.7 C 2.54 g/m*3 0.7 C 0 km/h
662 31-01-2009 12:23:23 0.7 C 2.49 g/m*3 0.7 C 0 km/h
663 31-01-2009 12:35:23 0.6 C 2.47 g/m*3 0.6 C 0 km/h
664 31-01-2009 12:47:24 0.7 C 2.49 g/m*3 0.7 C 0 km/h
665 31-01-2009 12:59:24 0.7 C 2.49 g/m*3 0.7 C 0 km/h
666 31-01-2009 13:11:23 0.6 C 2.42 g/m*3 0.6 C 0 km/h
667 31-01-2009 13:23:23 0.8 C 2.46 g/m*3 0.8 C 0 km/h
668 31-01-2009 13:35:23 0.8 C 2.41 g/m*3 0.8 C 0 km/h
669 31-01-2009 13:47:23 0.8 C 2.41 g/m*3 0.8 C 0 km/h
670 31-01-2009 13:59:23 0.7 C 2.44 g/m*3 0.7 C 0 km/h
671 31-01-2009 14:11:22 0.8 C 2.46 g/m*3 0.8 C 0 km/h
672 31-01-2009 14:23:23 1 C 2.39 g/m*3 1 C 0 km/h
673 31-01-2009 14:35:22 1.1 C 2.4 g/m*3 1.1 C 0 km/h
674 31-01-2009 14:47:22 1.3 C 2.44 g/m*3 1.3 C 0 km/h
675 31-01-2009 14:59:22 1.3 C 2.33 g/m*3 1.3 C 0 km/h
Sensor: Nr:Datum:Temp:Abs-Feuchte:Windchill:Wind:
Aussen-T/F 676 31-01-2009 15:11:22 1.2 C 2.32 g/m*3 1.2 C 0 km/h
677 31-01-2009 15:23:22 1.5 C 2.26 g/m*3 1.5 C 0 km/h
678 31-01-2009 15:35:22 2.5 C 2.3 g/m*3 2.5 C 0 km/h
679 31-01-2009 15:47:22 3.1 C 2.21 g/m*3 3.1 C 0 km/h
680 31-01-2009 15:59:22 3.3 C 2.24 g/m*3 3.3 C 0 km/h
681 31-01-2009 16:11:22 2.5 C 2.3 g/m*3 2.5 C 0 km/h
682 31-01-2009 16:23:21 1.8 C 2.41 g/m*3 1.8 C 0 km/h
683 31-01-2009 16:35:21 1.6 C 2.43 g/m*3 1.6 C 0 km/h
684 31-01-2009 16:47:21 1.4 C 2.45 g/m*3 1.4 C 0 km/h
685 31-01-2009 16:59:21 0.8 C 2.51 g/m*3 0.8 C 0 km/h
686 31-01-2009 17:11:21 0.5 C 2.56 g/m*3 0.5 C 0 km/h
687 31-01-2009 17:23:20 0.2 C 2.51 g/m*3 0.2 C 0 km/h
688 31-01-2009 17:35:21 0.1 C 2.54 g/m*3 0.1 C 0 km/h
689 31-01-2009 17:47:20 0.1 C 2.54 g/m*3 0.1 C 0 km/h
690 31-01-2009 17:59:20 0.1 C 2.49 g/m*3 0.1 C 0 km/h
691 31-01-2009 18:11:20 0.2 C 2.51 g/m*3 0.2 C 0 km/h
692 31-01-2009 18:23:20 0.2 C 2.51 g/m*3 0.2 C 0 km/h
693 31-01-2009 18:35:20 0.4 C 2.44 g/m*3 0.4 C 0 km/h
694 31-01-2009 18:47:19 0.6 C 2.47 g/m*3 0.6 C 0 km/h
695 31-01-2009 18:59:19 0.8 C 2.46 g/m*3 0.8 C 0 km/h
696 31-01-2009 19:11:20 0.8 C 2.46 g/m*3 0.8 C 0 km/h
697 31-01-2009 19:23:20 0.8 C 2.46 g/m*3 0.8 C 0 km/h
698 31-01-2009 19:35:19 0.7 C 2.54 g/m*3 0.7 C 0 km/h
699 31-01-2009 19:47:20 0.7 C 2.49 g/m*3 0.7 C 0 km/h
700 31-01-2009 19:59:20 0.7 C 2.54 g/m*3 0.7 C 0 km/h
Sensor: Nr:Datum:Temp:Abs-Feuchte:Windchill:Wind:
Aussen-T/F 701 31-01-2009 20:11:19 1 C 2.44 g/m*3 1 C 0 km/h
702 31-01-2009 20:23:19 1.1 C 2.35 g/m*3 1.1 C 0 km/h
703 31-01-2009 20:35:18 1 C 2.39 g/m*3 1 C 0 km/h
704 31-01-2009 20:47:19 1.1 C 2.3 g/m*3 1.1 C 0 km/h
705 31-01-2009 20:59:19 1.2 C 2.32 g/m*3 1.2 C 0 km/h
706 31-01-2009 21:11:18 1.2 C 2.26 g/m*3 1.2 C 0 km/h
707 31-01-2009 21:23:19 1.1 C 2.3 g/m*3 1.1 C 0 km/h
708 31-01-2009 21:35:18 1.2 C 2.21 g/m*3 1.2 C 0 km/h
709 31-01-2009 21:47:18 1 C 2.23 g/m*3 1 C 0 km/h
710 31-01-2009 21:59:18 1 C 2.28 g/m*3 1 C 0 km/h
711 31-01-2009 22:11:18 0.7 C 2.39 g/m*3 0.7 C 0 km/h
712 31-01-2009 22:24:20 0.6 C 2.42 g/m*3 0.6 C 0 km/h
713 31-01-2009 22:36:20 0.5 C 2.46 g/m*3 0.5 C 0 km/h
714 31-01-2009 22:48:20 0.3 C 2.52 g/m*3 0.3 C 0 km/h
715 31-01-2009 23:00:20 0.5 C 2.61 g/m*3 0.5 C 0 km/h
716 31-01-2009 23:12:20 0.3 C 2.62 g/m*3 0.3 C 0 km/h
717 31-01-2009 23:24:20 0 C 2.62 g/m*3 0 C 0 km/h
718 31-01-2009 23:36:20 -0.3 C 2.61 g/m*3 -0.3 C 0 km/h
719 31-01-2009 23:48:20 -0.4 C 2.64 g/m*3 -0.4 C 0 km/h
720 01-02-2009 00:00:20 -0.4 C 2.69 g/m*3 -0.4 C 0 km/h
721 01-02-2009 00:12:20 -0.3 C 2.66 g/m*3 -0.3 C 0 km/h
722 01-02-2009 00:24:20 -0.3 C 2.66 g/m*3 -0.3 C 0 km/h
723 01-02-2009 00:36:20 -0.3 C 2.66 g/m*3 -0.3 C 0 km/h
724 01-02-2009 00:48:20 -0.2 C 2.63 g/m*3 -0.2 C 0 km/h
725 01-02-2009 01:00:20 -0.2 C 2.48 g/m*3 -0.2 C 0 km/h
Sensor: Nr:Datum:Temp:Abs-Feuchte:Windchill:Wind:
Aussen-T/F 726 01-02-2009 01:12:20 -0.2 C 2.39 g/m*3 -0.2 C 0 km/h
727 01-02-2009 01:24:20 -0.2 C 2.34 g/m*3 -0.2 C 0 km/h
728 01-02-2009 01:36:20 -0.2 C 2.29 g/m*3 -0.2 C 0 km/h
729 01-02-2009 01:48:21 -0.1 C 2.21 g/m*3 -0.1 C 0 km/h
730 01-02-2009 02:00:21 -0.1 C 2.17 g/m*3 -0.1 C 0 km/h
731 01-02-2009 02:12:21 -0.1 C 2.17 g/m*3 -0.1 C 0 km/h
732 01-02-2009 02:24:21 -0.1 C 2.17 g/m*3 -0.1 C 0 km/h
733 01-02-2009 02:36:21 -0.2 C 2.15 g/m*3 -0.2 C 0 km/h
734 01-02-2009 02:48:21 -0.2 C 2.1 g/m*3 -0.2 C 0 km/h
735 01-02-2009 03:00:21 -0.1 C 2.02 g/m*3 -0.1 C 0 km/h
736 01-02-2009 03:12:21 -0.1 C 1.97 g/m*3 -0.1 C 0 km/h
737 01-02-2009 03:24:21 -0.1 C 2.02 g/m*3 -0.1 C 0 km/h
738 01-02-2009 03:36:21 -0.2 C 2.01 g/m*3 -0.2 C 0 km/h
739 01-02-2009 03:48:21 -0.2 C 2.05 g/m*3 -0.2 C 0 km/h
740 01-02-2009 04:00:21 -0.2 C 1.96 g/m*3 -0.2 C 0 km/h
741 01-02-2009 04:12:21 -0.1 C 1.97 g/m*3 -0.1 C 0 km/h
742 01-02-2009 04:24:21 -0.2 C 1.96 g/m*3 -0.2 C 0 km/h
743 01-02-2009 04:36:21 -0.3 C 2.04 g/m*3 -0.3 C 0 km/h
744 01-02-2009 04:48:21 -0.4 C 2.12 g/m*3 -0.4 C 0 km/h
745 01-02-2009 05:00:21 -0.4 C 2.22 g/m*3 -0.4 C 0 km/h
746 01-02-2009 05:12:21 -0.5 C 2.29 g/m*3 -0.5 C 0 km/h
747 01-02-2009 05:24:21 -0.4 C 2.36 g/m*3 -0.4 C 0 km/h
748 01-02-2009 05:36:21 -0.5 C 2.25 g/m*3 -0.5 C 0 km/h
749 01-02-2009 05:48:22 -0.5 C 2.15 g/m*3 -0.5 C 0 km/h
750 01-02-2009 06:00:22 -0.6 C 2.09 g/m*3 -0.6 C 0 km/h
Sensor: Nr:Datum:Temp:Abs-Feuchte:Windchill:Wind:
Aussen-T/F 751 01-02-2009 06:12:22 -0.6 C 2.05 g/m*3 -0.6 C 0 km/h
752 01-02-2009 06:24:22 -0.7 C 1.98 g/m*3 -0.7 C 0 km/h
753 01-02-2009 06:36:22 -0.7 C 1.98 g/m*3 -0.7 C 0 km/h
754 01-02-2009 06:48:22 -0.8 C 1.97 g/m*3 -0.8 C 0 km/h
755 01-02-2009 07:00:22 -0.9 C 1.96 g/m*3 -0.9 C 0 km/h
756 01-02-2009 07:12:22 -0.9 C 1.96 g/m*3 -0.9 C 0 km/h
757 01-02-2009 07:24:22 -1 C 1.94 g/m*3 -1 C 0 km/h
758 01-02-2009 07:36:22 -1 C 1.94 g/m*3 -1 C 0 km/h
759 01-02-2009 07:48:22 -1 C 1.99 g/m*3 -1 C 0 km/h
760 01-02-2009 08:00:22 -1.1 C 2.02 g/m*3 -1.1 C 0 km/h
761 01-02-2009 08:12:22 -1.1 C 2.02 g/m*3 -1.1 C 0 km/h
762 01-02-2009 08:24:22 -1.1 C 2.07 g/m*3 -1.1 C 0 km/h
763 01-02-2009 08:36:19 -1.1 C 2.11 g/m*3 -1.1 C 0 km/h
764 01-02-2009 08:48:19 -1.1 C 2.11 g/m*3 -1.1 C 0 km/h
765 01-02-2009 09:00:19 -1 C 2.12 g/m*3 -1 C 0 km/h
766 01-02-2009 09:12:19 -0.9 C 2.14 g/m*3 -0.9 C 0 km/h
767 01-02-2009 09:24:18 -0.8 C 2.15 g/m*3 -0.8 C 0 km/h
768 01-02-2009 09:36:19 -0.8 C 2.15 g/m*3 -0.8 C 0 km/h
769 01-02-2009 09:48:18 -0.8 C 2.15 g/m*3 -0.8 C 0 km/h
770 01-02-2009 10:00:18 -0.6 C 2.14 g/m*3 -0.6 C 0 km/h
771 01-02-2009 10:12:18 -0.4 C 2.17 g/m*3 -0.4 C 0 km/h
772 01-02-2009 10:24:18 -0.2 C 2.2 g/m*3 -0.2 C 0 km/h
773 01-02-2009 10:36:18 -0.1 C 2.12 g/m*3 -0.1 C 0 km/h
774 01-02-2009 10:48:17 0 C 2.18 g/m*3 0 C 0 km/h
775 01-02-2009 11:00:18 0 C 2.13 g/m*3 0 C 0 km/h
Sensor: Nr:Datum:Temp:Abs-Feuchte:Windchill:Wind:
Aussen-T/F 776 01-02-2009 11:12:18 0.2 C 2.16 g/m*3 0.2 C 0 km/h
777 01-02-2009 11:24:18 0.1 C 2.15 g/m*3 0.1 C 0 km/h
778 01-02-2009 11:36:17 0.4 C 2.24 g/m*3 0.4 C 0 km/h
779 01-02-2009 11:48:18 0.6 C 2.12 g/m*3 0.6 C 0 km/h
780 01-02-2009 12:00:17 0.8 C 2.15 g/m*3 0.8 C 0 km/h
781 01-02-2009 12:12:17 1 C 2.08 g/m*3 1 C 0 km/h
782 01-02-2009 12:24:17 1.1 C 2.14 g/m*3 1.1 C 0 km/h
783 01-02-2009 12:36:17 0.5 C 2.21 g/m*3 0.5 C 0 km/h
784 01-02-2009 12:48:17 0.5 C 2.31 g/m*3 0.5 C 0 km/h
785 01-02-2009 13:00:16 0.8 C 2.41 g/m*3 0.8 C 0 km/h
786 01-02-2009 13:12:16 0.9 C 2.32 g/m*3 0.9 C 0 km/h
787 01-02-2009 13:24:17 1.2 C 2.16 g/m*3 1.2 C 0 km/h
788 01-02-2009 13:36:17 1.3 C 2.12 g/m*3 1.3 C 0 km/h
789 01-02-2009 13:48:16 1.5 C 2.09 g/m*3 1.5 C 0 km/h
790 01-02-2009 14:00:16 1.8 C 2.19 g/m*3 1.8 C 0 km/h
791 01-02-2009 14:12:16 2.1 C 2.07 g/m*3 2.1 C 0 km/h
792 01-02-2009 14:24:16 2.5 C 2.01 g/m*3 2.5 C 0 km/h
793 01-02-2009 14:36:15 2.1 C 1.96 g/m*3 2.1 C 0 km/h
794 01-02-2009 14:48:16 1.8 C 1.97 g/m*3 1.8 C 0 km/h
795 01-02-2009 15:00:15 1.9 C 2.1 g/m*3 1.9 C 0 km/h
796 01-02-2009 15:12:15 1.7 C 2.01 g/m*3 1.7 C 0 km/h
797 01-02-2009 15:24:15 1.6 C 2.11 g/m*3 1.6 C 0 km/h
798 01-02-2009 15:36:16 1.4 C 2.08 g/m*3 1.4 C 0 km/h
799 01-02-2009 15:48:15 1.3 C 2.07 g/m*3 1.3 C 0 km/h
800 01-02-2009 16:00:15 1 C 2.08 g/m*3 1 C 0 km/h
Sensor: Nr:Datum:Temp:Abs-Feuchte:Windchill:Wind:
Aussen-T/F 801 01-02-2009 16:12:15 1 C 2.13 g/m*3 1 C 0 km/h
802 01-02-2009 16:24:14 0.9 C 2.22 g/m*3 0.9 C 0 km/h
803 01-02-2009 16:36:15 0.8 C 2.25 g/m*3 0.8 C 0 km/h
804 01-02-2009 16:48:14 0.7 C 2.29 g/m*3 0.7 C 0 km/h
805 01-02-2009 17:00:14 0.6 C 2.32 g/m*3 0.6 C 0 km/h
806 01-02-2009 17:12:14 0.6 C 2.47 g/m*3 0.6 C 0 km/h
807 01-02-2009 17:24:14 0.4 C 2.49 g/m*3 0.4 C 0 km/h
808 01-02-2009 17:36:14 0.3 C 2.52 g/m*3 0.3 C 0 km/h
809 01-02-2009 17:48:13 0.2 C 2.51 g/m*3 0.2 C 0 km/h
810 01-02-2009 18:00:14 0.2 C 2.51 g/m*3 0.2 C 0 km/h
811 01-02-2009 18:12:14 0.2 C 2.46 g/m*3 0.2 C 0 km/h
812 01-02-2009 18:24:13 0.1 C 2.44 g/m*3 0.1 C 0 km/h
813 01-02-2009 18:36:13 0 C 2.47 g/m*3 0 C 0 km/h
814 01-02-2009 18:48:13 -0.1 C 2.5 g/m*3 -0.1 C 0 km/h
815 01-02-2009 19:00:13 -0.2 C 2.53 g/m*3 -0.2 C 0 km/h
816 01-02-2009 19:12:13 -0.4 C 2.5 g/m*3 -0.4 C 0 km/h
817 01-02-2009 19:24:13 -0.5 C 2.53 g/m*3 -0.5 C 0 km/h
818 01-02-2009 19:36:13 -0.6 C 2.46 g/m*3 -0.6 C 0 km/h
819 01-02-2009 19:48:13 -0.7 C 2.45 g/m*3 -0.7 C 0 km/h
820 01-02-2009 20:00:12 -0.8 C 2.43 g/m*3 -0.8 C 0 km/h
821 01-02-2009 20:12:12 -0.9 C 2.41 g/m*3 -0.9 C 0 km/h
822 01-02-2009 20:24:13 -1 C 2.4 g/m*3 -1 C 0 km/h
823 01-02-2009 20:36:12 -1 C 2.4 g/m*3 -1 C 0 km/h
824 01-02-2009 20:48:12 -1.1 C 2.38 g/m*3 -1.1 C 0 km/h
825 01-02-2009 21:00:12 -1.2 C 2.36 g/m*3 -1.2 C 0 km/h
Sensor: Nr:Datum:Temp:Abs-Feuchte:Windchill:Wind:
Aussen-T/F 826 01-02-2009 21:12:13 -1.1 C 2.38 g/m*3 -1.1 C 0 km/h
827 01-02-2009 21:24:11 -1 C 2.4 g/m*3 -1 C 0 km/h
828 01-02-2009 21:36:12 -1 C 2.35 g/m*3 -1 C 0 km/h
829 01-02-2009 21:48:11 -1 C 2.35 g/m*3 -1 C 0 km/h
830 01-02-2009 22:00:11 -0.9 C 2.37 g/m*3 -0.9 C 0 km/h
831 01-02-2009 22:12:11 -1 C 2.35 g/m*3 -1 C 0 km/h
832 01-02-2009 22:24:12 -1 C 2.35 g/m*3 -1 C 0 km/h
833 01-02-2009 22:36:11 -0.9 C 2.37 g/m*3 -0.9 C 0 km/h
834 01-02-2009 22:49:13 -1 C 2.35 g/m*3 -1 C 0 km/h
835 01-02-2009 23:01:13 -1 C 2.35 g/m*3 -1 C 0 km/h
836 01-02-2009 23:13:13 -1.1 C 2.38 g/m*3 -1.1 C 0 km/h
837 01-02-2009 23:25:13 -1.1 C 2.38 g/m*3 -1.1 C 0 km/h
838 01-02-2009 23:37:13 -1.2 C 2.36 g/m*3 -1.2 C 0 km/h
839 01-02-2009 23:49:13 -1.1 C 2.42 g/m*3 -1.1 C 0 km/h
840 02-02-2009 00:01:13 -1 C 2.44 g/m*3 -1 C 0 km/h
841 02-02-2009 00:13:13 -1 C 2.44 g/m*3 -1 C 0 km/h
842 02-02-2009 00:25:13 -1.2 C 2.41 g/m*3 -1.2 C 0 km/h
843 02-02-2009 00:37:13 -1.4 C 2.42 g/m*3 -1.4 C 0 km/h
844 02-02-2009 00:49:13 -1.7 C 2.41 g/m*3 -1.7 C 0 km/h
845 02-02-2009 01:01:13 -1.8 C 2.39 g/m*3 -1.8 C 0 km/h
846 02-02-2009 01:13:13 -1.8 C 2.44 g/m*3 -1.8 C 0 km/h
847 02-02-2009 01:25:13 -2.1 C 2.43 g/m*3 -2.1 C 0 km/h
848 02-02-2009 01:37:13 -2.1 C 2.47 g/m*3 -2.1 C 0 km/h
849 02-02-2009 01:49:13 -2.3 C 2.44 g/m*3 -2.3 C 0 km/h
850 02-02-2009 02:01:14 -2.3 C 2.48 g/m*3 -2.3 C 0 km/h
Sensor: Nr:Datum:Temp:Abs-Feuchte:Windchill:Wind:
Aussen-T/F 851 02-02-2009 02:13:14 -2.1 C 2.55 g/m*3 -2.1 C 0 km/h
852 02-02-2009 02:25:14 -1.9 C 2.55 g/m*3 -1.9 C 0 km/h
853 02-02-2009 02:37:14 -1.7 C 2.58 g/m*3 -1.7 C 0 km/h
854 02-02-2009 02:49:14 -1.5 C 2.58 g/m*3 -1.5 C 0 km/h
855 02-02-2009 03:01:14 -1.3 C 2.57 g/m*3 -1.3 C 0 km/h
856 02-02-2009 03:13:14 -1.3 C 2.52 g/m*3 -1.3 C 0 km/h
857 02-02-2009 03:25:14 -1.3 C 2.52 g/m*3 -1.3 C 0 km/h
858 02-02-2009 03:37:14 -1.2 C 2.54 g/m*3 -1.2 C 0 km/h
859 02-02-2009 03:49:14 -1.1 C 2.56 g/m*3 -1.1 C 0 km/h
860 02-02-2009 04:01:14 -1 C 2.58 g/m*3 -1 C 0 km/h
861 02-02-2009 04:13:14 -0.8 C 2.57 g/m*3 -0.8 C 0 km/h
862 02-02-2009 04:25:14 -0.7 C 2.58 g/m*3 -0.7 C 0 km/h
863 02-02-2009 04:37:14 -0.7 C 2.54 g/m*3 -0.7 C 0 km/h
864 02-02-2009 04:49:14 -0.8 C 2.52 g/m*3 -0.8 C 0 km/h
865 02-02-2009 05:01:14 -0.8 C 2.57 g/m*3 -0.8 C 0 km/h
866 02-02-2009 05:13:14 -0.8 C 2.57 g/m*3 -0.8 C 0 km/h
867 02-02-2009 05:25:14 -0.8 C 2.57 g/m*3 -0.8 C 0 km/h
868 02-02-2009 05:37:14 -0.7 C 2.58 g/m*3 -0.7 C 0 km/h
869 02-02-2009 05:49:15 -0.8 C 2.61 g/m*3 -0.8 C 0 km/h
870 02-02-2009 06:01:15 -0.7 C 2.58 g/m*3 -0.7 C 0 km/h
871 02-02-2009 06:13:15 -0.8 C 2.61 g/m*3 -0.8 C 0 km/h
872 02-02-2009 06:25:15 -0.8 C 2.66 g/m*3 -0.8 C 0 km/h
873 02-02-2009 06:37:15 -0.8 C 2.66 g/m*3 -0.8 C 0 km/h
874 02-02-2009 06:49:12 -0.8 C 2.66 g/m*3 -0.8 C 0 km/h
875 02-02-2009 07:01:12 -0.9 C 2.64 g/m*3 -0.9 C 0 km/h
Sensor: Nr:Datum:Temp:Abs-Feuchte:Windchill:Wind:
Aussen-T/F 876 02-02-2009 07:13:12 -0.9 C 2.69 g/m*3 -0.9 C 0 km/h
877 02-02-2009 07:25:12 -0.8 C 2.75 g/m*3 -0.8 C 0 km/h
878 02-02-2009 07:37:12 -0.6 C 2.79 g/m*3 -0.6 C 0 km/h
879 02-02-2009 07:49:11 -0.5 C 2.86 g/m*3 -0.5 C 0 km/h
880 02-02-2009 08:01:11 -0.5 C 2.86 g/m*3 -0.5 C 0 km/h
881 02-02-2009 08:13:12 -0.4 C 2.83 g/m*3 -0.4 C 0 km/h
882 02-02-2009 08:25:11 -0.3 C 2.8 g/m*3 -0.3 C 0 km/h
883 02-02-2009 08:37:11 -0.6 C 2.79 g/m*3 -0.6 C 0 km/h
884 02-02-2009 08:49:10 -0.8 C 2.8 g/m*3 -0.8 C 0 km/h
885 02-02-2009 09:01:11 -0.7 C 2.77 g/m*3 -0.7 C 0 km/h
886 02-02-2009 09:13:11 -0.5 C 2.81 g/m*3 -0.5 C 0 km/h
887 02-02-2009 09:25:11 -0.2 C 2.72 g/m*3 -0.2 C 0 km/h
888 02-02-2009 09:37:10 -0.2 C 2.77 g/m*3 -0.2 C 0 km/h
889 02-02-2009 09:49:11 -0.1 C 2.79 g/m*3 -0.1 C 0 km/h
890 02-02-2009 10:01:10 0.1 C 2.78 g/m*3 0.1 C 0 km/h
891 02-02-2009 10:13:10 0.3 C 2.77 g/m*3 0.3 C 0 km/h
892 02-02-2009 10:25:10 0.4 C 2.74 g/m*3 0.4 C 0 km/h
893 02-02-2009 10:37:09 0.9 C 2.73 g/m*3 0.9 C 0 km/h
894 02-02-2009 10:49:10 1.2 C 2.74 g/m*3 1.2 C 0 km/h
895 02-02-2009 11:01:10 1.5 C 2.69 g/m*3 1.5 C 0 km/h
896 02-02-2009 11:13:10 1.8 C 2.69 g/m*3 1.8 C 0 km/h
897 02-02-2009 11:25:09 2.1 C 2.63 g/m*3 2.1 C 0 km/h
898 02-02-2009 11:37:10 2.5 C 2.64 g/m*3 2.5 C 0 km/h
899 02-02-2009 11:49:09 2.8 C 2.7 g/m*3 2.8 C 0 km/h
900 02-02-2009 12:01:09 3.3 C 2.73 g/m*3 3.3 C 0 km/h
Sensor: Nr:Datum:Temp:Abs-Feuchte:Windchill:Wind:
Aussen-T/F 901 02-02-2009 12:13:09 4 C 2.67 g/m*3 4 C 0 km/h
902 02-02-2009 12:25:09 4.2 C 2.58 g/m*3 4.2 C 0 km/h
903 02-02-2009 12:37:09 4.4 C 2.48 g/m*3 4.4 C 0 km/h
904 02-02-2009 12:49:08 4.6 C 2.51 g/m*3 4.6 C 0 km/h
905 02-02-2009 13:01:09 4.6 C 2.45 g/m*3 4.6 C 0 km/h
906 02-02-2009 13:13:09 4.7 C 2.53 g/m*3 4.7 C 0 km/h
907 02-02-2009 13:25:08 4.8 C 2.55 g/m*3 4.8 C 0 km/h
908 02-02-2009 13:37:08 4.9 C 2.5 g/m*3 4.9 C 0 km/h
909 02-02-2009 13:49:08 5 C 2.45 g/m*3 5 C 0 km/h
910 02-02-2009 14:01:08 5.3 C 2.5 g/m*3 5.3 C 0 km/h
911 02-02-2009 14:13:08 5.3 C 2.5 g/m*3 5.3 C 0 km/h
912 02-02-2009 14:25:08 5.4 C 2.51 g/m*3 5.4 C 0 km/h
913 02-02-2009 14:37:07 5.1 C 2.53 g/m*3 5.1 C 0 km/h
914 02-02-2009 14:49:08 5.1 C 2.67 g/m*3 5.1 C 0 km/h
915 02-02-2009 15:01:07 5.2 C 2.62 g/m*3 5.2 C 0 km/h
916 02-02-2009 15:13:07 5.1 C 2.67 g/m*3 5.1 C 0 km/h
917 02-02-2009 15:25:07 5.1 C 2.67 g/m*3 5.1 C 0 km/h
918 02-02-2009 15:37:07 5.1 C 2.67 g/m*3 5.1 C 0 km/h
919 02-02-2009 15:49:07 5 C 2.72 g/m*3 5 C 0 km/h
920 02-02-2009 16:01:06 4.9 C 2.7 g/m*3 4.9 C 0 km/h
921 02-02-2009 16:13:06 4.6 C 2.78 g/m*3 4.6 C 0 km/h
922 02-02-2009 16:25:07 4.3 C 2.79 g/m*3 4.3 C 0 km/h
923 02-02-2009 16:37:07 3.9 C 2.91 g/m*3 3.9 C 0 km/h
924 02-02-2009 16:49:06 3.7 C 2.93 g/m*3 3.7 C 0 km/h
925 02-02-2009 17:01:06 3.5 C 2.95 g/m*3 3.5 C 0 km/h
Sensor: Nr:Datum:Temp:Abs-Feuchte:Windchill:Wind:
Aussen-T/F 926 02-02-2009 17:13:06 3.3 C 2.97 g/m*3 3.3 C 0 km/h
927 02-02-2009 17:25:06 3.1 C 2.99 g/m*3 3.1 C 0 km/h
928 02-02-2009 17:37:06 3.1 C 2.99 g/m*3 3.1 C 0 km/h
929 02-02-2009 17:49:06 3 C 3.03 g/m*3 3 C 0 km/h
930 02-02-2009 18:01:05 2.6 C 3.07 g/m*3 2.6 C 0 km/h
931 02-02-2009 18:13:05 2.7 C 3.09 g/m*3 2.7 C 0 km/h
932 02-02-2009 18:25:06 2.6 C 3.07 g/m*3 2.6 C 0 km/h
933 02-02-2009 18:37:06 2.2 C 3.1 g/m*3 2.2 C 0 km/h
934 02-02-2009 18:49:06 2.1 C 3.13 g/m*3 2.1 C 0 km/h
935 02-02-2009 19:01:06 1.8 C 3.18 g/m*3 1.8 C 0 km/h
936 02-02-2009 19:13:06 1.5 C 3.17 g/m*3 1.5 C 0 km/h
937 02-02-2009 19:25:05 1.3 C 3.23 g/m*3 1.3 C 0 km/h
938 02-02-2009 19:37:05 1.1 C 3.24 g/m*3 1.1 C 0 km/h
939 02-02-2009 19:49:04 1.3 C 3.28 g/m*3 1.3 C 0 km/h
940 02-02-2009 20:01:05 1.2 C 3.21 g/m*3 1.2 C 0 km/h
941 02-02-2009 20:13:05 1 C 3.27 g/m*3 1 C 0 km/h
942 02-02-2009 20:25:04 1.3 C 3.34 g/m*3 1.3 C 0 km/h
943 02-02-2009 20:37:04 1.2 C 3.26 g/m*3 1.2 C 0 km/h
944 02-02-2009 20:49:05 1.4 C 3.31 g/m*3 1.4 C 0 km/h
945 02-02-2009 21:01:03 1.6 C 3.35 g/m*3 1.6 C 0 km/h
946 02-02-2009 21:13:03 1.3 C 3.28 g/m*3 1.3 C 0 km/h
947 02-02-2009 21:26:05 1.5 C 3.33 g/m*3 1.5 C 0 km/h
948 02-02-2009 21:38:05 1.4 C 3.31 g/m*3 1.4 C 0 km/h
949 02-02-2009 21:50:06 1.2 C 3.26 g/m*3 1.2 C 0 km/h
950 02-02-2009 22:02:06 1.1 C 3.34 g/m*3 1.1 C 0 km/h
Sensor: Nr:Datum:Temp:Abs-Feuchte:Windchill:Wind:
Aussen-T/F 951 02-02-2009 22:14:06 0.8 C 3.33 g/m*3 0.8 C 0 km/h
952 02-02-2009 22:26:06 0.6 C 3.43 g/m*3 0.6 C 0 km/h
953 02-02-2009 22:38:06 0.4 C 3.44 g/m*3 0.4 C 0 km/h
954 02-02-2009 22:50:06 0.3 C 3.46 g/m*3 0.3 C 0 km/h
955 02-02-2009 23:02:06 0.1 C 3.42 g/m*3 0.1 C 0 km/h
956 02-02-2009 23:14:06 0 C 3.44 g/m*3 0 C 0 km/h
957 02-02-2009 23:26:06 -0.1 C 3.46 g/m*3 -0.1 C 0 km/h
958 02-02-2009 23:38:06 -0.3 C 3.42 g/m*3 -0.3 C 0 km/h
959 02-02-2009 23:50:06 -0.3 C 3.46 g/m*3 -0.3 C 0 km/h
960 03-02-2009 00:02:06 -0.4 C 3.49 g/m*3 -0.4 C 0 km/h
961 03-02-2009 00:14:06 -0.5 C 3.46 g/m*3 -0.5 C 0 km/h
962 03-02-2009 00:26:06 -0.7 C 3.42 g/m*3 -0.7 C 0 km/h
963 03-02-2009 00:38:06 -0.9 C 3.41 g/m*3 -0.9 C 0 km/h
964 03-02-2009 00:50:06 -1.1 C 3.37 g/m*3 -1.1 C 0 km/h
965 03-02-2009 01:02:06 -1.2 C 3.43 g/m*3 -1.2 C 0 km/h
966 03-02-2009 01:14:06 -1.3 C 3.41 g/m*3 -1.3 C 0 km/h
967 03-02-2009 01:26:06 -1.3 C 3.45 g/m*3 -1.3 C 0 km/h
968 03-02-2009 01:38:06 -1.4 C 3.43 g/m*3 -1.4 C 0 km/h
969 03-02-2009 01:50:07 -1.4 C 3.47 g/m*3 -1.4 C 0 km/h
970 03-02-2009 02:02:07 -1.4 C 3.47 g/m*3 -1.4 C 0 km/h
971 03-02-2009 02:14:07 -1.4 C 3.52 g/m*3 -1.4 C 0 km/h
972 03-02-2009 02:26:07 -1.4 C 3.56 g/m*3 -1.4 C 0 km/h
973 03-02-2009 02:38:07 -1.6 C 3.51 g/m*3 -1.6 C 0 km/h
974 03-02-2009 02:50:07 -1.7 C 3.49 g/m*3 -1.7 C 0 km/h
975 03-02-2009 03:02:07 -1.7 C 3.49 g/m*3 -1.7 C 0 km/h
Sensor: Nr:Datum:Temp:Abs-Feuchte:Windchill:Wind:
Aussen-T/F 976 03-02-2009 03:14:07 -1.9 C 3.44 g/m*3 -1.9 C 0 km/h
977 03-02-2009 03:26:07 -2 C 3.41 g/m*3 -2 C 0 km/h
978 03-02-2009 03:38:07 -1.9 C 3.44 g/m*3 -1.9 C 0 km/h
979 03-02-2009 03:50:07 -2 C 3.46 g/m*3 -2 C 0 km/h
980 03-02-2009 04:02:07 -2.1 C 3.43 g/m*3 -2.1 C 0 km/h
981 03-02-2009 04:14:07 -2.3 C 3.38 g/m*3 -2.3 C 0 km/h
982 03-02-2009 04:26:07 -2.3 C 3.43 g/m*3 -2.3 C 0 km/h
983 03-02-2009 04:38:07 -2.3 C 3.43 g/m*3 -2.3 C 0 km/h
984 03-02-2009 04:50:07 -2.5 C 3.38 g/m*3 -2.5 C 0 km/h
985 03-02-2009 05:02:07 -2.3 C 3.43 g/m*3 -2.3 C 0 km/h
986 03-02-2009 05:14:07 -2.3 C 3.47 g/m*3 -2.3 C 0 km/h
987 03-02-2009 05:26:07 -2.4 C 3.44 g/m*3 -2.4 C 0 km/h
988 03-02-2009 05:38:08 -2.4 C 3.44 g/m*3 -2.4 C 0 km/h
989 03-02-2009 05:50:08 -2.6 C 3.39 g/m*3 -2.6 C 0 km/h
990 03-02-2009 06:02:08 -2.6 C 3.39 g/m*3 -2.6 C 0 km/h
991 03-02-2009 06:14:08 -2.6 C 3.39 g/m*3 -2.6 C 0 km/h
992 03-02-2009 06:26:08 -2.8 C 3.35 g/m*3 -2.8 C 0 km/h
993 03-02-2009 06:38:08 -2.8 C 3.35 g/m*3 -2.8 C 0 km/h
994 03-02-2009 06:50:08 -2.9 C 3.32 g/m*3 -2.9 C 0 km/h
995 03-02-2009 07:02:04 -3 C 3.3 g/m*3 -3 C 0 km/h
996 03-02-2009 07:14:05 -3 C 3.3 g/m*3 -3 C 0 km/h
997 03-02-2009 07:26:05 -3 C 3.3 g/m*3 -3 C 0 km/h
998 03-02-2009 07:38:04 -3 C 3.3 g/m*3 -3 C 0 km/h
999 03-02-2009 07:50:04 -3.1 C 3.28 g/m*3 -3.1 C 0 km/h
1000 03-02-2009 08:02:04 -3.1 C 3.28 g/m*3 -3.1 C 0 km/h
Sensor: Nr:Datum:Temp:Abs-Feuchte:Windchill:Wind:
Aussen-T/F 1001 03-02-2009 08:14:04 -3.1 C 3.28 g/m*3 -3.1 C 0 km/h
1002 03-02-2009 08:26:04 -3.1 C 3.28 g/m*3 -3.1 C 0 km/h
1003 03-02-2009 08:38:03 -2.8 C 3.35 g/m*3 -2.8 C 0 km/h
1004 03-02-2009 08:50:04 -2.7 C 3.37 g/m*3 -2.7 C 0 km/h
1005 03-02-2009 09:02:04 -2.7 C 3.37 g/m*3 -2.7 C 0 km/h
1006 03-02-2009 09:14:03 -2.7 C 3.37 g/m*3 -2.7 C 0 km/h
1007 03-02-2009 09:26:03 -2.5 C 3.42 g/m*3 -2.5 C 0 km/h
1008 03-02-2009 09:38:03 -2.3 C 3.47 g/m*3 -2.3 C 0 km/h
1009 03-02-2009 09:50:03 -2.1 C 3.52 g/m*3 -2.1 C 0 km/h
1010 03-02-2009 10:02:03 -1.9 C 3.57 g/m*3 -1.9 C 0 km/h
1011 03-02-2009 10:14:02 -1.8 C 3.59 g/m*3 -1.8 C 0 km/h
1012 03-02-2009 10:26:02 -1.6 C 3.64 g/m*3 -1.6 C 0 km/h
1013 03-02-2009 10:38:03 -1.3 C 3.72 g/m*3 -1.3 C 0 km/h
1014 03-02-2009 10:50:02 -0.9 C 3.82 g/m*3 -0.9 C 0 km/h
1015 03-02-2009 11:02:02 -0.2 C 4.06 g/m*3 -0.2 C 0 km/h
1016 03-02-2009 11:14:03 0.3 C 4.16 g/m*3 0.3 C 0 km/h
1017 03-02-2009 11:26:03 0.6 C 4.24 g/m*3 0.6 C 0 km/h
1018 03-02-2009 11:38:02 1 C 4.2 g/m*3 1 C 0 km/h
1019 03-02-2009 11:50:02 1.2 C 4.21 g/m*3 1.2 C 0 km/h
1020 03-02-2009 12:02:01 1.4 C 4.21 g/m*3 1.4 C 0 km/h
1021 03-02-2009 12:14:02 2 C 4.28 g/m*3 2 C 0 km/h
1022 03-02-2009 12:26:02 2.5 C 4.31 g/m*3 2.5 C 0 km/h
1023 03-02-2009 12:38:01 3 C 4.22 g/m*3 3 C 0 km/h
1024 03-02-2009 12:50:01 3.2 C 4.1 g/m*3 3.2 C 0 km/h
1025 03-02-2009 13:02:01 3.7 C 4.05 g/m*3 3.7 C 0 km/h
Sensor: Nr:Datum:Temp:Abs-Feuchte:Windchill:Wind:
Aussen-T/F 1026 03-02-2009 13:14:01 4.2 C 3.99 g/m*3 4.2 C 0 km/h
1027 03-02-2009 13:26:01 4.7 C 4.06 g/m*3 4.7 C 0 km/h
1028 03-02-2009 13:38:01 5.5 C 3.93 g/m*3 5.5 C 0 km/h
1029 03-02-2009 13:50:01 5.9 C 3.89 g/m*3 5.9 C 0 km/h
1030 03-02-2009 14:02:01 6 C 3.77 g/m*3 6 C 0 km/h
1031 03-02-2009 14:14:00 6.5 C 3.75 g/m*3 6.5 C 0 km/h
1032 03-02-2009 14:26:00 6.3 C 3.63 g/m*3 6.3 C 0 km/h
1033 03-02-2009 14:38:00 6.2 C 3.68 g/m*3 6.2 C 0 km/h
1034 03-02-2009 14:50:00 6.1 C 3.65 g/m*3 6.1 C 0 km/h
1035 03-02-2009 15:02:00 6.2 C 3.75 g/m*3 6.2 C 0 km/h
1036 03-02-2009 15:14:59 5.9 C 3.75 g/m*3 5.9 C 0 km/h
1037 03-02-2009 15:25:59 5.7 C 3.77 g/m*3 5.7 C 0 km/h
1038 03-02-2009 15:38:00 5.8 C 3.8 g/m*3 5.8 C 0 km/h
1039 03-02-2009 15:50:59 5.5 C 3.72 g/m*3 5.5 C 0 km/h
1040 03-02-2009 16:02:59 5.7 C 3.84 g/m*3 5.7 C 0 km/h
1041 03-02-2009 16:14:00 5.8 C 3.8 g/m*3 5.8 C 0 km/h
1042 03-02-2009 16:26:00 5.3 C 3.74 g/m*3 5.3 C 0 km/h
1043 03-02-2009 16:38:59 4.6 C 3.77 g/m*3 4.6 C 0 km/h
1044 03-02-2009 16:50:59 4.1 C 3.78 g/m*3 4.1 C 0 km/h
1045 03-02-2009 17:02:59 3.6 C 3.84 g/m*3 3.6 C 0 km/h
1046 03-02-2009 17:14:59 3.3 C 3.82 g/m*3 3.3 C 0 km/h
1047 03-02-2009 17:26:59 3.1 C 3.89 g/m*3 3.1 C 0 km/h
1048 03-02-2009 17:38:58 2.9 C 3.9 g/m*3 2.9 C 0 km/h
1049 03-02-2009 17:50:59 2.5 C 3.85 g/m*3 2.5 C 0 km/h
1050 03-02-2009 18:02:58 2.3 C 3.91 g/m*3 2.3 C 0 km/h
Sensor: Nr:Datum:Temp:Abs-Feuchte:Windchill:Wind:
Aussen-T/F 1051 03-02-2009 18:14:58 2 C 3.89 g/m*3 2 C 0 km/h
1052 03-02-2009 18:26:58 2 C 3.95 g/m*3 2 C 0 km/h
1053 03-02-2009 18:38:58 1.8 C 4 g/m*3 1.8 C 0 km/h
1054 03-02-2009 18:50:58 1.7 C 4.03 g/m*3 1.7 C 0 km/h
1055 03-02-2009 19:02:58 1.7 C 4.03 g/m*3 1.7 C 0 km/h
1056 03-02-2009 19:14:57 1.7 C 4.08 g/m*3 1.7 C 0 km/h
1057 03-02-2009 19:26:57 1.6 C 4 g/m*3 1.6 C 0 km/h
1058 03-02-2009 19:38:58 1.7 C 4.08 g/m*3 1.7 C 0 km/h
1059 03-02-2009 19:50:57 1.5 C 4.03 g/m*3 1.5 C 0 km/h
1060 03-02-2009 20:02:57 1.3 C 3.97 g/m*3 1.3 C 0 km/h
1061 03-02-2009 20:14:57 1.2 C 4 g/m*3 1.2 C 0 km/h
1062 03-02-2009 20:26:57 1.2 C 4.05 g/m*3 1.2 C 0 km/h
1063 03-02-2009 20:38:57 1.3 C 4.13 g/m*3 1.3 C 0 km/h
1064 03-02-2009 20:50:56 1.3 C 4.19 g/m*3 1.3 C 0 km/h
1065 03-02-2009 21:02:56 1.2 C 4.1 g/m*3 1.2 C 0 km/h
1066 03-02-2009 21:14:57 1 C 4.05 g/m*3 1 C 0 km/h
1067 03-02-2009 21:26:57 1.1 C 4.13 g/m*3 1.1 C 0 km/h
1068 03-02-2009 21:38:56 1.4 C 4.32 g/m*3 1.4 C 0 km/h
1069 03-02-2009 21:50:56 1.5 C 4.35 g/m*3 1.5 C 0 km/h
1070 03-02-2009 22:03:57 1.7 C 4.52 g/m*3 1.7 C 0 km/h
1071 03-02-2009 22:15:57 1.9 C 4.58 g/m*3 1.9 C 0 km/h
1072 03-02-2009 22:27:57 2 C 4.56 g/m*3 2 C 0 km/h
1073 03-02-2009 22:39:57 2.1 C 4.59 g/m*3 2.1 C 0 km/h
1074 03-02-2009 22:51:57 2.1 C 4.53 g/m*3 2.1 C 0 km/h
1075 03-02-2009 23:03:57 2 C 4.5 g/m*3 2 C 0 km/h
Sensor: Nr:Datum:Temp:Abs-Feuchte:Windchill:Wind:
Aussen-T/F 1076 03-02-2009 23:15:57 2 C 4.45 g/m*3 2 C 0 km/h
1077 03-02-2009 23:27:57 2.1 C 4.48 g/m*3 2.1 C 0 km/h
1078 03-02-2009 23:39:57 2.1 C 4.48 g/m*3 2.1 C 0 km/h
1079 03-02-2009 23:51:58 2.1 C 4.42 g/m*3 2.1 C 0 km/h
1080 04-02-2009 00:03:58 2.2 C 4.51 g/m*3 2.2 C 0 km/h
1081 04-02-2009 00:15:58 2.2 C 4.45 g/m*3 2.2 C 0 km/h
1082 04-02-2009 00:27:58 2.2 C 4.45 g/m*3 2.2 C 0 km/h
1083 04-02-2009 00:39:58 2.2 C 4.51 g/m*3 2.2 C 0 km/h
1084 04-02-2009 00:51:58 2.2 C 4.51 g/m*3 2.2 C 0 km/h
1085 04-02-2009 01:03:58 2.3 C 4.54 g/m*3 2.3 C 0 km/h
1086 04-02-2009 01:15:58 2.2 C 4.51 g/m*3 2.2 C 0 km/h
1087 04-02-2009 01:27:58 2.2 C 4.51 g/m*3 2.2 C 0 km/h
1088 04-02-2009 01:39:58 2.2 C 4.51 g/m*3 2.2 C 0 km/h
1089 04-02-2009 01:51:58 2.2 C 4.51 g/m*3 2.2 C 0 km/h
1090 04-02-2009 02:03:58 2.2 C 4.51 g/m*3 2.2 C 0 km/h
1091 04-02-2009 02:15:58 2.2 C 4.45 g/m*3 2.2 C 0 km/h
1092 04-02-2009 02:27:58 2.1 C 4.42 g/m*3 2.1 C 0 km/h
1093 04-02-2009 02:39:58 2.1 C 4.42 g/m*3 2.1 C 0 km/h
1094 04-02-2009 02:51:58 2.1 C 4.42 g/m*3 2.1 C 0 km/h
1095 04-02-2009 03:03:58 2 C 4.45 g/m*3 2 C 0 km/h
1096 04-02-2009 03:15:58 2 C 4.45 g/m*3 2 C 0 km/h
1097 04-02-2009 03:27:58 2 C 4.45 g/m*3 2 C 0 km/h
1098 04-02-2009 03:39:59 2 C 4.45 g/m*3 2 C 0 km/h
1099 04-02-2009 03:51:59 2 C 4.45 g/m*3 2 C 0 km/h
1100 04-02-2009 04:03:59 2 C 4.45 g/m*3 2 C 0 km/h
Sensor: Nr:Datum:Temp:Abs-Feuchte:Windchill:Wind:
Aussen-T/F 1101 04-02-2009 04:15:59 1.9 C 4.42 g/m*3 1.9 C 0 km/h
1102 04-02-2009 04:27:59 1.8 C 4.39 g/m*3 1.8 C 0 km/h
1103 04-02-2009 04:39:59 1.8 C 4.39 g/m*3 1.8 C 0 km/h
1104 04-02-2009 04:51:59 1.8 C 4.39 g/m*3 1.8 C 0 km/h
1105 04-02-2009 05:03:59 1.8 C 4.39 g/m*3 1.8 C 0 km/h
1106 04-02-2009 05:15:59 1.8 C 4.39 g/m*3 1.8 C 0 km/h
1107 04-02-2009 05:27:59 1.8 C 4.39 g/m*3 1.8 C 0 km/h
1108 04-02-2009 05:39:59 1.8 C 4.39 g/m*3 1.8 C 0 km/h
1109 04-02-2009 05:51:59 1.6 C 4.33 g/m*3 1.6 C 0 km/h
1110 04-02-2009 06:03:59 1.5 C 4.3 g/m*3 1.5 C 0 km/h
1111 04-02-2009 06:15:59 1.5 C 4.35 g/m*3 1.5 C 0 km/h
1112 04-02-2009 06:27:59 1.6 C 4.38 g/m*3 1.6 C 0 km/h
1113 04-02-2009 06:39:58 1.6 C 4.43 g/m*3 1.6 C 0 km/h
1114 04-02-2009 06:51:57 1.6 C 4.43 g/m*3 1.6 C 0 km/h
1115 04-02-2009 07:03:57 1.6 C 4.43 g/m*3 1.6 C 0 km/h
1116 04-02-2009 07:15:57 1.6 C 4.43 g/m*3 1.6 C 0 km/h
1117 04-02-2009 07:27:57 1.7 C 4.46 g/m*3 1.7 C 0 km/h
1118 04-02-2009 07:39:57 1.7 C 4.46 g/m*3 1.7 C 0 km/h
1119 04-02-2009 07:51:57 1.7 C 4.46 g/m*3 1.7 C 0 km/h
1120 04-02-2009 08:03:57 1.7 C 4.46 g/m*3 1.7 C 0 km/h
1121 04-02-2009 08:15:56 1.6 C 4.43 g/m*3 1.6 C 0 km/h
1122 04-02-2009 08:27:56 1.7 C 4.46 g/m*3 1.7 C 0 km/h
1123 04-02-2009 08:39:56 1.7 C 4.52 g/m*3 1.7 C 0 km/h
1124 04-02-2009 08:51:56 1.7 C 4.46 g/m*3 1.7 C 0 km/h
1125 04-02-2009 09:03:56 1.7 C 4.46 g/m*3 1.7 C 0 km/h
Sensor: Nr:Datum:Temp:Abs-Feuchte:Windchill:Wind:
Aussen-T/F 1126 04-02-2009 09:15:55 1.7 C 4.46 g/m*3 1.7 C 0 km/h
1127 04-02-2009 09:27:55 1.7 C 4.52 g/m*3 1.7 C 0 km/h
1128 04-02-2009 09:39:56 1.8 C 4.55 g/m*3 1.8 C 0 km/h
1129 04-02-2009 09:51:55 1.9 C 4.58 g/m*3 1.9 C 0 km/h
1130 04-02-2009 10:03:55 2.1 C 4.64 g/m*3 2.1 C 0 km/h
1131 04-02-2009 10:15:56 2.2 C 4.62 g/m*3 2.2 C 0 km/h
1132 04-02-2009 10:27:56 2.3 C 4.65 g/m*3 2.3 C 0 km/h
1133 04-02-2009 10:39:55 2.4 C 4.68 g/m*3 2.4 C 0 km/h
1134 04-02-2009 10:51:55 2.8 C 4.81 g/m*3 2.8 C 0 km/h
1135 04-02-2009 11:03:55 3 C 4.76 g/m*3 3 C 0 km/h
1136 04-02-2009 11:15:55 3.1 C 4.73 g/m*3 3.1 C 0 km/h
1137 04-02-2009 11:27:55 3.1 C 4.67 g/m*3 3.1 C 0 km/h
1138 04-02-2009 11:39:54 3.3 C 4.67 g/m*3 3.3 C 0 km/h
1139 04-02-2009 11:51:54 3.2 C 4.58 g/m*3 3.2 C 0 km/h
1140 04-02-2009 12:03:54 3.1 C 4.55 g/m*3 3.1 C 0 km/h
1141 04-02-2009 12:15:54 3.4 C 4.7 g/m*3 3.4 C 0 km/h
1142 04-02-2009 12:27:54 3.9 C 4.86 g/m*3 3.9 C 0 km/h
1143 04-02-2009 12:39:54 4.1 C 4.93 g/m*3 4.1 C 0 km/h
1144 04-02-2009 12:51:54 4.4 C 5.03 g/m*3 4.4 C 0 km/h
1145 04-02-2009 13:03:54 4.6 C 5.1 g/m*3 4.6 C 0 km/h
1146 04-02-2009 13:15:53 4.8 C 5.1 g/m*3 4.8 C 0 km/h
1147 04-02-2009 13:27:53 5 C 5.03 g/m*3 5 C 0 km/h
1148 04-02-2009 13:39:53 5.3 C 5.06 g/m*3 5.3 C 0 km/h
1149 04-02-2009 13:51:53 5.7 C 5.05 g/m*3 5.7 C 0 km/h
1150 04-02-2009 14:03:53 6 C 4.94 g/m*3 6 C 0 km/h
Sensor: Nr:Datum:Temp:Abs-Feuchte:Windchill:Wind:
Aussen-T/F 1151 04-02-2009 14:15:52 6.1 C 4.82 g/m*3 6.1 C 0 km/h
1152 04-02-2009 14:27:52 6.2 C 4.85 g/m*3 6.2 C 0 km/h
1153 04-02-2009 14:39:53 6.2 C 4.85 g/m*3 6.2 C 0 km/h
1154 04-02-2009 14:51:52 5.9 C 4.76 g/m*3 5.9 C 0 km/h
1155 04-02-2009 15:03:52 6 C 4.79 g/m*3 6 C 0 km/h
1156 04-02-2009 15:15:53 6.7 C 4.94 g/m*3 6.7 C 0 km/h
1157 04-02-2009 15:27:53 6.3 C 4.74 g/m*3 6.3 C 0 km/h
1158 04-02-2009 15:39:52 6.1 C 4.75 g/m*3 6.1 C 0 km/h
1159 04-02-2009 15:51:52 6 C 4.79 g/m*3 6 C 0 km/h
1160 04-02-2009 16:03:52 6.1 C 4.89 g/m*3 6.1 C 0 km/h
1161 04-02-2009 16:15:52 6.1 C 4.89 g/m*3 6.1 C 0 km/h
1162 04-02-2009 16:27:53 5.9 C 4.83 g/m*3 5.9 C 0 km/h
1163 04-02-2009 16:39:51 5.7 C 4.84 g/m*3 5.7 C 0 km/h
1164 04-02-2009 16:51:51 4.7 C 4.73 g/m*3 4.7 C 0 km/h
1165 04-02-2009 17:03:52 4.6 C 4.83 g/m*3 4.6 C 0 km/h
1166 04-02-2009 17:15:51 4.5 C 4.86 g/m*3 4.5 C 0 km/h
1167 04-02-2009 17:27:51 4.5 C 4.86 g/m*3 4.5 C 0 km/h
1168 04-02-2009 17:39:51 4.5 C 4.86 g/m*3 4.5 C 0 km/h
1169 04-02-2009 17:51:51 4.6 C 4.9 g/m*3 4.6 C 0 km/h
1170 04-02-2009 18:03:51 4.4 C 4.83 g/m*3 4.4 C 0 km/h
1171 04-02-2009 18:15:50 4.2 C 4.77 g/m*3 4.2 C 0 km/h
1172 04-02-2009 18:27:50 4 C 4.77 g/m*3 4 C 0 km/h
1173 04-02-2009 18:39:51 3.7 C 4.74 g/m*3 3.7 C 0 km/h
1174 04-02-2009 18:51:50 3.4 C 4.7 g/m*3 3.4 C 0 km/h
1175 04-02-2009 19:03:50 3.3 C 4.67 g/m*3 3.3 C 0 km/h
Sensor: Nr:Datum:Temp:Abs-Feuchte:Windchill:Wind:
Aussen-T/F 1176 04-02-2009 19:15:49 3.3 C 4.73 g/m*3 3.3 C 0 km/h
1177 04-02-2009 19:27:49 3.2 C 4.7 g/m*3 3.2 C 0 km/h
1178 04-02-2009 19:39:50 3.3 C 4.73 g/m*3 3.3 C 0 km/h
1179 04-02-2009 19:51:49 3.2 C 4.7 g/m*3 3.2 C 0 km/h
1180 04-02-2009 20:03:49 3.1 C 4.61 g/m*3 3.1 C 0 km/h
1181 04-02-2009 20:15:50 3.1 C 4.67 g/m*3 3.1 C 0 km/h
1182 04-02-2009 20:27:50 3 C 4.64 g/m*3 3 C 0 km/h
1183 04-02-2009 20:39:49 3.2 C 4.7 g/m*3 3.2 C 0 km/h
1184 04-02-2009 20:51:49 2.9 C 4.67 g/m*3 2.9 C 0 km/h
1185 04-02-2009 21:03:49 2.9 C 4.61 g/m*3 2.9 C 0 km/h
1186 04-02-2009 21:15:48 2.9 C 4.67 g/m*3 2.9 C 0 km/h
1187 04-02-2009 21:27:48 2.8 C 4.58 g/m*3 2.8 C 0 km/h
1188 04-02-2009 21:39:49 2.7 C 4.54 g/m*3 2.7 C 0 km/h
1189 04-02-2009 21:51:48 2.4 C 4.45 g/m*3 2.4 C 0 km/h
1190 04-02-2009 22:04:49 2 C 4.33 g/m*3 2 C 0 km/h
1191 04-02-2009 22:16:50 1.9 C 4.42 g/m*3 1.9 C 0 km/h
1192 04-02-2009 22:28:50 2.1 C 4.48 g/m*3 2.1 C 0 km/h
1193 04-02-2009 22:40:50 2 C 4.39 g/m*3 2 C 0 km/h
1194 04-02-2009 22:52:50 1.6 C 4.33 g/m*3 1.6 C 0 km/h
1195 04-02-2009 23:04:50 1.6 C 4.38 g/m*3 1.6 C 0 km/h
1196 04-02-2009 23:16:50 1.4 C 4.32 g/m*3 1.4 C 0 km/h
1197 04-02-2009 23:28:50 1.5 C 4.4 g/m*3 1.5 C 0 km/h
1198 04-02-2009 23:40:50 1.3 C 4.34 g/m*3 1.3 C 0 km/h
1199 04-02-2009 23:52:50 1.2 C 4.31 g/m*3 1.2 C 0 km/h
1200 05-02-2009 00:04:50 1 C 4.26 g/m*3 1 C 0 km/h
Sensor: Nr:Datum:Temp:Abs-Feuchte:Windchill:Wind:
Aussen-T/F 1201 05-02-2009 00:16:50 0.9 C 4.28 g/m*3 0.9 C 0 km/h
1202 05-02-2009 00:28:50 0.6 C 4.19 g/m*3 0.6 C 0 km/h
1203 05-02-2009 00:40:50 0.4 C 4.13 g/m*3 0.4 C 0 km/h
1204 05-02-2009 00:52:50 0.3 C 4.16 g/m*3 0.3 C 0 km/h
1205 05-02-2009 01:04:50 0.1 C 4.1 g/m*3 0.1 C 0 km/h
1206 05-02-2009 01:16:50 -0.1 C 4.04 g/m*3 -0.1 C 0 km/h
1207 05-02-2009 01:28:50 -0.2 C 4.01 g/m*3 -0.2 C 0 km/h
1208 05-02-2009 01:40:50 -0.5 C 3.93 g/m*3 -0.5 C 0 km/h
1209 05-02-2009 01:52:50 -0.6 C 3.9 g/m*3 -0.6 C 0 km/h
1210 05-02-2009 02:04:51 -0.6 C 3.95 g/m*3 -0.6 C 0 km/h
1211 05-02-2009 02:16:51 -0.8 C 3.94 g/m*3 -0.8 C 0 km/h
1212 05-02-2009 02:28:51 -1 C 3.89 g/m*3 -1 C 0 km/h
1213 05-02-2009 02:40:51 -1 C 3.89 g/m*3 -1 C 0 km/h
1214 05-02-2009 02:52:51 -1.1 C 3.91 g/m*3 -1.1 C 0 km/h
1215 05-02-2009 03:04:51 -1.1 C 3.91 g/m*3 -1.1 C 0 km/h
1216 05-02-2009 03:16:51 -1.2 C 3.92 g/m*3 -1.2 C 0 km/h
1217 05-02-2009 03:28:51 -1.2 C 3.92 g/m*3 -1.2 C 0 km/h
1218 05-02-2009 03:40:51 -1.1 C 4 g/m*3 -1.1 C 0 km/h
1219 05-02-2009 03:52:51 -0.9 C 4.05 g/m*3 -0.9 C 0 km/h
1220 05-02-2009 04:04:51 -0.9 C 4.05 g/m*3 -0.9 C 0 km/h
1221 05-02-2009 04:16:51 -0.9 C 4.05 g/m*3 -0.9 C 0 km/h
1222 05-02-2009 04:28:51 -0.6 C 4.18 g/m*3 -0.6 C 0 km/h
1223 05-02-2009 04:40:51 -0.9 C 4.05 g/m*3 -0.9 C 0 km/h
1224 05-02-2009 04:52:51 -0.7 C 4.15 g/m*3 -0.7 C 0 km/h
1225 05-02-2009 05:04:51 -0.8 C 4.13 g/m*3 -0.8 C 0 km/h
Sensor: Nr:Datum:Temp:Abs-Feuchte:Windchill:Wind:
Aussen-T/F 1226 05-02-2009 05:16:51 -0.7 C 4.15 g/m*3 -0.7 C 0 km/h
1227 05-02-2009 05:28:51 -0.7 C 4.15 g/m*3 -0.7 C 0 km/h
1228 05-02-2009 05:40:51 -0.6 C 4.18 g/m*3 -0.6 C 0 km/h
1229 05-02-2009 05:52:52 -0.8 C 4.13 g/m*3 -0.8 C 0 km/h
1230 05-02-2009 06:04:52 -0.9 C 4.1 g/m*3 -0.9 C 0 km/h
1231 05-02-2009 06:16:52 -1 C 4.07 g/m*3 -1 C 0 km/h
1232 05-02-2009 06:28:52 -1.1 C 4.04 g/m*3 -1.1 C 0 km/h
1233 05-02-2009 06:40:52 -1.2 C 4.01 g/m*3 -1.2 C 0 km/h
1234 05-02-2009 06:52:52 -1.3 C 3.98 g/m*3 -1.3 C 0 km/h
1235 05-02-2009 07:04:49 -1.4 C 3.96 g/m*3 -1.4 C 0 km/h
1236 05-02-2009 07:16:49 -1.2 C 4.01 g/m*3 -1.2 C 0 km/h
1237 05-02-2009 07:28:49 -1.1 C 4.09 g/m*3 -1.1 C 0 km/h
1238 05-02-2009 07:40:49 -1.1 C 4.09 g/m*3 -1.1 C 0 km/h
1239 05-02-2009 07:52:49 -1 C 4.11 g/m*3 -1 C 0 km/h
1240 05-02-2009 08:04:48 -0.9 C 4.14 g/m*3 -0.9 C 0 km/h
1241 05-02-2009 08:16:48 -0.6 C 4.28 g/m*3 -0.6 C 0 km/h
1242 05-02-2009 08:28:49 -0.3 C 4.37 g/m*3 -0.3 C 0 km/h
1243 05-02-2009 08:40:48 0 C 4.46 g/m*3 0 C 0 km/h
1244 05-02-2009 08:52:48 0.2 C 4.57 g/m*3 0.2 C 0 km/h
1245 05-02-2009 09:04:47 0.6 C 4.7 g/m*3 0.6 C 0 km/h
1246 05-02-2009 09:16:48 0.9 C 4.79 g/m*3 0.9 C 0 km/h
1247 05-02-2009 09:28:48 0.7 C 4.68 g/m*3 0.7 C 0 km/h
1248 05-02-2009 09:40:48 1 C 4.72 g/m*3 1 C 0 km/h
1249 05-02-2009 09:52:47 1 C 4.72 g/m*3 1 C 0 km/h
1250 05-02-2009 10:04:48 1.2 C 4.79 g/m*3 1.2 C 0 km/h
Sensor: Nr:Datum:Temp:Abs-Feuchte:Windchill:Wind:
Aussen-T/F 1251 05-02-2009 10:16:47 1.5 C 4.83 g/m*3 1.5 C 0 km/h
1252 05-02-2009 10:28:47 1.7 C 4.85 g/m*3 1.7 C 0 km/h
1253 05-02-2009 10:40:47 1.9 C 4.91 g/m*3 1.9 C 0 km/h
1254 05-02-2009 10:52:47 2.4 C 5.08 g/m*3 2.4 C 0 km/h
1255 05-02-2009 11:04:47 3.1 C 5.21 g/m*3 3.1 C 0 km/h
1256 05-02-2009 11:16:46 3.6 C 5.39 g/m*3 3.6 C 0 km/h
1257 05-02-2009 11:28:46 3.8 C 5.4 g/m*3 3.8 C 0 km/h
1258 05-02-2009 11:40:46 4.3 C 5.25 g/m*3 4.3 C 0 km/h
1259 05-02-2009 11:52:46 4.7 C 5.2 g/m*3 4.7 C 0 km/h
1260 05-02-2009 12:04:46 5.1 C 4.99 g/m*3 5.1 C 0 km/h
1261 05-02-2009 12:16:46 5.7 C 5.05 g/m*3 5.7 C 0 km/h
1262 05-02-2009 12:28:46 6.2 C 4.93 g/m*3 6.2 C 0 km/h
1263 05-02-2009 12:40:46 7 C 4.88 g/m*3 7 C 0 km/h
1264 05-02-2009 12:52:46 8.1 C 4.74 g/m*3 8.1 C 0 km/h
1265 05-02-2009 13:04:45 8.8 C 4.79 g/m*3 8.8 C 0 km/h
1266 05-02-2009 13:16:46 8.8 C 4.7 g/m*3 8.8 C 0 km/h
1267 05-02-2009 13:28:46 8.7 C 4.76 g/m*3 8.7 C 0 km/h
1268 05-02-2009 13:40:45 9.3 C 4.76 g/m*3 9.3 C 0 km/h
1269 05-02-2009 13:52:45 9.5 C 4.73 g/m*3 9.5 C 0 km/h
1270 05-02-2009 14:04:45 9.8 C 4.73 g/m*3 9.8 C 0 km/h
1271 05-02-2009 14:16:45 10.2 C 4.66 g/m*3 10.2 C 0 km/h
1272 05-02-2009 14:28:45 10.6 C 4.59 g/m*3 10.6 C 0 km/h
1273 05-02-2009 14:40:45 10.3 C 4.6 g/m*3 10.3 C 0 km/h
1274 05-02-2009 14:52:44 10.1 C 4.54 g/m*3 10.1 C 0 km/h
1275 05-02-2009 15:04:45 10.2 C 4.66 g/m*3 10.2 C 0 km/h
Sensor: Nr:Datum:Temp:Abs-Feuchte:Windchill:Wind:
Aussen-T/F 1276 05-02-2009 15:16:44 10 C 4.7 g/m*3 10 C 0 km/h
1277 05-02-2009 15:28:44 9.8 C 4.73 g/m*3 9.8 C 0 km/h
1278 05-02-2009 15:40:44 9.8 C 4.73 g/m*3 9.8 C 0 km/h
1279 05-02-2009 15:52:44 10 C 4.79 g/m*3 10 C 0 km/h
1280 05-02-2009 16:04:44 9.9 C 4.86 g/m*3 9.9 C 0 km/h
1281 05-02-2009 16:16:44 9.7 C 4.79 g/m*3 9.7 C 0 km/h
1282 05-02-2009 16:28:44 9.5 C 4.82 g/m*3 9.5 C 0 km/h
1283 05-02-2009 16:40:43 9.6 C 4.76 g/m*3 9.6 C 0 km/h
1284 05-02-2009 16:52:44 9.2 C 4.73 g/m*3 9.2 C 0 km/h
1285 05-02-2009 17:04:43 8.6 C 4.81 g/m*3 8.6 C 0 km/h
1286 05-02-2009 17:16:43 7.8 C 4.73 g/m*3 7.8 C 0 km/h
1287 05-02-2009 17:28:43 7.2 C 4.79 g/m*3 7.2 C 0 km/h
1288 05-02-2009 17:40:43 6.9 C 4.85 g/m*3 6.9 C 0 km/h
1289 05-02-2009 17:52:43 6.5 C 4.8 g/m*3 6.5 C 0 km/h
1290 05-02-2009 18:04:43 6.1 C 4.82 g/m*3 6.1 C 0 km/h
1291 05-02-2009 18:16:42 5.8 C 4.87 g/m*3 5.8 C 0 km/h
1292 05-02-2009 18:28:42 5.5 C 4.85 g/m*3 5.5 C 0 km/h
1293 05-02-2009 18:40:43 5 C 4.76 g/m*3 5 C 0 km/h
1294 05-02-2009 18:52:42 4.8 C 4.9 g/m*3 4.8 C 0 km/h
1295 05-02-2009 19:04:42 4.6 C 4.83 g/m*3 4.6 C 0 km/h
1296 05-02-2009 19:16:42 4.4 C 4.9 g/m*3 4.4 C 0 km/h
1297 05-02-2009 19:28:42 4.1 C 4.8 g/m*3 4.1 C 0 km/h
1298 05-02-2009 19:40:42 4 C 4.83 g/m*3 4 C 0 km/h
1299 05-02-2009 19:52:41 3.8 C 4.89 g/m*3 3.8 C 0 km/h
1300 05-02-2009 20:04:42 3.7 C 4.92 g/m*3 3.7 C 0 km/h
Sensor: Nr:Datum:Temp:Abs-Feuchte:Windchill:Wind:
Aussen-T/F 1301 05-02-2009 20:16:42 3.7 C 4.99 g/m*3 3.7 C 0 km/h
1302 05-02-2009 20:28:42 3.8 C 5.08 g/m*3 3.8 C 0 km/h
1303 05-02-2009 20:40:41 4.1 C 5.18 g/m*3 4.1 C 0 km/h
1304 05-02-2009 20:52:42 3.9 C 5.05 g/m*3 3.9 C 0 km/h
1305 05-02-2009 21:04:41 3.7 C 4.99 g/m*3 3.7 C 0 km/h
1306 05-02-2009 21:16:41 3.7 C 5.11 g/m*3 3.7 C 0 km/h
1307 05-02-2009 21:28:41 3.5 C 5.04 g/m*3 3.5 C 0 km/h
1308 05-02-2009 21:40:41 3.4 C 5.07 g/m*3 3.4 C 0 km/h
1309 05-02-2009 21:52:41 3.4 C 5.07 g/m*3 3.4 C 0 km/h
1310 05-02-2009 22:04:40 3.4 C 5.13 g/m*3 3.4 C 0 km/h
1311 05-02-2009 22:16:41 3.4 C 5.13 g/m*3 3.4 C 0 km/h
1312 05-02-2009 22:28:41 3.4 C 5.13 g/m*3 3.4 C 0 km/h
1313 05-02-2009 22:40:40 3.5 C 5.23 g/m*3 3.5 C 0 km/h
1314 05-02-2009 22:52:40 3.6 C 5.26 g/m*3 3.6 C 0 km/h
1315 05-02-2009 23:04:40 3.9 C 5.37 g/m*3 3.9 C 0 km/h
1316 05-02-2009 23:16:40 3.8 C 5.21 g/m*3 3.8 C 0 km/h
1317 05-02-2009 23:28:40 3.7 C 5.17 g/m*3 3.7 C 0 km/h
1318 05-02-2009 23:40:40 3.8 C 5.14 g/m*3 3.8 C 0 km/h
1319 05-02-2009 23:52:39 3.7 C 5.11 g/m*3 3.7 C 0 km/h
1320 06-02-2009 00:04:40 3.3 C 4.91 g/m*3 3.3 C 0 km/h
1321 06-02-2009 00:16:39 3 C 4.82 g/m*3 3 C 0 km/h
1322 06-02-2009 00:28:39 2.4 C 4.68 g/m*3 2.4 C 0 km/h
1323 06-02-2009 00:40:39 2.3 C 4.65 g/m*3 2.3 C 0 km/h
1324 06-02-2009 00:52:39 2.1 C 4.64 g/m*3 2.1 C 0 km/h
1325 06-02-2009 01:04:38 2 C 4.61 g/m*3 2 C 0 km/h
Sensor: Nr:Datum:Temp:Abs-Feuchte:Windchill:Wind:
Aussen-T/F 1326 06-02-2009 01:16:39 1.9 C 4.64 g/m*3 1.9 C 0 km/h
1327 06-02-2009 01:28:39 1.9 C 4.69 g/m*3 1.9 C 0 km/h
1328 06-02-2009 01:40:38 1.7 C 4.63 g/m*3 1.7 C 0 km/h
1329 06-02-2009 01:52:38 1.6 C 4.6 g/m*3 1.6 C 0 km/h
1330 06-02-2009 02:04:39 1.5 C 4.57 g/m*3 1.5 C 0 km/h
1331 06-02-2009 02:16:38 1.5 C 4.57 g/m*3 1.5 C 0 km/h
1332 06-02-2009 02:28:38 1.4 C 4.53 g/m*3 1.4 C 0 km/h
1333 06-02-2009 02:40:38 1.4 C 4.59 g/m*3 1.4 C 0 km/h
1334 06-02-2009 02:53:40 1.3 C 4.56 g/m*3 1.3 C 0 km/h
1335 06-02-2009 03:05:40 1.2 C 4.53 g/m*3 1.2 C 0 km/h
1336 06-02-2009 03:17:40 1.3 C 4.56 g/m*3 1.3 C 0 km/h
1337 06-02-2009 03:29:39 1.3 C 4.56 g/m*3 1.3 C 0 km/h
1338 06-02-2009 03:41:39 1.4 C 4.64 g/m*3 1.4 C 0 km/h
1339 06-02-2009 03:53:39 1.7 C 4.74 g/m*3 1.7 C 0 km/h
1340 06-02-2009 04:05:39 1.6 C 4.7 g/m*3 1.6 C 0 km/h
1341 06-02-2009 04:17:39 1.6 C 4.65 g/m*3 1.6 C 0 km/h
1342 06-02-2009 04:29:39 1.6 C 4.65 g/m*3 1.6 C 0 km/h
1343 06-02-2009 04:41:39 1.7 C 4.68 g/m*3 1.7 C 0 km/h
1344 06-02-2009 04:53:38 1.8 C 4.71 g/m*3 1.8 C 0 km/h
1345 06-02-2009 05:05:38 1.7 C 4.68 g/m*3 1.7 C 0 km/h
1346 06-02-2009 05:17:39 1.6 C 4.65 g/m*3 1.6 C 0 km/h
1347 06-02-2009 05:29:38 1.6 C 4.65 g/m*3 1.6 C 0 km/h
1348 06-02-2009 05:41:38 1.5 C 4.62 g/m*3 1.5 C 0 km/h
1349 06-02-2009 05:53:38 1.5 C 4.62 g/m*3 1.5 C 0 km/h
1350 06-02-2009 06:05:38 1.1 C 4.49 g/m*3 1.1 C 0 km/h
Sensor: Nr:Datum:Temp:Abs-Feuchte:Windchill:Wind:
Aussen-T/F 1351 06-02-2009 06:17:38 0.9 C 4.48 g/m*3 0.9 C 0 km/h
1352 06-02-2009 06:29:37 0.9 C 4.48 g/m*3 0.9 C 0 km/h
1353 06-02-2009 06:41:37 0.8 C 4.51 g/m*3 0.8 C 0 km/h
1354 06-02-2009 06:53:38 0.8 C 4.51 g/m*3 0.8 C 0 km/h
1355 06-02-2009 07:05:37 1 C 4.57 g/m*3 1 C 0 km/h
1356 06-02-2009 07:17:37 0.7 C 4.53 g/m*3 0.7 C 0 km/h
1357 06-02-2009 07:29:37 1 C 4.62 g/m*3 1 C 0 km/h
1358 06-02-2009 07:41:37 1 C 4.67 g/m*3 1 C 0 km/h
1359 06-02-2009 07:53:37 1 C 4.67 g/m*3 1 C 0 km/h
1360 06-02-2009 08:05:36 1 C 4.67 g/m*3 1 C 0 km/h
1361 06-02-2009 08:17:37 0.9 C 4.69 g/m*3 0.9 C 0 km/h
1362 06-02-2009 08:29:37 0.7 C 4.58 g/m*3 0.7 C 0 km/h
1363 06-02-2009 08:41:37 0.9 C 4.64 g/m*3 0.9 C 0 km/h
1364 06-02-2009 08:53:36 1.1 C 4.7 g/m*3 1.1 C 0 km/h
1365 06-02-2009 09:05:37 1 C 4.67 g/m*3 1 C 0 km/h
1366 06-02-2009 09:17:36 1.1 C 4.7 g/m*3 1.1 C 0 km/h
1367 06-02-2009 09:29:36 1 C 4.67 g/m*3 1 C 0 km/h
1368 06-02-2009 09:41:36 1 C 4.72 g/m*3 1 C 0 km/h
1369 06-02-2009 09:53:36 1.2 C 4.79 g/m*3 1.2 C 0 km/h
1370 06-02-2009 10:05:36 1.6 C 4.92 g/m*3 1.6 C 0 km/h
1371 06-02-2009 10:17:35 2 C 5.06 g/m*3 2 C 0 km/h
1372 06-02-2009 10:29:35 2.2 C 5.13 g/m*3 2.2 C 0 km/h
1373 06-02-2009 10:41:35 2.6 C 5.27 g/m*3 2.6 C 0 km/h
1374 06-02-2009 10:53:35 3.1 C 5.45 g/m*3 3.1 C 0 km/h
1375 06-02-2009 11:05:35 3.7 C 5.67 g/m*3 3.7 C 0 km/h
Sensor: Nr:Datum:Temp:Abs-Feuchte:Windchill:Wind:
Aussen-T/F 1376 06-02-2009 11:17:35 4.3 C 5.84 g/m*3 4.3 C 0 km/h
1377 06-02-2009 11:29:34 4.7 C 5.93 g/m*3 4.7 C 0 km/h
1378 06-02-2009 11:41:34 5.2 C 6.06 g/m*3 5.2 C 0 km/h
1379 06-02-2009 11:53:35 5 C 5.71 g/m*3 5 C 0 km/h
1380 06-02-2009 12:05:34 5.2 C 5.58 g/m*3 5.2 C 0 km/h
1381 06-02-2009 12:17:34 5.8 C 5.8 g/m*3 5.8 C 0 km/h
1382 06-02-2009 12:29:34 6.4 C 5.89 g/m*3 6.4 C 0 km/h
1383 06-02-2009 12:41:34 6.6 C 5.59 g/m*3 6.6 C 0 km/h
1384 06-02-2009 12:53:34 7.1 C 5.62 g/m*3 7.1 C 0 km/h
1385 06-02-2009 13:05:33 7.7 C 5.68 g/m*3 7.7 C 0 km/h
1386 06-02-2009 13:17:38 7.9 C 5.34 g/m*3 7.9 C 0 km/h
1387 06-02-2009 13:29:34 7.9 C 5.17 g/m*3 7.9 C 0 km/h
1388 06-02-2009 13:41:34 7.9 C 5.17 g/m*3 7.9 C 0 km/h
1389 06-02-2009 13:53:33 8.3 C 5.14 g/m*3 8.3 C 0 km/h
1390 06-02-2009 14:05:33 9.1 C 5.32 g/m*3 9.1 C 0 km/h
1391 06-02-2009 14:17:33 9.2 C 5.09 g/m*3 9.2 C 0 km/h
1392 06-02-2009 14:29:33 9.2 C 5 g/m*3 9.2 C 0 km/h
1393 06-02-2009 14:41:33 9 C 5.03 g/m*3 9 C 0 km/h
1394 06-02-2009 14:53:33 9.1 C 4.97 g/m*3 9.1 C 0 km/h
1395 06-02-2009 15:05:33 9 C 4.94 g/m*3 9 C 0 km/h
1396 06-02-2009 15:17:32 9 C 4.94 g/m*3 9 C 0 km/h
1397 06-02-2009 15:29:32 8.9 C 4.99 g/m*3 8.9 C 0 km/h
1398 06-02-2009 15:41:32 8.7 C 4.93 g/m*3 8.7 C 0 km/h
1399 06-02-2009 15:53:32 8.4 C 4.92 g/m*3 8.4 C 0 km/h
1400 06-02-2009 16:05:33 8.1 C 4.91 g/m*3 8.1 C 0 km/h
Sensor: Nr:Datum:Temp:Abs-Feuchte:Windchill:Wind:
Aussen-T/F 1401 06-02-2009 16:17:32 7.9 C 5.01 g/m*3 7.9 C 0 km/h
1402 06-02-2009 16:29:32 7.8 C 4.98 g/m*3 7.8 C 0 km/h
1403 06-02-2009 16:41:32 7.7 C 5.03 g/m*3 7.7 C 0 km/h
1404 06-02-2009 16:53:31 7.6 C 4.99 g/m*3 7.6 C 0 km/h
1405 06-02-2009 17:05:32 7.5 C 5.04 g/m*3 7.5 C 0 km/h
1406 06-02-2009 17:17:31 7.3 C 4.98 g/m*3 7.3 C 0 km/h
1407 06-02-2009 17:29:31 7.1 C 4.99 g/m*3 7.1 C 0 km/h
1408 06-02-2009 17:41:31 7 C 4.96 g/m*3 7 C 0 km/h
1409 06-02-2009 17:53:31 6.9 C 5.08 g/m*3 6.9 C 0 km/h
1410 06-02-2009 18:05:31 6.9 C 5.08 g/m*3 6.9 C 0 km/h
1411 06-02-2009 18:17:31 6.7 C 5.09 g/m*3 6.7 C 0 km/h
1412 06-02-2009 18:29:31 6.6 C 5.06 g/m*3 6.6 C 0 km/h
1413 06-02-2009 18:41:31 6.4 C 5.07 g/m*3 6.4 C 0 km/h
1414 06-02-2009 18:53:31 6.3 C 5.03 g/m*3 6.3 C 0 km/h
1415 06-02-2009 19:05:30 6.3 C 5.11 g/m*3 6.3 C 0 km/h
1416 06-02-2009 19:17:31 6.2 C 5.15 g/m*3 6.2 C 0 km/h
1417 06-02-2009 19:29:30 6.1 C 5.11 g/m*3 6.1 C 0 km/h
1418 06-02-2009 19:41:30 6.2 C 5.22 g/m*3 6.2 C 0 km/h
1419 06-02-2009 19:53:30 6.2 C 5.22 g/m*3 6.2 C 0 km/h
1420 06-02-2009 20:05:29 6.1 C 5.19 g/m*3 6.1 C 0 km/h
1421 06-02-2009 20:17:30 6 C 5.15 g/m*3 6 C 0 km/h
1422 06-02-2009 20:29:30 5.9 C 5.19 g/m*3 5.9 C 0 km/h
1423 06-02-2009 20:41:30 5.8 C 5.23 g/m*3 5.8 C 0 km/h
1424 06-02-2009 20:53:29 5.9 C 5.26 g/m*3 5.9 C 0 km/h
1425 06-02-2009 21:05:29 5.9 C 5.26 g/m*3 5.9 C 0 km/h
Sensor: Nr:Datum:Temp:Abs-Feuchte:Windchill:Wind:
Aussen-T/F 1426 06-02-2009 21:17:29 5.9 C 5.34 g/m*3 5.9 C 0 km/h
1427 06-02-2009 21:29:29 5.9 C 5.26 g/m*3 5.9 C 0 km/h
1428 06-02-2009 21:41:29 5.8 C 5.23 g/m*3 5.8 C 0 km/h
1429 06-02-2009 21:53:29 5.9 C 5.34 g/m*3 5.9 C 0 km/h
1430 06-02-2009 22:05:29 5.6 C 5.23 g/m*3 5.6 C 0 km/h
1431 06-02-2009 22:17:28 5.6 C 5.23 g/m*3 5.6 C 0 km/h
1432 06-02-2009 22:29:29 5.6 C 5.3 g/m*3 5.6 C 0 km/h
1433 06-02-2009 22:41:29 5.4 C 5.23 g/m*3 5.4 C 0 km/h
1434 06-02-2009 22:54:28 5.3 C 5.27 g/m*3 5.3 C 0 km/h
1435 06-02-2009 23:06:28 5 C 5.16 g/m*3 5 C 0 km/h
1436 06-02-2009 23:18:28 4.9 C 5.2 g/m*3 4.9 C 0 km/h
1437 06-02-2009 23:30:28 4.8 C 5.23 g/m*3 4.8 C 0 km/h
1438 06-02-2009 23:42:28 4.8 C 5.23 g/m*3 4.8 C 0 km/h
1439 06-02-2009 23:54:28 4.8 C 5.3 g/m*3 4.8 C 0 km/h
1440 07-02-2009 00:06:28 4.9 C 5.33 g/m*3 4.9 C 0 km/h
1441 07-02-2009 00:18:28 5 C 5.3 g/m*3 5 C 0 km/h
1442 07-02-2009 00:30:28 5 C 5.23 g/m*3 5 C 0 km/h
1443 07-02-2009 00:42:28 5.1 C 5.27 g/m*3 5.1 C 0 km/h
1444 07-02-2009 00:54:28 5 C 5.23 g/m*3 5 C 0 km/h
1445 07-02-2009 01:06:28 5 C 5.23 g/m*3 5 C 0 km/h
1446 07-02-2009 01:18:28 4.9 C 5.27 g/m*3 4.9 C 0 km/h
1447 07-02-2009 01:30:28 4.8 C 5.16 g/m*3 4.8 C 0 km/h
1448 07-02-2009 01:42:29 4.7 C 5.13 g/m*3 4.7 C 0 km/h
1449 07-02-2009 01:54:29 4.7 C 5.2 g/m*3 4.7 C 0 km/h
1450 07-02-2009 02:06:29 4.8 C 5.23 g/m*3 4.8 C 0 km/h
Sensor: Nr:Datum:Temp:Abs-Feuchte:Windchill:Wind:
Aussen-T/F 1451 07-02-2009 02:18:29 4.8 C 5.23 g/m*3 4.8 C 0 km/h
1452 07-02-2009 02:30:29 4.8 C 5.23 g/m*3 4.8 C 0 km/h
1453 07-02-2009 02:42:29 4.7 C 5.2 g/m*3 4.7 C 0 km/h
1454 07-02-2009 02:54:29 4.6 C 5.16 g/m*3 4.6 C 0 km/h
1455 07-02-2009 03:06:29 4.6 C 5.16 g/m*3 4.6 C 0 km/h
1456 07-02-2009 03:18:29 4.5 C 5.19 g/m*3 4.5 C 0 km/h
1457 07-02-2009 03:30:29 4.4 C 5.16 g/m*3 4.4 C 0 km/h
1458 07-02-2009 03:42:29 4.4 C 5.16 g/m*3 4.4 C 0 km/h
1459 07-02-2009 03:54:29 4.3 C 5.12 g/m*3 4.3 C 0 km/h
1460 07-02-2009 04:06:29 4.3 C 5.12 g/m*3 4.3 C 0 km/h
1461 07-02-2009 04:18:29 4.3 C 5.12 g/m*3 4.3 C 0 km/h
1462 07-02-2009 04:30:29 4.2 C 5.09 g/m*3 4.2 C 0 km/h
1463 07-02-2009 04:42:29 4.1 C 5.06 g/m*3 4.1 C 0 km/h
1464 07-02-2009 04:54:29 4.1 C 5.06 g/m*3 4.1 C 0 km/h
1465 07-02-2009 05:06:29 4.1 C 5.06 g/m*3 4.1 C 0 km/h
1466 07-02-2009 05:18:29 4 C 5.02 g/m*3 4 C 0 km/h
1467 07-02-2009 05:30:29 3.9 C 5.05 g/m*3 3.9 C 0 km/h
1468 07-02-2009 05:42:30 3.9 C 5.05 g/m*3 3.9 C 0 km/h
1469 07-02-2009 05:54:30 3.8 C 5.02 g/m*3 3.8 C 0 km/h
1470 07-02-2009 06:06:30 3.8 C 5.02 g/m*3 3.8 C 0 km/h
1471 07-02-2009 06:18:30 3.7 C 4.99 g/m*3 3.7 C 0 km/h
1472 07-02-2009 06:30:30 3.6 C 4.95 g/m*3 3.6 C 0 km/h
1473 07-02-2009 06:42:30 3.7 C 5.05 g/m*3 3.7 C 0 km/h
1474 07-02-2009 06:54:30 3.6 C 5.01 g/m*3 3.6 C 0 km/h
1475 07-02-2009 07:06:30 3.6 C 5.01 g/m*3 3.6 C 0 km/h
Sensor: Nr:Datum:Temp:Abs-Feuchte:Windchill:Wind:
Aussen-T/F 1476 07-02-2009 07:18:28 3.7 C 5.05 g/m*3 3.7 C 0 km/h
1477 07-02-2009 07:30:29 3.7 C 5.05 g/m*3 3.7 C 0 km/h
1478 07-02-2009 07:42:30 3.7 C 5.05 g/m*3 3.7 C 0 km/h
1479 07-02-2009 07:54:28 3.6 C 5.01 g/m*3 3.6 C 0 km/h
1480 07-02-2009 08:06:28 3.6 C 5.01 g/m*3 3.6 C 0 km/h
1481 07-02-2009 08:18:28 3.5 C 5.04 g/m*3 3.5 C 0 km/h
1482 07-02-2009 08:30:28 3.5 C 5.04 g/m*3 3.5 C 0 km/h
1483 07-02-2009 08:42:28 3.5 C 5.1 g/m*3 3.5 C 0 km/h
1484 07-02-2009 08:54:28 3.6 C 5.2 g/m*3 3.6 C 0 km/h
1485 07-02-2009 09:06:28 3.6 C 5.2 g/m*3 3.6 C 0 km/h
1486 07-02-2009 09:18:27 3.7 C 5.36 g/m*3 3.7 C 0 km/h
1487 07-02-2009 09:30:27 3.8 C 5.46 g/m*3 3.8 C 0 km/h
1488 07-02-2009 09:42:28 3.8 C 5.52 g/m*3 3.8 C 0 km/h
1489 07-02-2009 09:54:27 3.6 C 5.45 g/m*3 3.6 C 0 km/h
1490 07-02-2009 10:06:27 3.8 C 5.58 g/m*3 3.8 C 0 km/h
1491 07-02-2009 10:18:26 4 C 5.66 g/m*3 4 C 0 km/h
1492 07-02-2009 10:30:27 4.2 C 5.73 g/m*3 4.2 C 0 km/h
1493 07-02-2009 10:42:27 4.2 C 5.73 g/m*3 4.2 C 0 km/h
1494 07-02-2009 10:54:26 4.3 C 5.77 g/m*3 4.3 C 0 km/h
1495 07-02-2009 11:06:26 4.2 C 5.73 g/m*3 4.2 C 0 km/h
1496 07-02-2009 11:18:27 4.5 C 5.85 g/m*3 4.5 C 0 km/h
1497 07-02-2009 11:30:26 4.6 C 5.89 g/m*3 4.6 C 0 km/h
1498 07-02-2009 11:42:26 4.6 C 5.89 g/m*3 4.6 C 0 km/h
1499 07-02-2009 11:54:26 4.7 C 5.93 g/m*3 4.7 C 0 km/h
1500 07-02-2009 12:06:26 4.8 C 5.97 g/m*3 4.8 C 0 km/h
Sensor: Nr:Datum:Temp:Abs-Feuchte:Windchill:Wind:
Aussen-T/F 1501 07-02-2009 12:18:26 4.8 C 5.97 g/m*3 4.8 C 0 km/h
1502 07-02-2009 12:30:25 4.8 C 5.97 g/m*3 4.8 C 0 km/h
1503 07-02-2009 12:42:25 4.9 C 6.01 g/m*3 4.9 C 0 km/h
1504 07-02-2009 12:54:26 5 C 5.98 g/m*3 5 C 0 km/h
1505 07-02-2009 13:06:25 5 C 5.98 g/m*3 5 C 0 km/h
1506 07-02-2009 13:18:25 5 C 6.05 g/m*3 5 C 0 km/h
1507 07-02-2009 13:30:25 5 C 6.05 g/m*3 5 C 0 km/h
1508 07-02-2009 13:42:25 5 C 6.05 g/m*3 5 C 0 km/h
1509 07-02-2009 13:54:01 5.3 C 6.24 g/m*3 5.3 C 0 km/h
1510 07-02-2009 14:06:01 5.4 C 6.28 g/m*3 5.4 C 0 km/h
1511 07-02-2009 14:18:01 5.8 C 6.45 g/m*3 5.8 C 0 km/h
1512 07-02-2009 14:30:01 5.7 C 6.4 g/m*3 5.7 C 0 km/h
1513 07-02-2009 14:42:00 5.6 C 6.29 g/m*3 5.6 C 0 km/h
1514 07-02-2009 14:54:01 5.8 C 6.38 g/m*3 5.8 C 0 km/h
1515 07-02-2009 15:06:01 5.7 C 6.26 g/m*3 5.7 C 0 km/h
1516 07-02-2009 15:18:00 5.4 C 6.07 g/m*3 5.4 C 0 km/h
1517 07-02-2009 15:30:00 5.1 C 5.88 g/m*3 5.1 C 0 km/h
1518 07-02-2009 15:42:00 4.6 C 5.76 g/m*3 4.6 C 0 km/h
1519 07-02-2009 15:54:00 4.4 C 5.68 g/m*3 4.4 C 0 km/h
1520 07-02-2009 16:06:00 4.3 C 5.64 g/m*3 4.3 C 0 km/h
1521 07-02-2009 16:18:59 4.2 C 5.61 g/m*3 4.2 C 0 km/h
1522 07-02-2009 16:30:00 4.2 C 5.61 g/m*3 4.2 C 0 km/h
1523 07-02-2009 16:42:00 4.1 C 5.5 g/m*3 4.1 C 0 km/h
1524 07-02-2009 16:54:59 4 C 5.4 g/m*3 4 C 0 km/h
1525 07-02-2009 17:06:59 3.9 C 5.43 g/m*3 3.9 C 0 km/h
Sensor: Nr:Datum:Temp:Abs-Feuchte:Windchill:Wind:
Aussen-T/F 1526 07-02-2009 17:18:00 3.7 C 5.36 g/m*3 3.7 C 0 km/h
1527 07-02-2009 17:30:00 3.6 C 5.32 g/m*3 3.6 C 0 km/h
1528 07-02-2009 17:42:59 3.6 C 5.39 g/m*3 3.6 C 0 km/h
1529 07-02-2009 17:54:59 3.4 C 5.25 g/m*3 3.4 C 0 km/h
1530 07-02-2009 18:06:59 3.4 C 5.25 g/m*3 3.4 C 0 km/h
1531 07-02-2009 18:18:59 3.3 C 5.22 g/m*3 3.3 C 0 km/h
1532 07-02-2009 18:30:58 3.2 C 5.18 g/m*3 3.2 C 0 km/h
1533 07-02-2009 18:42:58 3.3 C 5.22 g/m*3 3.3 C 0 km/h
1534 07-02-2009 18:54:59 3.1 C 5.09 g/m*3 3.1 C 0 km/h
1535 07-02-2009 19:06:58 3 C 5.11 g/m*3 3 C 0 km/h
1536 07-02-2009 19:18:58 3.1 C 5.15 g/m*3 3.1 C 0 km/h
1537 07-02-2009 19:30:58 3 C 5.05 g/m*3 3 C 0 km/h
1538 07-02-2009 19:42:58 3 C 5.05 g/m*3 3 C 0 km/h
1539 07-02-2009 19:54:58 3.1 C 5.03 g/m*3 3.1 C 0 km/h
1540 07-02-2009 20:06:58 3.1 C 4.97 g/m*3 3.1 C 0 km/h
1541 07-02-2009 20:18:57 3.1 C 4.97 g/m*3 3.1 C 0 km/h
1542 07-02-2009 20:30:58 3 C 4.88 g/m*3 3 C 0 km/h
1543 07-02-2009 20:42:58 3 C 4.82 g/m*3 3 C 0 km/h
1544 07-02-2009 20:54:57 3 C 4.76 g/m*3 3 C 0 km/h
1545 07-02-2009 21:06:57 3 C 4.76 g/m*3 3 C 0 km/h
1546 07-02-2009 21:18:56 3 C 4.7 g/m*3 3 C 0 km/h
1547 07-02-2009 21:30:57 3.1 C 4.67 g/m*3 3.1 C 0 km/h
1548 07-02-2009 21:42:57 3.1 C 4.61 g/m*3 3.1 C 0 km/h
1549 07-02-2009 21:54:56 3.1 C 4.61 g/m*3 3.1 C 0 km/h
1550 07-02-2009 22:07:57 3.1 C 4.55 g/m*3 3.1 C 0 km/h
Sensor: Nr:Datum:Temp:Abs-Feuchte:Windchill:Wind:
Aussen-T/F 1551 07-02-2009 22:19:57 3.1 C 4.49 g/m*3 3.1 C 0 km/h
1552 07-02-2009 22:31:57 3 C 4.46 g/m*3 3 C 0 km/h
1553 07-02-2009 22:43:58 3 C 4.4 g/m*3 3 C 0 km/h
1554 07-02-2009 22:55:58 2.9 C 4.37 g/m*3 2.9 C 0 km/h
1555 07-02-2009 23:07:58 2.8 C 4.34 g/m*3 2.8 C 0 km/h
1556 07-02-2009 23:19:58 2.7 C 4.31 g/m*3 2.7 C 0 km/h
1557 07-02-2009 23:31:58 2.5 C 4.25 g/m*3 2.5 C 0 km/h
1558 07-02-2009 23:43:58 2.7 C 4.31 g/m*3 2.7 C 0 km/h
1559 07-02-2009 23:55:58 2.5 C 4.14 g/m*3 2.5 C 0 km/h
1560 08-02-2009 00:07:58 2.3 C 4.14 g/m*3 2.3 C 0 km/h
1561 08-02-2009 00:19:58 2.3 C 4.2 g/m*3 2.3 C 0 km/h
1562 08-02-2009 00:31:58 2 C 4.11 g/m*3 2 C 0 km/h
1563 08-02-2009 00:43:58 1.8 C 4.11 g/m*3 1.8 C 0 km/h
1564 08-02-2009 00:55:58 1.7 C 4.03 g/m*3 1.7 C 0 km/h
1565 08-02-2009 01:07:58 1.7 C 4.03 g/m*3 1.7 C 0 km/h
1566 08-02-2009 01:19:58 1.6 C 4 g/m*3 1.6 C 0 km/h
1567 08-02-2009 01:31:58 1.8 C 4 g/m*3 1.8 C 0 km/h
1568 08-02-2009 01:43:58 1.9 C 3.97 g/m*3 1.9 C 0 km/h
1569 08-02-2009 01:55:58 1.9 C 3.97 g/m*3 1.9 C 0 km/h
1570 08-02-2009 02:07:58 2 C 3.95 g/m*3 2 C 0 km/h
1571 08-02-2009 02:19:58 2 C 3.95 g/m*3 2 C 0 km/h
1572 08-02-2009 02:31:58 1.9 C 3.97 g/m*3 1.9 C 0 km/h
1573 08-02-2009 02:43:58 1.8 C 3.95 g/m*3 1.8 C 0 km/h
1574 08-02-2009 02:55:59 1.8 C 4 g/m*3 1.8 C 0 km/h
1575 08-02-2009 03:07:59 1.8 C 3.89 g/m*3 1.8 C 0 km/h
Sensor: Nr:Datum:Temp:Abs-Feuchte:Windchill:Wind:
Aussen-T/F 1576 08-02-2009 03:19:59 1.7 C 3.87 g/m*3 1.7 C 0 km/h
1577 08-02-2009 03:31:59 1.6 C 3.84 g/m*3 1.6 C 0 km/h
1578 08-02-2009 03:43:59 1.7 C 3.87 g/m*3 1.7 C 0 km/h
1579 08-02-2009 03:55:59 1.7 C 3.87 g/m*3 1.7 C 0 km/h
1580 08-02-2009 04:07:59 1.7 C 3.81 g/m*3 1.7 C 0 km/h
1581 08-02-2009 04:19:59 1.7 C 3.81 g/m*3 1.7 C 0 km/h
1582 08-02-2009 04:31:59 1.7 C 3.81 g/m*3 1.7 C 0 km/h
1583 08-02-2009 04:43:59 1.7 C 3.81 g/m*3 1.7 C 0 km/h
1584 08-02-2009 04:55:59 1.7 C 3.81 g/m*3 1.7 C 0 km/h
1585 08-02-2009 05:07:59 1.7 C 3.81 g/m*3 1.7 C 0 km/h
1586 08-02-2009 05:19:59 1.7 C 3.81 g/m*3 1.7 C 0 km/h
1587 08-02-2009 05:31:59 1.7 C 3.76 g/m*3 1.7 C 0 km/h
1588 08-02-2009 05:43:59 1.6 C 3.73 g/m*3 1.6 C 0 km/h
1589 08-02-2009 05:55:59 1.5 C 3.71 g/m*3 1.5 C 0 km/h
1590 08-02-2009 06:07:59 1.4 C 3.68 g/m*3 1.4 C 0 km/h
1591 08-02-2009 06:19:59 1.4 C 3.73 g/m*3 1.4 C 0 km/h
1592 08-02-2009 06:31:59 1.3 C 3.71 g/m*3 1.3 C 0 km/h
1593 08-02-2009 06:43:59 1.3 C 3.71 g/m*3 1.3 C 0 km/h
1594 08-02-2009 06:56:00 1.3 C 3.6 g/m*3 1.3 C 0 km/h
1595 08-02-2009 07:08:00 1.5 C 3.44 g/m*3 1.5 C 0 km/h
1596 08-02-2009 07:19:57 1.3 C 3.39 g/m*3 1.3 C 0 km/h
1597 08-02-2009 07:31:57 1.3 C 3.39 g/m*3 1.3 C 0 km/h
1598 08-02-2009 07:43:58 1.4 C 3.36 g/m*3 1.4 C 0 km/h
1599 08-02-2009 07:55:56 1.4 C 3.36 g/m*3 1.4 C 0 km/h
1600 08-02-2009 08:07:57 1.5 C 3.38 g/m*3 1.5 C 0 km/h
Sensor: Nr:Datum:Temp:Abs-Feuchte:Windchill:Wind:
Aussen-T/F 1601 08-02-2009 08:19:56 1.6 C 3.35 g/m*3 1.6 C 0 km/h
1602 08-02-2009 08:31:56 1.7 C 3.32 g/m*3 1.7 C 0 km/h
1603 08-02-2009 08:43:56 1.7 C 3.43 g/m*3 1.7 C 0 km/h
1604 08-02-2009 08:55:56 1.8 C 3.4 g/m*3 1.8 C 0 km/h
1605 08-02-2009 09:07:56 1.9 C 3.37 g/m*3 1.9 C 0 km/h
1606 08-02-2009 09:19:55 2 C 3.33 g/m*3 2 C 0 km/h
1607 08-02-2009 09:31:55 2.1 C 3.3 g/m*3 2.1 C 0 km/h
1608 08-02-2009 09:43:55 2.1 C 3.3 g/m*3 2.1 C 0 km/h
1609 08-02-2009 09:55:55 2.2 C 3.32 g/m*3 2.2 C 0 km/h
1610 08-02-2009 10:07:55 2.3 C 3.4 g/m*3 2.3 C 0 km/h
1611 08-02-2009 10:19:55 2.5 C 3.33 g/m*3 2.5 C 0 km/h
1612 08-02-2009 10:31:55 2.7 C 3.32 g/m*3 2.7 C 0 km/h
1613 08-02-2009 10:43:55 2.9 C 3.31 g/m*3 2.9 C 0 km/h
1614 08-02-2009 10:55:55 3.3 C 3.28 g/m*3 3.3 C 0 km/h
1615 08-02-2009 11:07:54 3.4 C 3.24 g/m*3 3.4 C 0 km/h
1616 08-02-2009 11:19:55 3.4 C 3.3 g/m*3 3.4 C 0 km/h
1617 08-02-2009 11:31:54 3.6 C 3.34 g/m*3 3.6 C 0 km/h
1618 08-02-2009 11:43:54 3.8 C 3.32 g/m*3 3.8 C 0 km/h
1619 08-02-2009 11:55:54 4 C 3.24 g/m*3 4 C 0 km/h
1620 08-02-2009 12:07:55 4.1 C 3.2 g/m*3 4.1 C 0 km/h
1621 08-02-2009 12:19:54 4.3 C 3.18 g/m*3 4.3 C 0 km/h
1622 08-02-2009 12:31:53 4.3 C 2.98 g/m*3 4.3 C 0 km/h
1623 08-02-2009 12:43:53 4.4 C 3 g/m*3 4.4 C 0 km/h
1624 08-02-2009 12:55:54 4.4 C 3.07 g/m*3 4.4 C 0 km/h
1625 08-02-2009 13:07:53 4.5 C 3.02 g/m*3 4.5 C 0 km/h
Sensor: Nr:Datum:Temp:Abs-Feuchte:Windchill:Wind:
Aussen-T/F 1626 08-02-2009 13:19:53 4.5 C 3.09 g/m*3 4.5 C 0 km/h
1627 08-02-2009 13:31:54 4.6 C 3.18 g/m*3 4.6 C 0 km/h
1628 08-02-2009 13:43:54 4.5 C 3.09 g/m*3 4.5 C 0 km/h
1629 08-02-2009 13:55:53 4.5 C 3.02 g/m*3 4.5 C 0 km/h
1630 08-02-2009 14:07:53 4.8 C 3.08 g/m*3 4.8 C 0 km/h
1631 08-02-2009 14:19:53 5.3 C 3.05 g/m*3 5.3 C 0 km/h
1632 08-02-2009 14:31:53 5.6 C 2.97 g/m*3 5.6 C 0 km/h
1633 08-02-2009 14:43:54 5.7 C 2.78 g/m*3 5.7 C 0 km/h
1634 08-02-2009 14:55:52 5.1 C 2.74 g/m*3 5.1 C 0 km/h
1635 08-02-2009 15:07:52 4.7 C 2.86 g/m*3 4.7 C 0 km/h
1636 08-02-2009 15:19:52 4.7 C 2.86 g/m*3 4.7 C 0 km/h
1637 08-02-2009 15:31:52 4.7 C 2.86 g/m*3 4.7 C 0 km/h
1638 08-02-2009 15:43:52 4.5 C 2.76 g/m*3 4.5 C 0 km/h
1639 08-02-2009 15:55:51 4.4 C 2.94 g/m*3 4.4 C 0 km/h
1640 08-02-2009 16:07:52 4.1 C 3.01 g/m*3 4.1 C 0 km/h
1641 08-02-2009 16:19:52 4 C 3.05 g/m*3 4 C 0 km/h
1642 08-02-2009 16:31:51 3.8 C 3.07 g/m*3 3.8 C 0 km/h
1643 08-02-2009 16:43:51 3.8 C 3.14 g/m*3 3.8 C 0 km/h
1644 08-02-2009 16:55:52 3.7 C 3.12 g/m*3 3.7 C 0 km/h
1645 08-02-2009 17:07:51 3.6 C 2.85 g/m*3 3.6 C 0 km/h
1646 08-02-2009 17:19:51 3.5 C 2.71 g/m*3 3.5 C 0 km/h
1647 08-02-2009 17:31:51 3.4 C 2.63 g/m*3 3.4 C 0 km/h
1648 08-02-2009 17:43:51 3.4 C 2.63 g/m*3 3.4 C 0 km/h
1649 08-02-2009 17:55:51 3.2 C 2.59 g/m*3 3.2 C 0 km/h
1650 08-02-2009 18:07:51 3.2 C 2.65 g/m*3 3.2 C 0 km/h
Sensor: Nr:Datum:Temp:Abs-Feuchte:Windchill:Wind:
Aussen-T/F 1651 08-02-2009 18:19:50 3.1 C 2.57 g/m*3 3.1 C 0 km/h
1652 08-02-2009 18:31:51 3 C 2.56 g/m*3 3 C 0 km/h
1653 08-02-2009 18:43:51 2.9 C 2.6 g/m*3 2.9 C 0 km/h
1654 08-02-2009 18:55:50 2.8 C 2.58 g/m*3 2.8 C 0 km/h
1655 08-02-2009 19:07:50 2.6 C 2.6 g/m*3 2.6 C 0 km/h
1656 08-02-2009 19:19:49 2.3 C 2.61 g/m*3 2.3 C 0 km/h
1657 08-02-2009 19:31:50 2.1 C 2.63 g/m*3 2.1 C 0 km/h
1658 08-02-2009 19:43:50 2.1 C 2.63 g/m*3 2.1 C 0 km/h
1659 08-02-2009 19:55:49 2.1 C 2.74 g/m*3 2.1 C 0 km/h
1660 08-02-2009 20:07:50 2.1 C 2.74 g/m*3 2.1 C 0 km/h
1661 08-02-2009 20:19:49 2.3 C 2.72 g/m*3 2.3 C 0 km/h
1662 08-02-2009 20:31:49 2.2 C 2.7 g/m*3 2.2 C 0 km/h
1663 08-02-2009 20:43:49 2.2 C 2.76 g/m*3 2.2 C 0 km/h
1664 08-02-2009 20:55:49 2.1 C 2.8 g/m*3 2.1 C 0 km/h
1665 08-02-2009 21:07:49 2.2 C 2.82 g/m*3 2.2 C 0 km/h
1666 08-02-2009 21:19:49 2.2 C 2.82 g/m*3 2.2 C 0 km/h
1667 08-02-2009 21:31:49 2.3 C 2.84 g/m*3 2.3 C 0 km/h
1668 08-02-2009 21:43:49 2.2 C 2.82 g/m*3 2.2 C 0 km/h
1669 08-02-2009 21:55:48 2.1 C 2.85 g/m*3 2.1 C 0 km/h
1670 08-02-2009 22:07:49 2.2 C 2.93 g/m*3 2.2 C 0 km/h
1671 08-02-2009 22:20:49 2.2 C 2.99 g/m*3 2.2 C 0 km/h
1672 08-02-2009 22:32:49 2.3 C 3.01 g/m*3 2.3 C 0 km/h
1673 08-02-2009 22:44:49 2.3 C 3.06 g/m*3 2.3 C 0 km/h
1674 08-02-2009 22:56:49 2.2 C 3.1 g/m*3 2.2 C 0 km/h
1675 08-02-2009 23:08:49 2.2 C 3.1 g/m*3 2.2 C 0 km/h
Sensor: Nr:Datum:Temp:Abs-Feuchte:Windchill:Wind:
Aussen-T/F 1676 08-02-2009 23:20:49 2.1 C 3.13 g/m*3 2.1 C 0 km/h
1677 08-02-2009 23:32:50 2.2 C 3.15 g/m*3 2.2 C 0 km/h
1678 08-02-2009 23:44:50 2.3 C 3.18 g/m*3 2.3 C 0 km/h
1679 08-02-2009 23:56:50 2.3 C 3.18 g/m*3 2.3 C 0 km/h
1680 09-02-2009 00:08:50 2.4 C 3.2 g/m*3 2.4 C 0 km/h
1681 09-02-2009 00:20:50 2.4 C 3.2 g/m*3 2.4 C 0 km/h
1682 09-02-2009 00:32:50 2.3 C 3.23 g/m*3 2.3 C 0 km/h
1683 09-02-2009 00:44:50 2.3 C 3.23 g/m*3 2.3 C 0 km/h
1684 09-02-2009 00:56:50 2.3 C 3.23 g/m*3 2.3 C 0 km/h
1685 09-02-2009 01:08:50 2.3 C 3.23 g/m*3 2.3 C 0 km/h
1686 09-02-2009 01:20:50 2.3 C 3.23 g/m*3 2.3 C 0 km/h
1687 09-02-2009 01:32:50 2.2 C 3.21 g/m*3 2.2 C 0 km/h
1688 09-02-2009 01:44:50 2.2 C 3.27 g/m*3 2.2 C 0 km/h
1689 09-02-2009 01:56:50 2.1 C 3.24 g/m*3 2.1 C 0 km/h
1690 09-02-2009 02:08:50 2.1 C 3.24 g/m*3 2.1 C 0 km/h
1691 09-02-2009 02:20:50 2.2 C 3.27 g/m*3 2.2 C 0 km/h
1692 09-02-2009 02:32:50 2.2 C 3.27 g/m*3 2.2 C 0 km/h
1693 09-02-2009 02:44:50 2.1 C 3.24 g/m*3 2.1 C 0 km/h
1694 09-02-2009 02:56:50 2.1 C 3.24 g/m*3 2.1 C 0 km/h
1695 09-02-2009 03:08:50 1.8 C 3.29 g/m*3 1.8 C 0 km/h
1696 09-02-2009 03:20:50 1.6 C 3.24 g/m*3 1.6 C 0 km/h
1697 09-02-2009 03:32:50 1.7 C 3.32 g/m*3 1.7 C 0 km/h
1698 09-02-2009 03:44:51 1.5 C 3.28 g/m*3 1.5 C 0 km/h
1699 09-02-2009 03:56:51 1.4 C 3.31 g/m*3 1.4 C 0 km/h
1700 09-02-2009 04:08:51 1.3 C 3.34 g/m*3 1.3 C 0 km/h
Sensor: Nr:Datum:Temp:Abs-Feuchte:Windchill:Wind:
Aussen-T/F 1701 09-02-2009 04:20:51 1.1 C 3.34 g/m*3 1.1 C 0 km/h
1702 09-02-2009 04:32:51 0.9 C 3.35 g/m*3 0.9 C 0 km/h
1703 09-02-2009 04:44:51 0.4 C 3.29 g/m*3 0.4 C 0 km/h
1704 09-02-2009 04:56:51 0 C 3.25 g/m*3 0 C 0 km/h
1705 09-02-2009 05:08:51 0.1 C 3.42 g/m*3 0.1 C 0 km/h
1706 09-02-2009 05:20:51 0.5 C 3.46 g/m*3 0.5 C 0 km/h
1707 09-02-2009 05:32:51 1.2 C 3.31 g/m*3 1.2 C 0 km/h
1708 09-02-2009 05:44:51 1.4 C 3.2 g/m*3 1.4 C 0 km/h
1709 09-02-2009 05:56:51 1.4 C 3.2 g/m*3 1.4 C 0 km/h
1710 09-02-2009 06:08:51 1.5 C 3.17 g/m*3 1.5 C 0 km/h
1711 09-02-2009 06:20:51 1.7 C 3.21 g/m*3 1.7 C 0 km/h
1712 09-02-2009 06:32:51 1.8 C 3.12 g/m*3 1.8 C 0 km/h
1713 09-02-2009 06:44:48 1.9 C 3.2 g/m*3 1.9 C 0 km/h
1714 09-02-2009 06:56:48 1.9 C 3.2 g/m*3 1.9 C 0 km/h
1715 09-02-2009 07:08:49 1.8 C 3.23 g/m*3 1.8 C 0 km/h
1716 09-02-2009 07:20:48 1.9 C 3.26 g/m*3 1.9 C 0 km/h
1717 09-02-2009 07:32:48 2 C 3.22 g/m*3 2 C 0 km/h
1718 09-02-2009 07:44:48 1.9 C 3.26 g/m*3 1.9 C 0 km/h
1719 09-02-2009 07:56:48 1.8 C 3.23 g/m*3 1.8 C 0 km/h
1720 09-02-2009 08:08:48 2 C 3.22 g/m*3 2 C 0 km/h
1721 09-02-2009 08:20:48 2.1 C 3.19 g/m*3 2.1 C 0 km/h
1722 09-02-2009 08:32:48 2.2 C 3.21 g/m*3 2.2 C 0 km/h
1723 09-02-2009 08:44:48 2.3 C 3.23 g/m*3 2.3 C 0 km/h
1724 09-02-2009 08:56:48 2.1 C 3.3 g/m*3 2.1 C 0 km/h
1725 09-02-2009 09:08:47 1.8 C 3.45 g/m*3 1.8 C 0 km/h
Sensor: Nr:Datum:Temp:Abs-Feuchte:Windchill:Wind:
Aussen-T/F 1726 09-02-2009 09:20:48 1.9 C 3.59 g/m*3 1.9 C 0 km/h
1727 09-02-2009 09:32:47 2 C 3.56 g/m*3 2 C 0 km/h
1728 09-02-2009 09:44:47 2.1 C 3.47 g/m*3 2.1 C 0 km/h
1729 09-02-2009 09:56:47 2.2 C 3.49 g/m*3 2.2 C 0 km/h
1730 09-02-2009 10:08:46 2.4 C 3.48 g/m*3 2.4 C 0 km/h
1731 09-02-2009 10:20:47 2.5 C 3.51 g/m*3 2.5 C 0 km/h
1732 09-02-2009 10:32:47 2.6 C 3.53 g/m*3 2.6 C 0 km/h
1733 09-02-2009 10:44:46 2.7 C 3.5 g/m*3 2.7 C 0 km/h
1734 09-02-2009 10:56:46 2.9 C 3.48 g/m*3 2.9 C 0 km/h
1735 09-02-2009 11:08:47 3 C 3.45 g/m*3 3 C 0 km/h
1736 09-02-2009 11:20:46 3.1 C 3.47 g/m*3 3.1 C 0 km/h
1737 09-02-2009 11:32:46 3.2 C 3.5 g/m*3 3.2 C 0 km/h
1738 09-02-2009 11:44:46 3.2 C 3.56 g/m*3 3.2 C 0 km/h
1739 09-02-2009 11:56:46 3.2 C 3.56 g/m*3 3.2 C 0 km/h
1740 09-02-2009 12:08:46 3.4 C 3.6 g/m*3 3.4 C 0 km/h
1741 09-02-2009 12:20:46 3.4 C 3.66 g/m*3 3.4 C 0 km/h
1742 09-02-2009 12:32:45 3.5 C 3.75 g/m*3 3.5 C 0 km/h
1743 09-02-2009 12:44:46 3.5 C 3.75 g/m*3 3.5 C 0 km/h
1744 09-02-2009 12:56:46 3.8 C 3.83 g/m*3 3.8 C 0 km/h
1745 09-02-2009 13:08:45 3.8 C 3.83 g/m*3 3.8 C 0 km/h
1746 09-02-2009 13:20:45 4.1 C 3.71 g/m*3 4.1 C 0 km/h
1747 09-02-2009 13:32:45 4.3 C 3.76 g/m*3 4.3 C 0 km/h
1748 09-02-2009 13:44:45 4.2 C 3.67 g/m*3 4.2 C 0 km/h
1749 09-02-2009 13:56:45 4 C 3.75 g/m*3 4 C 0 km/h
1750 09-02-2009 14:08:44 4 C 3.75 g/m*3 4 C 0 km/h
Sensor: Nr:Datum:Temp:Abs-Feuchte:Windchill:Wind:
Aussen-T/F 1751 09-02-2009 14:20:45 4.5 C 3.81 g/m*3 4.5 C 0 km/h
1752 09-02-2009 14:32:45 4.4 C 3.72 g/m*3 4.4 C 0 km/h
1753 09-02-2009 14:44:45 4.4 C 3.79 g/m*3 4.4 C 0 km/h
1754 09-02-2009 14:56:45 4.2 C 3.8 g/m*3 4.2 C 0 km/h
1755 09-02-2009 15:08:45 4 C 3.75 g/m*3 4 C 0 km/h
1756 09-02-2009 15:20:44 4 C 3.81 g/m*3 4 C 0 km/h
1757 09-02-2009 15:32:44 4 C 3.81 g/m*3 4 C 0 km/h
1758 09-02-2009 15:44:43 3.9 C 3.92 g/m*3 3.9 C 0 km/h
1759 09-02-2009 15:56:43 3.9 C 3.92 g/m*3 3.9 C 0 km/h
1760 09-02-2009 16:08:43 3.8 C 3.89 g/m*3 3.8 C 0 km/h
1761 09-02-2009 16:20:44 3.8 C 3.89 g/m*3 3.8 C 0 km/h
1762 09-02-2009 16:32:43 3.7 C 3.93 g/m*3 3.7 C 0 km/h
1763 09-02-2009 16:44:43 3.6 C 3.9 g/m*3 3.6 C 0 km/h
1764 09-02-2009 16:56:43 3.6 C 3.9 g/m*3 3.6 C 0 km/h
1765 09-02-2009 17:08:43 3.5 C 3.87 g/m*3 3.5 C 0 km/h
1766 09-02-2009 17:20:43 3.4 C 3.91 g/m*3 3.4 C 0 km/h
1767 09-02-2009 17:32:43 3.3 C 3.94 g/m*3 3.3 C 0 km/h
1768 09-02-2009 17:44:43 3.3 C 3.94 g/m*3 3.3 C 0 km/h
1769 09-02-2009 17:56:43 3.1 C 3.95 g/m*3 3.1 C 0 km/h
1770 09-02-2009 18:08:43 3 C 3.98 g/m*3 3 C 0 km/h
1771 09-02-2009 18:20:42 2.8 C 4.11 g/m*3 2.8 C 0 km/h
1772 09-02-2009 18:32:42 2.6 C 4.22 g/m*3 2.6 C 0 km/h
1773 09-02-2009 18:44:42 2.4 C 4.34 g/m*3 2.4 C 0 km/h
1774 09-02-2009 18:56:42 2.2 C 4.39 g/m*3 2.2 C 0 km/h
1775 09-02-2009 19:08:42 2.1 C 4.48 g/m*3 2.1 C 0 km/h
Sensor: Nr:Datum:Temp:Abs-Feuchte:Windchill:Wind:
Aussen-T/F 1776 09-02-2009 19:20:41 2 C 4.56 g/m*3 2 C 0 km/h
1777 09-02-2009 19:32:42 2 C 4.61 g/m*3 2 C 0 km/h
1778 09-02-2009 19:44:42 2 C 4.67 g/m*3 2 C 0 km/h
1779 09-02-2009 19:56:42 1.8 C 4.66 g/m*3 1.8 C 0 km/h
1780 09-02-2009 20:08:41 1.8 C 4.71 g/m*3 1.8 C 0 km/h
1781 09-02-2009 20:20:41 1.7 C 4.68 g/m*3 1.7 C 0 km/h
1782 09-02-2009 20:32:41 1.7 C 4.74 g/m*3 1.7 C 0 km/h
1783 09-02-2009 20:44:41 1.7 C 4.74 g/m*3 1.7 C 0 km/h
1784 09-02-2009 20:56:41 1.6 C 4.7 g/m*3 1.6 C 0 km/h
1785 09-02-2009 21:08:40 1.3 C 4.61 g/m*3 1.3 C 0 km/h
1786 09-02-2009 21:20:41 1.4 C 4.69 g/m*3 1.4 C 0 km/h
1787 09-02-2009 21:33:40 1.4 C 4.75 g/m*3 1.4 C 0 km/h
1788 09-02-2009 21:45:40 1.3 C 4.72 g/m*3 1.3 C 0 km/h
1789 09-02-2009 21:57:40 1.1 C 4.65 g/m*3 1.1 C 0 km/h
1790 09-02-2009 22:09:40 1 C 4.62 g/m*3 1 C 0 km/h
1791 09-02-2009 22:21:40 1.3 C 4.77 g/m*3 1.3 C 0 km/h
1792 09-02-2009 22:33:40 1.4 C 4.8 g/m*3 1.4 C 0 km/h
1793 09-02-2009 22:45:40 1.5 C 4.89 g/m*3 1.5 C 0 km/h
1794 09-02-2009 22:57:40 1.7 C 4.95 g/m*3 1.7 C 0 km/h
1795 09-02-2009 23:09:40 1.7 C 4.95 g/m*3 1.7 C 0 km/h
1796 09-02-2009 23:21:40 1.7 C 4.95 g/m*3 1.7 C 0 km/h
1797 09-02-2009 23:33:40 1.7 C 4.95 g/m*3 1.7 C 0 km/h
1798 09-02-2009 23:45:40 1.7 C 4.95 g/m*3 1.7 C 0 km/h
1799 09-02-2009 23:57:40 1.8 C 5.04 g/m*3 1.8 C 0 km/h
1800 10-02-2009 00:09:40 1.8 C 5.04 g/m*3 1.8 C 0 km/h
Sensor: Nr:Datum:Temp:Abs-Feuchte:Windchill:Wind:
Aussen-T/F 1801 10-02-2009 00:21:41 1.9 C 5.08 g/m*3 1.9 C 0 km/h
1802 10-02-2009 00:33:41 1.9 C 5.13 g/m*3 1.9 C 0 km/h
1803 10-02-2009 00:45:41 2 C 5.11 g/m*3 2 C 0 km/h
1804 10-02-2009 00:57:41 2 C 5.17 g/m*3 2 C 0 km/h
1805 10-02-2009 01:09:41 2.1 C 5.2 g/m*3 2.1 C 0 km/h
1806 10-02-2009 01:21:41 2.2 C 5.24 g/m*3 2.2 C 0 km/h
1807 10-02-2009 01:33:41 2.3 C 5.27 g/m*3 2.3 C 0 km/h
1808 10-02-2009 01:45:41 2.4 C 5.37 g/m*3 2.4 C 0 km/h
1809 10-02-2009 01:57:41 2.5 C 5.4 g/m*3 2.5 C 0 km/h
1810 10-02-2009 02:09:41 2.6 C 5.44 g/m*3 2.6 C 0 km/h
1811 10-02-2009 02:21:41 2.8 C 5.51 g/m*3 2.8 C 0 km/h
1812 10-02-2009 02:33:41 3 C 5.59 g/m*3 3 C 0 km/h
1813 10-02-2009 02:45:41 3.3 C 5.7 g/m*3 3.3 C 0 km/h
1814 10-02-2009 02:57:41 3.4 C 5.8 g/m*3 3.4 C 0 km/h
1815 10-02-2009 03:09:41 3.6 C 5.88 g/m*3 3.6 C 0 km/h
1816 10-02-2009 03:21:41 3.8 C 5.96 g/m*3 3.8 C 0 km/h
1817 10-02-2009 03:33:41 3.9 C 6 g/m*3 3.9 C 0 km/h
1818 10-02-2009 03:45:41 4.1 C 6.08 g/m*3 4.1 C 0 km/h
1819 10-02-2009 03:57:41 4.3 C 6.16 g/m*3 4.3 C 0 km/h
1820 10-02-2009 04:09:41 4.5 C 6.24 g/m*3 4.5 C 0 km/h
1821 10-02-2009 04:21:42 4.8 C 6.37 g/m*3 4.8 C 0 km/h
1822 10-02-2009 04:33:42 5.1 C 6.5 g/m*3 5.1 C 0 km/h
1823 10-02-2009 04:45:42 5.1 C 6.5 g/m*3 5.1 C 0 km/h
1824 10-02-2009 04:57:42 5.2 C 6.54 g/m*3 5.2 C 0 km/h
1825 10-02-2009 05:09:42 5.3 C 6.58 g/m*3 5.3 C 0 km/h
Sensor: Nr:Datum:Temp:Abs-Feuchte:Windchill:Wind:
Aussen-T/F 1826 10-02-2009 05:21:42 5.7 C 6.76 g/m*3 5.7 C 0 km/h
1827 10-02-2009 05:33:40 5.7 C 6.76 g/m*3 5.7 C 0 km/h
1828 10-02-2009 05:45:40 5.9 C 6.85 g/m*3 5.9 C 0 km/h
1829 10-02-2009 05:57:40 6.2 C 6.99 g/m*3 6.2 C 0 km/h
1830 10-02-2009 06:09:41 6.4 C 7.08 g/m*3 6.4 C 0 km/h
1831 10-02-2009 06:21:40 6.4 C 7.08 g/m*3 6.4 C 0 km/h
1832 10-02-2009 06:33:40 6.4 C 7 g/m*3 6.4 C 0 km/h
1833 10-02-2009 06:45:39 6.4 C 7 g/m*3 6.4 C 0 km/h
1834 10-02-2009 06:57:39 6.5 C 7.05 g/m*3 6.5 C 0 km/h
1835 10-02-2009 07:09:40 6.5 C 6.97 g/m*3 6.5 C 0 km/h
1836 10-02-2009 07:21:40 6.4 C 6.93 g/m*3 6.4 C 0 km/h
1837 10-02-2009 07:33:39 6.3 C 6.88 g/m*3 6.3 C 0 km/h
1838 10-02-2009 07:45:39 6.5 C 6.9 g/m*3 6.5 C 0 km/h
1839 10-02-2009 07:57:39 6.5 C 6.9 g/m*3 6.5 C 0 km/h
1840 10-02-2009 08:09:39 6.5 C 6.75 g/m*3 6.5 C 0 km/h
1841 10-02-2009 08:21:39 6.4 C 6.71 g/m*3 6.4 C 0 km/h
1842 10-02-2009 08:33:38 6.4 C 6.71 g/m*3 6.4 C 0 km/h
1843 10-02-2009 08:45:39 6.4 C 6.71 g/m*3 6.4 C 0 km/h
1844 10-02-2009 08:57:39 6.6 C 6.72 g/m*3 6.6 C 0 km/h
1845 10-02-2009 09:09:39 6.6 C 6.64 g/m*3 6.6 C 0 km/h
1846 10-02-2009 09:21:38 6.6 C 6.49 g/m*3 6.6 C 0 km/h
1847 10-02-2009 09:33:38 6.6 C 6.49 g/m*3 6.6 C 0 km/h
1848 10-02-2009 09:45:38 6.8 C 6.58 g/m*3 6.8 C 0 km/h
1849 10-02-2009 09:57:38 6.8 C 6.58 g/m*3 6.8 C 0 km/h
1850 10-02-2009 10:09:38 6.9 C 6.62 g/m*3 6.9 C 0 km/h
Sensor: Nr:Datum:Temp:Abs-Feuchte:Windchill:Wind:
Aussen-T/F 1851 10-02-2009 10:21:37 7.1 C 6.55 g/m*3 7.1 C 0 km/h
1852 10-02-2009 10:33:38 7.5 C 6.4 g/m*3 7.5 C 0 km/h
1853 10-02-2009 10:45:37 7.6 C 5.96 g/m*3 7.6 C 0 km/h
1854 10-02-2009 10:57:37 7.2 C 5.34 g/m*3 7.2 C 0 km/h
1855 10-02-2009 11:09:37 6.7 C 5.24 g/m*3 6.7 C 0 km/h
1856 10-02-2009 11:21:38 6.1 C 4.89 g/m*3 6.1 C 0 km/h
1857 10-02-2009 11:33:37 5.7 C 4.91 g/m*3 5.7 C 0 km/h
1858 10-02-2009 11:45:37 6 C 4.57 g/m*3 6 C 0 km/h
1859 10-02-2009 11:57:37 6.1 C 4.6 g/m*3 6.1 C 0 km/h
1860 10-02-2009 12:09:37 6.4 C 4.55 g/m*3 6.4 C 0 km/h
1861 10-02-2009 12:21:37 6.3 C 4.37 g/m*3 6.3 C 0 km/h
1862 10-02-2009 12:33:36 5.8 C 4.3 g/m*3 5.8 C 0 km/h
1863 10-02-2009 12:45:37 5.2 C 4.2 g/m*3 5.2 C 0 km/h
1864 10-02-2009 12:57:37 5 C 4.21 g/m*3 5 C 0 km/h
1865 10-02-2009 13:09:36 4.7 C 4.26 g/m*3 4.7 C 0 km/h
1866 10-02-2009 13:21:36 4.4 C 4.44 g/m*3 4.4 C 0 km/h
1867 10-02-2009 13:33:36 4.4 C 4.37 g/m*3 4.4 C 0 km/h
1868 10-02-2009 13:45:36 4.4 C 4.37 g/m*3 4.4 C 0 km/h
1869 10-02-2009 13:57:36 4.3 C 4.28 g/m*3 4.3 C 0 km/h
1870 10-02-2009 14:09:36 4.4 C 4.31 g/m*3 4.4 C 0 km/h
1871 10-02-2009 14:21:35 4.4 C 4.31 g/m*3 4.4 C 0 km/h
1872 10-02-2009 14:33:36 4.4 C 4.24 g/m*3 4.4 C 0 km/h
1873 10-02-2009 14:45:35 4.4 C 4.18 g/m*3 4.4 C 0 km/h
1874 10-02-2009 14:57:35 4.3 C 4.15 g/m*3 4.3 C 0 km/h
1875 10-02-2009 15:09:35 4.3 C 4.15 g/m*3 4.3 C 0 km/h
Sensor: Nr:Datum:Temp:Abs-Feuchte:Windchill:Wind:
Aussen-T/F 1876 10-02-2009 15:21:35 4.2 C 4.12 g/m*3 4.2 C 0 km/h
1877 10-02-2009 15:33:35 4.1 C 3.9 g/m*3 4.1 C 0 km/h
1878 10-02-2009 15:45:34 3.7 C 3.86 g/m*3 3.7 C 0 km/h
1879 10-02-2009 15:57:34 3.7 C 3.93 g/m*3 3.7 C 0 km/h
1880 10-02-2009 16:09:34 3.3 C 4 g/m*3 3.3 C 0 km/h
1881 10-02-2009 16:21:35 2.7 C 4.25 g/m*3 2.7 C 0 km/h
1882 10-02-2009 16:33:34 2.1 C 4.42 g/m*3 2.1 C 0 km/h
1883 10-02-2009 16:45:34 1.9 C 4.58 g/m*3 1.9 C 0 km/h
1884 10-02-2009 16:57:34 1.9 C 4.64 g/m*3 1.9 C 0 km/h
1885 10-02-2009 17:09:34 1.9 C 4.64 g/m*3 1.9 C 0 km/h
1886 10-02-2009 17:21:34 2 C 4.61 g/m*3 2 C 0 km/h
1887 10-02-2009 17:33:33 2 C 4.56 g/m*3 2 C 0 km/h
1888 10-02-2009 17:45:34 2.1 C 4.64 g/m*3 2.1 C 0 km/h
1889 10-02-2009 17:57:34 2.1 C 4.7 g/m*3 2.1 C 0 km/h
1890 10-02-2009 18:09:33 2.2 C 4.68 g/m*3 2.2 C 0 km/h
1891 10-02-2009 18:21:33 2.3 C 4.65 g/m*3 2.3 C 0 km/h
1892 10-02-2009 18:33:33 2.5 C 4.54 g/m*3 2.5 C 0 km/h
1893 10-02-2009 18:45:33 2.5 C 4.54 g/m*3 2.5 C 0 km/h
1894 10-02-2009 18:57:33 2.6 C 4.51 g/m*3 2.6 C 0 km/h
1895 10-02-2009 19:09:33 2.5 C 4.48 g/m*3 2.5 C 0 km/h
1896 10-02-2009 19:21:32 2.6 C 4.46 g/m*3 2.6 C 0 km/h
1897 10-02-2009 19:33:33 2.6 C 4.46 g/m*3 2.6 C 0 km/h
1898 10-02-2009 19:45:32 2.5 C 4.43 g/m*3 2.5 C 0 km/h
1899 10-02-2009 19:57:32 2.4 C 4.51 g/m*3 2.4 C 0 km/h
1900 10-02-2009 20:09:32 2.6 C 4.46 g/m*3 2.6 C 0 km/h
Sensor: Nr:Datum:Temp:Abs-Feuchte:Windchill:Wind:
Aussen-T/F 1901 10-02-2009 20:21:32 2.9 C 4.31 g/m*3 2.9 C 0 km/h
1902 10-02-2009 20:33:32 2.9 C 4.13 g/m*3 2.9 C 0 km/h
1903 10-02-2009 20:45:32 3 C 3.98 g/m*3 3 C 0 km/h
1904 10-02-2009 20:57:32 3 C 3.92 g/m*3 3 C 0 km/h
1905 10-02-2009 21:09:31 3.1 C 3.95 g/m*3 3.1 C 0 km/h
1906 10-02-2009 21:22:32 3 C 3.92 g/m*3 3 C 0 km/h
1907 10-02-2009 21:34:32 3.1 C 3.89 g/m*3 3.1 C 0 km/h
1908 10-02-2009 21:46:32 2.7 C 4.02 g/m*3 2.7 C 0 km/h
1909 10-02-2009 21:58:32 2.1 C 4.25 g/m*3 2.1 C 0 km/h
1910 10-02-2009 22:10:32 2 C 4.45 g/m*3 2 C 0 km/h
1911 10-02-2009 22:22:32 2.1 C 4.42 g/m*3 2.1 C 0 km/h
1912 10-02-2009 22:34:32 2.1 C 4.36 g/m*3 2.1 C 0 km/h
1913 10-02-2009 22:46:32 2.3 C 4.31 g/m*3 2.3 C 0 km/h
1914 10-02-2009 22:58:32 2.4 C 4.23 g/m*3 2.4 C 0 km/h
1915 10-02-2009 23:10:32 2.5 C 4.08 g/m*3 2.5 C 0 km/h
1916 10-02-2009 23:22:32 2.6 C 4.11 g/m*3 2.6 C 0 km/h
1917 10-02-2009 23:34:32 2.8 C 4.05 g/m*3 2.8 C 0 km/h
1918 10-02-2009 23:46:32 2.8 C 3.99 g/m*3 2.8 C 0 km/h
1919 10-02-2009 23:58:32 2.8 C 3.93 g/m*3 2.8 C 0 km/h
1920 11-02-2009 00:10:32 2.9 C 3.9 g/m*3 2.9 C 0 km/h
1921 11-02-2009 00:22:32 2.8 C 3.81 g/m*3 2.8 C 0 km/h
1922 11-02-2009 00:34:32 2.8 C 3.81 g/m*3 2.8 C 0 km/h
1923 11-02-2009 00:46:32 2.8 C 3.81 g/m*3 2.8 C 0 km/h
1924 11-02-2009 00:58:32 2.7 C 3.73 g/m*3 2.7 C 0 km/h
1925 11-02-2009 01:10:33 2.7 C 3.67 g/m*3 2.7 C 0 km/h
Sensor: Nr:Datum:Temp:Abs-Feuchte:Windchill:Wind:
Aussen-T/F 1926 11-02-2009 01:22:33 2.6 C 3.7 g/m*3 2.6 C 0 km/h
1927 11-02-2009 01:34:33 2.5 C 3.62 g/m*3 2.5 C 0 km/h
1928 11-02-2009 01:46:33 2.4 C 3.54 g/m*3 2.4 C 0 km/h
1929 11-02-2009 01:58:33 2.5 C 3.62 g/m*3 2.5 C 0 km/h
1930 11-02-2009 02:10:33 2.5 C 3.68 g/m*3 2.5 C 0 km/h
1931 11-02-2009 02:22:33 2.5 C 3.79 g/m*3 2.5 C 0 km/h
1932 11-02-2009 02:34:33 2.6 C 3.82 g/m*3 2.6 C 0 km/h
1933 11-02-2009 02:46:33 2.5 C 3.74 g/m*3 2.5 C 0 km/h
1934 11-02-2009 02:58:33 2.3 C 3.69 g/m*3 2.3 C 0 km/h
1935 11-02-2009 03:10:33 2.3 C 3.74 g/m*3 2.3 C 0 km/h
1936 11-02-2009 03:22:33 2.2 C 3.72 g/m*3 2.2 C 0 km/h
1937 11-02-2009 03:34:33 2.3 C 3.86 g/m*3 2.3 C 0 km/h
1938 11-02-2009 03:46:33 2.4 C 3.83 g/m*3 2.4 C 0 km/h
1939 11-02-2009 03:58:33 2.5 C 3.85 g/m*3 2.5 C 0 km/h
1940 11-02-2009 04:10:33 2.4 C 3.88 g/m*3 2.4 C 0 km/h
1941 11-02-2009 04:22:33 2.3 C 3.91 g/m*3 2.3 C 0 km/h
1942 11-02-2009 04:34:33 2.2 C 4 g/m*3 2.2 C 0 km/h
1943 11-02-2009 04:46:33 2.2 C 4.06 g/m*3 2.2 C 0 km/h
1944 11-02-2009 04:58:34 2.2 C 4.06 g/m*3 2.2 C 0 km/h
1945 11-02-2009 05:10:34 2.2 C 4 g/m*3 2.2 C 0 km/h
1946 11-02-2009 05:22:34 2.2 C 3.94 g/m*3 2.2 C 0 km/h
1947 11-02-2009 05:34:34 2.1 C 3.92 g/m*3 2.1 C 0 km/h
1948 11-02-2009 05:46:34 2.2 C 3.89 g/m*3 2.2 C 0 km/h
1949 11-02-2009 05:58:34 2.1 C 3.86 g/m*3 2.1 C 0 km/h
1950 11-02-2009 06:10:34 2.1 C 3.86 g/m*3 2.1 C 0 km/h
Sensor: Nr:Datum:Temp:Abs-Feuchte:Windchill:Wind:
Aussen-T/F 1951 11-02-2009 06:22:34 2.2 C 3.77 g/m*3 2.2 C 0 km/h
1952 11-02-2009 06:34:34 2.2 C 3.72 g/m*3 2.2 C 0 km/h
1953 11-02-2009 06:46:34 2.1 C 3.75 g/m*3 2.1 C 0 km/h
1954 11-02-2009 06:58:34 2.1 C 3.75 g/m*3 2.1 C 0 km/h
1955 11-02-2009 07:10:32 2 C 3.72 g/m*3 2 C 0 km/h
1956 11-02-2009 07:22:32 2.1 C 3.69 g/m*3 2.1 C 0 km/h
1957 11-02-2009 07:34:32 2.1 C 3.64 g/m*3 2.1 C 0 km/h
1958 11-02-2009 07:46:32 2 C 3.61 g/m*3 2 C 0 km/h
1959 11-02-2009 07:58:32 2 C 3.61 g/m*3 2 C 0 km/h
1960 11-02-2009 08:10:31 2 C 3.56 g/m*3 2 C 0 km/h
1961 11-02-2009 08:22:32 2.1 C 3.64 g/m*3 2.1 C 0 km/h
1962 11-02-2009 08:34:31 2 C 3.56 g/m*3 2 C 0 km/h
1963 11-02-2009 08:46:31 1.7 C 3.59 g/m*3 1.7 C 0 km/h
1964 11-02-2009 08:58:31 1.7 C 3.59 g/m*3 1.7 C 0 km/h
1965 11-02-2009 09:10:31 1.9 C 3.7 g/m*3 1.9 C 0 km/h
1966 11-02-2009 09:22:31 1.8 C 3.62 g/m*3 1.8 C 0 km/h
1967 11-02-2009 09:34:31 1.8 C 3.62 g/m*3 1.8 C 0 km/h
1968 11-02-2009 09:46:31 1.7 C 3.65 g/m*3 1.7 C 0 km/h
1969 11-02-2009 09:58:31 2.4 C 3.71 g/m*3 2.4 C 0 km/h
1970 11-02-2009 10:10:31 2.9 C 3.66 g/m*3 2.9 C 0 km/h
1971 11-02-2009 10:22:30 3 C 3.51 g/m*3 3 C 0 km/h
1972 11-02-2009 10:34:30 3.2 C 3.43 g/m*3 3.2 C 0 km/h
1973 11-02-2009 10:46:30 3.2 C 3.37 g/m*3 3.2 C 0 km/h
1974 11-02-2009 10:58:30 3.7 C 3.43 g/m*3 3.7 C 0 km/h
1975 11-02-2009 11:10:30 3.8 C 3.32 g/m*3 3.8 C 0 km/h
Sensor: Nr:Datum:Temp:Abs-Feuchte:Windchill:Wind:
Aussen-T/F 1976 11-02-2009 11:22:29 3.8 C 3.26 g/m*3 3.8 C 0 km/h
1977 11-02-2009 11:34:30 4 C 3.05 g/m*3 4 C 0 km/h
1978 11-02-2009 11:46:29 4.5 C 3.02 g/m*3 4.5 C 0 km/h
1979 11-02-2009 11:58:29 4.6 C 2.85 g/m*3 4.6 C 0 km/h
1980 11-02-2009 12:10:29 4.6 C 2.85 g/m*3 4.6 C 0 km/h
1981 11-02-2009 12:22:29 4.5 C 2.76 g/m*3 4.5 C 0 km/h
1982 11-02-2009 12:34:29 3.6 C 3.16 g/m*3 3.6 C 0 km/h
1983 11-02-2009 12:46:29 3.7 C 3.49 g/m*3 3.7 C 0 km/h
1984 11-02-2009 12:58:29 3.4 C 3.42 g/m*3 3.4 C 0 km/h
1985 11-02-2009 13:10:28 3.3 C 3.64 g/m*3 3.3 C 0 km/h
1986 11-02-2009 13:22:29 3.6 C 3.96 g/m*3 3.6 C 0 km/h
1987 11-02-2009 13:34:28 3.7 C 3.93 g/m*3 3.7 C 0 km/h
1988 11-02-2009 13:46:28 3.7 C 3.68 g/m*3 3.7 C 0 km/h
1989 11-02-2009 13:58:28 4.4 C 3.66 g/m*3 4.4 C 0 km/h
1990 11-02-2009 14:10:28 5.2 C 3.03 g/m*3 5.2 C 0 km/h
1991 11-02-2009 14:22:28 6.5 C 2.7 g/m*3 6.5 C 0 km/h
1992 11-02-2009 14:34:28 6.2 C 2.57 g/m*3 6.2 C 0 km/h
1993 11-02-2009 14:46:28 5.9 C 2.31 g/m*3 5.9 C 0 km/h
1994 11-02-2009 14:58:28 5.6 C 2.12 g/m*3 5.6 C 0 km/h
1995 11-02-2009 15:10:28 5.6 C 2.26 g/m*3 5.6 C 0 km/h
1996 11-02-2009 15:22:27 5.3 C 2.15 g/m*3 5.3 C 0 km/h
1997 11-02-2009 15:34:27 5 C 2.45 g/m*3 5 C 0 km/h
1998 11-02-2009 15:46:27 4.7 C 2.73 g/m*3 4.7 C 0 km/h
1999 11-02-2009 15:58:27 4.6 C 2.71 g/m*3 4.6 C 0 km/h
2000 11-02-2009 16:10:27 4.6 C 2.71 g/m*3 4.6 C 0 km/h
Sensor: Nr:Datum:Temp:Abs-Feuchte:Windchill:Wind:
Aussen-T/F 2001 11-02-2009 16:22:26 4.3 C 2.72 g/m*3 4.3 C 0 km/h
2002 11-02-2009 16:34:27 4.2 C 2.77 g/m*3 4.2 C 0 km/h
2003 11-02-2009 16:46:26 4 C 2.86 g/m*3 4 C 0 km/h
2004 11-02-2009 16:58:26 3.8 C 3.01 g/m*3 3.8 C 0 km/h
2005 11-02-2009 17:10:26 3.7 C 3.12 g/m*3 3.7 C 0 km/h
2006 11-02-2009 17:22:27 3.6 C 3.1 g/m*3 3.6 C 0 km/h
2007 11-02-2009 17:34:26 3.5 C 3.2 g/m*3 3.5 C 0 km/h
2008 11-02-2009 17:46:26 3.4 C 3.18 g/m*3 3.4 C 0 km/h
2009 11-02-2009 17:58:26 3.4 C 3.24 g/m*3 3.4 C 0 km/h
2010 11-02-2009 18:10:26 3.4 C 3.36 g/m*3 3.4 C 0 km/h
2011 11-02-2009 18:22:26 3.2 C 3.37 g/m*3 3.2 C 0 km/h
2012 11-02-2009 18:34:25 3.1 C 3.47 g/m*3 3.1 C 0 km/h
2013 11-02-2009 18:46:26 3.1 C 3.47 g/m*3 3.1 C 0 km/h
2014 11-02-2009 18:58:26 3 C 3.45 g/m*3 3 C 0 km/h
2015 11-02-2009 19:10:25 2.9 C 3.54 g/m*3 2.9 C 0 km/h
2016 11-02-2009 19:22:25 2.9 C 3.54 g/m*3 2.9 C 0 km/h
2017 11-02-2009 19:34:25 3 C 3.45 g/m*3 3 C 0 km/h
2018 11-02-2009 19:46:25 3 C 3.45 g/m*3 3 C 0 km/h
2019 11-02-2009 19:58:25 3 C 3.45 g/m*3 3 C 0 km/h
2020 11-02-2009 20:10:25 2.9 C 3.48 g/m*3 2.9 C 0 km/h
2021 11-02-2009 20:22:24 2.9 C 3.54 g/m*3 2.9 C 0 km/h
2022 11-02-2009 20:34:25 2.8 C 3.52 g/m*3 2.8 C 0 km/h
2023 11-02-2009 20:46:24 2.8 C 3.58 g/m*3 2.8 C 0 km/h
2024 11-02-2009 20:58:24 2.6 C 3.65 g/m*3 2.6 C 0 km/h
2025 11-02-2009 21:10:24 2.4 C 3.88 g/m*3 2.4 C 0 km/h
Sensor: Nr:Datum:Temp:Abs-Feuchte:Windchill:Wind:
Aussen-T/F 2026 11-02-2009 21:23:26 2.2 C 3.94 g/m*3 2.2 C 0 km/h
2027 11-02-2009 21:35:26 2.1 C 3.97 g/m*3 2.1 C 0 km/h
2028 11-02-2009 21:47:26 1.8 C 4.11 g/m*3 1.8 C 0 km/h
2029 11-02-2009 21:59:26 1.6 C 4.27 g/m*3 1.6 C 0 km/h
2030 11-02-2009 22:11:26 1.5 C 4.35 g/m*3 1.5 C 0 km/h
2031 11-02-2009 22:23:26 1.1 C 4.39 g/m*3 1.1 C 0 km/h
2032 11-02-2009 22:35:26 1.1 C 4.49 g/m*3 1.1 C 0 km/h
2033 11-02-2009 22:47:26 1 C 4.52 g/m*3 1 C 0 km/h
2034 11-02-2009 22:59:26 1.1 C 4.6 g/m*3 1.1 C 0 km/h
2035 11-02-2009 23:11:26 1.3 C 4.72 g/m*3 1.3 C 0 km/h
2036 11-02-2009 23:23:26 1.3 C 4.72 g/m*3 1.3 C 0 km/h
2037 11-02-2009 23:35:26 1.3 C 4.66 g/m*3 1.3 C 0 km/h
2038 11-02-2009 23:47:26 1.4 C 4.69 g/m*3 1.4 C 0 km/h
2039 11-02-2009 23:59:26 1.4 C 4.59 g/m*3 1.4 C 0 km/h
2040 12-02-2009 00:11:26 1.3 C 4.56 g/m*3 1.3 C 0 km/h
2041 12-02-2009 00:23:26 1 C 4.46 g/m*3 1 C 0 km/h
2042 12-02-2009 00:35:27 1.1 C 4.49 g/m*3 1.1 C 0 km/h
2043 12-02-2009 00:47:27 1.2 C 4.47 g/m*3 1.2 C 0 km/h
2044 12-02-2009 00:59:27 1.1 C 4.39 g/m*3 1.1 C 0 km/h
2045 12-02-2009 01:11:27 1 C 4.36 g/m*3 1 C 0 km/h
2046 12-02-2009 01:23:27 1 C 4.41 g/m*3 1 C 0 km/h
2047 12-02-2009 01:35:27 1 C 4.36 g/m*3 1 C 0 km/h
2048 12-02-2009 01:47:27 1.1 C 4.29 g/m*3 1.1 C 0 km/h
2049 12-02-2009 01:59:27 1.2 C 4.21 g/m*3 1.2 C 0 km/h
2050 12-02-2009 02:11:27 1.1 C 4.13 g/m*3 1.1 C 0 km/h
Sensor: Nr:Datum:Temp:Abs-Feuchte:Windchill:Wind:
Aussen-T/F 2051 12-02-2009 02:23:27 1.1 C 4.13 g/m*3 1.1 C 0 km/h
2052 12-02-2009 02:35:27 1.1 C 4.13 g/m*3 1.1 C 0 km/h
2053 12-02-2009 02:47:27 1.1 C 4.13 g/m*3 1.1 C 0 km/h
2054 12-02-2009 02:59:27 0.8 C 4.15 g/m*3 0.8 C 0 km/h
2055 12-02-2009 03:11:27 0.8 C 4.2 g/m*3 0.8 C 0 km/h
2056 12-02-2009 03:23:27 0.8 C 4.3 g/m*3 0.8 C 0 km/h
2057 12-02-2009 03:35:27 0.8 C 4.3 g/m*3 0.8 C 0 km/h
2058 12-02-2009 03:47:27 1 C 4.2 g/m*3 1 C 0 km/h
2059 12-02-2009 03:59:27 1 C 4 g/m*3 1 C 0 km/h
2060 12-02-2009 04:11:27 0.6 C 3.84 g/m*3 0.6 C 0 km/h
2061 12-02-2009 04:23:27 0.5 C 3.81 g/m*3 0.5 C 0 km/h
2062 12-02-2009 04:35:28 0.2 C 3.73 g/m*3 0.2 C 0 km/h
2063 12-02-2009 04:47:28 -0.1 C 3.61 g/m*3 -0.1 C 0 km/h
2064 12-02-2009 04:59:28 -0.4 C 3.58 g/m*3 -0.4 C 0 km/h
2065 12-02-2009 05:11:28 -0.5 C 3.51 g/m*3 -0.5 C 0 km/h
2066 12-02-2009 05:23:28 -0.6 C 3.49 g/m*3 -0.6 C 0 km/h
2067 12-02-2009 05:35:28 -0.8 C 3.44 g/m*3 -0.8 C 0 km/h
2068 12-02-2009 05:47:28 -0.7 C 3.46 g/m*3 -0.7 C 0 km/h
2069 12-02-2009 05:59:28 -0.7 C 3.46 g/m*3 -0.7 C 0 km/h
2070 12-02-2009 06:11:28 -0.5 C 3.42 g/m*3 -0.5 C 0 km/h
2071 12-02-2009 06:23:28 -0.5 C 3.42 g/m*3 -0.5 C 0 km/h
2072 12-02-2009 06:35:28 -0.4 C 3.44 g/m*3 -0.4 C 0 km/h
2073 12-02-2009 06:47:26 -0.3 C 3.46 g/m*3 -0.3 C 0 km/h
2074 12-02-2009 06:59:26 -0.4 C 3.44 g/m*3 -0.4 C 0 km/h
2075 12-02-2009 07:11:25 -0.3 C 3.56 g/m*3 -0.3 C 0 km/h
Sensor: Nr:Datum:Temp:Abs-Feuchte:Windchill:Wind:
Aussen-T/F 2076 12-02-2009 07:23:25 -0.2 C 3.63 g/m*3 -0.2 C 0 km/h
2077 12-02-2009 07:35:24 -0.2 C 3.63 g/m*3 -0.2 C 0 km/h
2078 12-02-2009 07:47:25 -0.2 C 3.54 g/m*3 -0.2 C 0 km/h
2079 12-02-2009 07:59:25 -0.1 C 3.61 g/m*3 -0.1 C 0 km/h
2080 12-02-2009 08:11:24 0 C 3.63 g/m*3 0 C 0 km/h
2081 12-02-2009 08:23:24 0.1 C 3.66 g/m*3 0.1 C 0 km/h
2082 12-02-2009 08:35:25 0.1 C 3.61 g/m*3 0.1 C 0 km/h
2083 12-02-2009 08:47:24 0.1 C 3.61 g/m*3 0.1 C 0 km/h
2084 12-02-2009 08:59:24 0.2 C 3.64 g/m*3 0.2 C 0 km/h
2085 12-02-2009 09:11:24 0.4 C 3.64 g/m*3 0.4 C 0 km/h
2086 12-02-2009 09:23:24 0.4 C 3.69 g/m*3 0.4 C 0 km/h
2087 12-02-2009 09:35:24 0.6 C 3.74 g/m*3 0.6 C 0 km/h
2088 12-02-2009 09:47:23 0.8 C 3.84 g/m*3 0.8 C 0 km/h
2089 12-02-2009 09:59:23 1 C 3.79 g/m*3 1 C 0 km/h
2090 12-02-2009 10:11:23 0.9 C 3.81 g/m*3 0.9 C 0 km/h
2091 12-02-2009 10:23:23 1 C 3.84 g/m*3 1 C 0 km/h
2092 12-02-2009 10:35:23 1.3 C 3.76 g/m*3 1.3 C 0 km/h
2093 12-02-2009 10:47:22 1.4 C 3.73 g/m*3 1.4 C 0 km/h
2094 12-02-2009 10:59:22 1.6 C 3.68 g/m*3 1.6 C 0 km/h
2095 12-02-2009 11:11:23 1.8 C 3.62 g/m*3 1.8 C 0 km/h
2096 12-02-2009 11:23:23 2.1 C 3.64 g/m*3 2.1 C 0 km/h
2097 12-02-2009 11:35:22 1.7 C 3.59 g/m*3 1.7 C 0 km/h
2098 12-02-2009 11:47:23 1.6 C 3.68 g/m*3 1.6 C 0 km/h
2099 12-02-2009 11:59:23 2 C 3.5 g/m*3 2 C 0 km/h
2100 12-02-2009 12:11:22 2.4 C 3.25 g/m*3 2.4 C 0 km/h
Sensor: Nr:Datum:Temp:Abs-Feuchte:Windchill:Wind:
Aussen-T/F 2101 12-02-2009 12:23:22 2.5 C 3.39 g/m*3 2.5 C 0 km/h
2102 12-02-2009 12:35:21 2.6 C 3.53 g/m*3 2.6 C 0 km/h
2103 12-02-2009 12:47:22 2.9 C 3.37 g/m*3 2.9 C 0 km/h
2104 12-02-2009 12:59:22 3 C 3.57 g/m*3 3 C 0 km/h
2105 12-02-2009 13:11:21 3.6 C 3.59 g/m*3 3.6 C 0 km/h
2106 12-02-2009 13:23:21 3.6 C 3.47 g/m*3 3.6 C 0 km/h
2107 12-02-2009 13:35:22 2.7 C 3.38 g/m*3 2.7 C 0 km/h
2108 12-02-2009 13:47:21 1.4 C 3.63 g/m*3 1.4 C 0 km/h
2109 12-02-2009 13:59:21 1 C 3.89 g/m*3 1 C 0 km/h
2110 12-02-2009 14:11:21 0.9 C 4.07 g/m*3 0.9 C 0 km/h
2111 12-02-2009 14:23:21 1.9 C 4.36 g/m*3 1.9 C 0 km/h
2112 12-02-2009 14:35:21 2.1 C 4.14 g/m*3 2.1 C 0 km/h
2113 12-02-2009 14:47:20 2.5 C 4.14 g/m*3 2.5 C 0 km/h
2114 12-02-2009 14:59:20 2.4 C 4.05 g/m*3 2.4 C 0 km/h
2115 12-02-2009 15:11:21 2.2 C 3.94 g/m*3 2.2 C 0 km/h
2116 12-02-2009 15:23:21 1.8 C 3.95 g/m*3 1.8 C 0 km/h
2117 12-02-2009 15:35:20 2.6 C 4.17 g/m*3 2.6 C 0 km/h
2118 12-02-2009 15:47:20 2.7 C 3.96 g/m*3 2.7 C 0 km/h
2119 12-02-2009 15:59:20 2.6 C 3.88 g/m*3 2.6 C 0 km/h
2120 12-02-2009 16:11:20 3.2 C 3.8 g/m*3 3.2 C 0 km/h
2121 12-02-2009 16:23:20 3.1 C 3.65 g/m*3 3.1 C 0 km/h
2122 12-02-2009 16:35:19 2.8 C 3.64 g/m*3 2.8 C 0 km/h
2123 12-02-2009 16:47:20 2.3 C 3.63 g/m*3 2.3 C 0 km/h
2124 12-02-2009 16:59:20 1.2 C 3.74 g/m*3 1.2 C 0 km/h
2125 12-02-2009 17:11:19 0.9 C 3.92 g/m*3 0.9 C 0 km/h
Sensor: Nr:Datum:Temp:Abs-Feuchte:Windchill:Wind:
Aussen-T/F 2126 12-02-2009 17:23:19 0.8 C 3.99 g/m*3 0.8 C 0 km/h
2127 12-02-2009 17:35:19 0.6 C 4.04 g/m*3 0.6 C 0 km/h
2128 12-02-2009 17:47:19 0.3 C 4.06 g/m*3 0.3 C 0 km/h
2129 12-02-2009 17:59:19 0.2 C 4.13 g/m*3 0.2 C 0 km/h
2130 12-02-2009 18:11:19 0.1 C 4.15 g/m*3 0.1 C 0 km/h
2131 12-02-2009 18:23:18 0.1 C 4.15 g/m*3 0.1 C 0 km/h
2132 12-02-2009 18:35:19 0.1 C 4.15 g/m*3 0.1 C 0 km/h
2133 12-02-2009 18:47:18 0 C 4.12 g/m*3 0 C 0 km/h
2134 12-02-2009 18:59:18 0 C 4.17 g/m*3 0 C 0 km/h
2135 12-02-2009 19:11:18 0.1 C 4.2 g/m*3 0.1 C 0 km/h
2136 12-02-2009 19:23:18 0.1 C 4.2 g/m*3 0.1 C 0 km/h
2137 12-02-2009 19:35:18 0.2 C 4.27 g/m*3 0.2 C 0 km/h
2138 12-02-2009 19:47:17 0.1 C 4.24 g/m*3 0.1 C 0 km/h
2139 12-02-2009 19:59:17 -0.2 C 4.16 g/m*3 -0.2 C 0 km/h
2140 12-02-2009 20:11:18 -0.3 C 4.13 g/m*3 -0.3 C 0 km/h
2141 12-02-2009 20:23:18 -0.4 C 4.1 g/m*3 -0.4 C 0 km/h
2142 12-02-2009 20:35:17 -0.6 C 4.04 g/m*3 -0.6 C 0 km/h
2143 12-02-2009 20:47:18 -0.5 C 4.03 g/m*3 -0.5 C 0 km/h
2144 12-02-2009 20:59:18 -0.4 C 4.05 g/m*3 -0.4 C 0 km/h
2145 12-02-2009 21:11:17 -0.5 C 4.03 g/m*3 -0.5 C 0 km/h
2146 12-02-2009 21:23:17 -0.6 C 4 g/m*3 -0.6 C 0 km/h
2147 12-02-2009 21:35:16 -0.7 C 3.97 g/m*3 -0.7 C 0 km/h
2148 12-02-2009 21:47:17 -0.7 C 3.97 g/m*3 -0.7 C 0 km/h
2149 12-02-2009 21:59:17 -0.6 C 4.04 g/m*3 -0.6 C 0 km/h
2150 12-02-2009 22:11:16 -0.6 C 4.04 g/m*3 -0.6 C 0 km/h
Sensor: Nr:Datum:Temp:Abs-Feuchte:Windchill:Wind:
Aussen-T/F 2151 12-02-2009 22:23:16 -0.5 C 4.07 g/m*3 -0.5 C 0 km/h
2152 12-02-2009 22:36:17 -0.7 C 4.02 g/m*3 -0.7 C 0 km/h
2153 12-02-2009 22:48:17 -1 C 3.93 g/m*3 -1 C 0 km/h
2154 12-02-2009 23:00:17 -1.3 C 3.81 g/m*3 -1.3 C 0 km/h
2155 12-02-2009 23:12:17 -1.5 C 3.8 g/m*3 -1.5 C 0 km/h
2156 12-02-2009 23:24:17 -1.6 C 3.77 g/m*3 -1.6 C 0 km/h
2157 12-02-2009 23:36:17 -1.5 C 3.8 g/m*3 -1.5 C 0 km/h
2158 12-02-2009 23:48:17 -1.5 C 3.84 g/m*3 -1.5 C 0 km/h
2159 13-02-2009 00:00:17 -1.5 C 3.84 g/m*3 -1.5 C 0 km/h
2160 13-02-2009 00:12:17 -1.6 C 3.81 g/m*3 -1.6 C 0 km/h
2161 13-02-2009 00:24:17 -1.2 C 3.97 g/m*3 -1.2 C 0 km/h
2162 13-02-2009 00:36:17 -1.1 C 4 g/m*3 -1.1 C 0 km/h
2163 13-02-2009 00:48:18 -1 C 4.02 g/m*3 -1 C 0 km/h
2164 13-02-2009 01:00:18 -0.9 C 4.05 g/m*3 -0.9 C 0 km/h
2165 13-02-2009 01:12:18 -0.7 C 4.11 g/m*3 -0.7 C 0 km/h
2166 13-02-2009 01:24:18 -0.5 C 4.17 g/m*3 -0.5 C 0 km/h
2167 13-02-2009 01:36:18 -0.4 C 4.19 g/m*3 -0.4 C 0 km/h
2168 13-02-2009 01:48:18 -0.4 C 4.19 g/m*3 -0.4 C 0 km/h
2169 13-02-2009 02:00:18 -0.4 C 4.19 g/m*3 -0.4 C 0 km/h
2170 13-02-2009 02:12:18 -0.3 C 4.22 g/m*3 -0.3 C 0 km/h
2171 13-02-2009 02:24:18 -0.3 C 4.22 g/m*3 -0.3 C 0 km/h
2172 13-02-2009 02:36:18 -0.3 C 4.22 g/m*3 -0.3 C 0 km/h
2173 13-02-2009 02:48:18 -0.2 C 4.25 g/m*3 -0.2 C 0 km/h
2174 13-02-2009 03:00:18 -0.3 C 4.18 g/m*3 -0.3 C 0 km/h
2175 13-02-2009 03:12:18 -0.3 C 4.18 g/m*3 -0.3 C 0 km/h
Sensor: Nr:Datum:Temp:Abs-Feuchte:Windchill:Wind:
Aussen-T/F 2176 13-02-2009 03:24:18 -0.3 C 4.18 g/m*3 -0.3 C 0 km/h
2177 13-02-2009 03:36:18 -0.3 C 4.18 g/m*3 -0.3 C 0 km/h
2178 13-02-2009 03:48:18 -0.3 C 4.18 g/m*3 -0.3 C 0 km/h
2179 13-02-2009 04:00:18 -0.3 C 4.18 g/m*3 -0.3 C 0 km/h
2180 13-02-2009 04:12:18 -0.3 C 4.18 g/m*3 -0.3 C 0 km/h
2181 13-02-2009 04:24:18 -0.4 C 4.1 g/m*3 -0.4 C 0 km/h
2182 13-02-2009 04:36:19 -0.4 C 4.1 g/m*3 -0.4 C 0 km/h
2183 13-02-2009 04:48:19 -0.4 C 4.1 g/m*3 -0.4 C 0 km/h
2184 13-02-2009 05:00:19 -0.4 C 4.1 g/m*3 -0.4 C 0 km/h
2185 13-02-2009 05:12:19 -0.5 C 4.03 g/m*3 -0.5 C 0 km/h
2186 13-02-2009 05:24:19 -0.6 C 4 g/m*3 -0.6 C 0 km/h
2187 13-02-2009 05:36:19 -0.6 C 3.95 g/m*3 -0.6 C 0 km/h
2188 13-02-2009 05:48:19 -0.5 C 3.98 g/m*3 -0.5 C 0 km/h
2189 13-02-2009 06:00:19 -0.4 C 3.96 g/m*3 -0.4 C 0 km/h
2190 13-02-2009 06:12:19 -0.4 C 3.96 g/m*3 -0.4 C 0 km/h
2191 13-02-2009 06:24:19 -0.3 C 3.94 g/m*3 -0.3 C 0 km/h
2192 13-02-2009 06:36:19 -0.4 C 3.91 g/m*3 -0.4 C 0 km/h
2193 13-02-2009 06:48:19 -0.4 C 3.86 g/m*3 -0.4 C 0 km/h
2194 13-02-2009 07:00:08 -0.4 C 3.86 g/m*3 -0.4 C 0 km/h
2195 13-02-2009 07:12:17 -0.5 C 3.84 g/m*3 -0.5 C 0 km/h
2196 13-02-2009 07:24:18 -0.5 C 3.84 g/m*3 -0.5 C 0 km/h
2197 13-02-2009 07:36:17 -0.5 C 3.88 g/m*3 -0.5 C 0 km/h
2198 13-02-2009 07:48:17 -0.5 C 3.84 g/m*3 -0.5 C 0 km/h
2199 13-02-2009 08:00:16 -0.5 C 3.84 g/m*3 -0.5 C 0 km/h
2200 13-02-2009 08:12:16 -0.5 C 3.84 g/m*3 -0.5 C 0 km/h
Sensor: Nr:Datum:Temp:Abs-Feuchte:Windchill:Wind:
Aussen-T/F 2201 13-02-2009 08:24:17 -0.5 C 3.84 g/m*3 -0.5 C 0 km/h
2202 13-02-2009 08:36:16 -0.5 C 3.84 g/m*3 -0.5 C 0 km/h
2203 13-02-2009 08:48:16 -0.4 C 3.86 g/m*3 -0.4 C 0 km/h
2204 13-02-2009 09:00:16 -0.4 C 3.86 g/m*3 -0.4 C 0 km/h
2205 13-02-2009 09:12:16 -0.3 C 3.84 g/m*3 -0.3 C 0 km/h
2206 13-02-2009 09:24:16 -0.1 C 3.9 g/m*3 -0.1 C 0 km/h
2207 13-02-2009 09:36:16 0.1 C 3.9 g/m*3 0.1 C 0 km/h
2208 13-02-2009 09:48:16 0.1 C 3.9 g/m*3 0.1 C 0 km/h
2209 13-02-2009 10:00:15 0.1 C 3.85 g/m*3 0.1 C 0 km/h
2210 13-02-2009 10:12:15 0.2 C 3.88 g/m*3 0.2 C 0 km/h
2211 13-02-2009 10:24:16 0.4 C 3.93 g/m*3 0.4 C 0 km/h
2212 13-02-2009 10:36:15 0.4 C 3.88 g/m*3 0.4 C 0 km/h
2213 13-02-2009 10:48:15 0.5 C 3.91 g/m*3 0.5 C 0 km/h
2214 13-02-2009 11:00:15 0.6 C 3.94 g/m*3 0.6 C 0 km/h
2215 13-02-2009 11:12:15 0.7 C 3.97 g/m*3 0.7 C 0 km/h
2216 13-02-2009 11:24:15 0.9 C 4.02 g/m*3 0.9 C 0 km/h
2217 13-02-2009 11:36:15 1.1 C 4.02 g/m*3 1.1 C 0 km/h
2218 13-02-2009 11:48:15 1.2 C 4 g/m*3 1.2 C 0 km/h
2219 13-02-2009 12:00:15 1.3 C 4.08 g/m*3 1.3 C 0 km/h
2220 13-02-2009 12:12:15 1.4 C 4.11 g/m*3 1.4 C 0 km/h
2221 13-02-2009 12:24:14 1.6 C 4.11 g/m*3 1.6 C 0 km/h
2222 13-02-2009 12:36:14 1.8 C 4.11 g/m*3 1.8 C 0 km/h
2223 13-02-2009 12:48:14 1.8 C 4.06 g/m*3 1.8 C 0 km/h
2224 13-02-2009 13:00:14 1.8 C 4.11 g/m*3 1.8 C 0 km/h
2225 13-02-2009 13:12:14 1.7 C 4.14 g/m*3 1.7 C 0 km/h
Sensor: Nr:Datum:Temp:Abs-Feuchte:Windchill:Wind:
Aussen-T/F 2226 13-02-2009 13:24:13 1.5 C 4.19 g/m*3 1.5 C 0 km/h
2227 13-02-2009 13:36:14 1.7 C 4.3 g/m*3 1.7 C 0 km/h
2228 13-02-2009 13:48:13 1.8 C 4.28 g/m*3 1.8 C 0 km/h
2229 13-02-2009 14:00:13 2.1 C 4.25 g/m*3 2.1 C 0 km/h
2230 13-02-2009 14:12:13 2.3 C 4.25 g/m*3 2.3 C 0 km/h
2231 13-02-2009 14:24:14 2.3 C 4.25 g/m*3 2.3 C 0 km/h
2232 13-02-2009 14:36:13 2.3 C 4.25 g/m*3 2.3 C 0 km/h
2233 13-02-2009 14:48:13 2.4 C 4.28 g/m*3 2.4 C 0 km/h
2234 13-02-2009 15:00:12 2.2 C 4.28 g/m*3 2.2 C 0 km/h
2235 13-02-2009 15:12:12 2.2 C 4.34 g/m*3 2.2 C 0 km/h
2236 13-02-2009 15:24:13 2 C 4.28 g/m*3 2 C 0 km/h
2237 13-02-2009 15:36:12 2 C 4.39 g/m*3 2 C 0 km/h
2238 13-02-2009 15:48:12 2 C 4.39 g/m*3 2 C 0 km/h
2239 13-02-2009 16:00:12 1.8 C 4.33 g/m*3 1.8 C 0 km/h
2240 13-02-2009 16:12:12 1.7 C 4.3 g/m*3 1.7 C 0 km/h
2241 13-02-2009 16:24:12 1.7 C 4.3 g/m*3 1.7 C 0 km/h
2242 13-02-2009 16:36:12 1.5 C 4.24 g/m*3 1.5 C 0 km/h
2243 13-02-2009 16:48:12 1.4 C 4.27 g/m*3 1.4 C 0 km/h
2244 13-02-2009 17:00:12 1.4 C 4.32 g/m*3 1.4 C 0 km/h
2245 13-02-2009 17:12:12 1.4 C 4.27 g/m*3 1.4 C 0 km/h
2246 13-02-2009 17:24:11 1.4 C 4.27 g/m*3 1.4 C 0 km/h
2247 13-02-2009 17:36:12 1.2 C 4.16 g/m*3 1.2 C 0 km/h
2248 13-02-2009 17:48:11 1.2 C 4.16 g/m*3 1.2 C 0 km/h
2249 13-02-2009 18:00:11 1.2 C 4.1 g/m*3 1.2 C 0 km/h
2250 13-02-2009 18:12:11 1.2 C 4.05 g/m*3 1.2 C 0 km/h
Sensor: Nr:Datum:Temp:Abs-Feuchte:Windchill:Wind:
Aussen-T/F 2251 13-02-2009 18:24:11 1.2 C 4.05 g/m*3 1.2 C 0 km/h
2252 13-02-2009 18:36:11 1.2 C 4 g/m*3 1.2 C 0 km/h
2253 13-02-2009 18:48:10 1.3 C 3.92 g/m*3 1.3 C 0 km/h
2254 13-02-2009 19:00:10 1.4 C 3.84 g/m*3 1.4 C 0 km/h
2255 13-02-2009 19:12:10 1.4 C 3.84 g/m*3 1.4 C 0 km/h
2256 13-02-2009 19:24:11 1.2 C 3.74 g/m*3 1.2 C 0 km/h
2257 13-02-2009 19:36:10 1.3 C 3.66 g/m*3 1.3 C 0 km/h
2258 13-02-2009 19:48:10 1.2 C 3.58 g/m*3 1.2 C 0 km/h
2259 13-02-2009 20:00:10 1.2 C 3.58 g/m*3 1.2 C 0 km/h
2260 13-02-2009 20:12:10 1.1 C 3.61 g/m*3 1.1 C 0 km/h
2261 13-02-2009 20:24:10 1 C 3.63 g/m*3 1 C 0 km/h
2262 13-02-2009 20:36:10 1 C 3.74 g/m*3 1 C 0 km/h
2263 13-02-2009 20:48:09 0.9 C 3.81 g/m*3 0.9 C 0 km/h
2264 13-02-2009 21:00:09 0.9 C 3.76 g/m*3 0.9 C 0 km/h
2265 13-02-2009 21:12:09 1 C 3.74 g/m*3 1 C 0 km/h
2266 13-02-2009 21:24:09 0.9 C 3.81 g/m*3 0.9 C 0 km/h
2267 13-02-2009 21:36:09 0.7 C 3.97 g/m*3 0.7 C 0 km/h
2268 13-02-2009 21:48:08 0.6 C 4.04 g/m*3 0.6 C 0 km/h
2269 13-02-2009 22:01:09 0.6 C 4.09 g/m*3 0.6 C 0 km/h
2270 13-02-2009 22:13:09 0.6 C 4.14 g/m*3 0.6 C 0 km/h
2271 13-02-2009 22:25:09 0.4 C 4.13 g/m*3 0.4 C 0 km/h
2272 13-02-2009 22:37:09 0.4 C 4.23 g/m*3 0.4 C 0 km/h
2273 13-02-2009 22:49:09 0.4 C 4.23 g/m*3 0.4 C 0 km/h
2274 13-02-2009 23:01:10 0.4 C 4.28 g/m*3 0.4 C 0 km/h
2275 13-02-2009 23:13:10 0.4 C 4.28 g/m*3 0.4 C 0 km/h
Sensor: Nr:Datum:Temp:Abs-Feuchte:Windchill:Wind:
Aussen-T/F 2276 13-02-2009 23:25:10 0.4 C 4.28 g/m*3 0.4 C 0 km/h
2277 13-02-2009 23:37:10 0.5 C 4.31 g/m*3 0.5 C 0 km/h
2278 13-02-2009 23:49:10 0.6 C 4.29 g/m*3 0.6 C 0 km/h
2279 14-02-2009 00:01:10 0.4 C 4.18 g/m*3 0.4 C 0 km/h
2280 14-02-2009 00:13:10 0.4 C 4.18 g/m*3 0.4 C 0 km/h
2281 14-02-2009 00:25:10 0.5 C 4.21 g/m*3 0.5 C 0 km/h
2282 14-02-2009 00:37:10 0.6 C 4.19 g/m*3 0.6 C 0 km/h
2283 14-02-2009 00:49:10 0.5 C 4.16 g/m*3 0.5 C 0 km/h
2284 14-02-2009 01:01:10 0.5 C 4.16 g/m*3 0.5 C 0 km/h
2285 14-02-2009 01:13:10 0.5 C 4.16 g/m*3 0.5 C 0 km/h
2286 14-02-2009 01:25:10 0.4 C 4.13 g/m*3 0.4 C 0 km/h
2287 14-02-2009 01:37:10 0.5 C 4.11 g/m*3 0.5 C 0 km/h
2288 14-02-2009 01:49:10 0.5 C 4.06 g/m*3 0.5 C 0 km/h
2289 14-02-2009 02:01:10 0.6 C 4.04 g/m*3 0.6 C 0 km/h
2290 14-02-2009 02:13:10 0.5 C 3.96 g/m*3 0.5 C 0 km/h
2291 14-02-2009 02:25:10 0.3 C 4.01 g/m*3 0.3 C 0 km/h
2292 14-02-2009 02:37:10 0.2 C 4.08 g/m*3 0.2 C 0 km/h
2293 14-02-2009 02:49:11 0.2 C 4.18 g/m*3 0.2 C 0 km/h
2294 14-02-2009 03:01:11 0.2 C 4.18 g/m*3 0.2 C 0 km/h
2295 14-02-2009 03:13:11 0.3 C 4.2 g/m*3 0.3 C 0 km/h
2296 14-02-2009 03:25:11 0.2 C 4.18 g/m*3 0.2 C 0 km/h
2297 14-02-2009 03:37:11 0.1 C 4.15 g/m*3 0.1 C 0 km/h
2298 14-02-2009 03:49:11 0.1 C 4.2 g/m*3 0.1 C 0 km/h
2299 14-02-2009 04:01:11 0.2 C 4.22 g/m*3 0.2 C 0 km/h
2300 14-02-2009 04:13:11 0.2 C 4.27 g/m*3 0.2 C 0 km/h
Sensor: Nr:Datum:Temp:Abs-Feuchte:Windchill:Wind:
Aussen-T/F 2301 14-02-2009 04:25:11 0.2 C 4.27 g/m*3 0.2 C 0 km/h
2302 14-02-2009 04:37:11 0.2 C 4.32 g/m*3 0.2 C 0 km/h
2303 14-02-2009 04:49:11 0.2 C 4.32 g/m*3 0.2 C 0 km/h
2304 14-02-2009 05:01:11 0.2 C 4.32 g/m*3 0.2 C 0 km/h
2305 14-02-2009 05:13:11 0.1 C 4.29 g/m*3 0.1 C 0 km/h
2306 14-02-2009 05:25:11 0.2 C 4.32 g/m*3 0.2 C 0 km/h
2307 14-02-2009 05:37:11 0.2 C 4.32 g/m*3 0.2 C 0 km/h
2308 14-02-2009 05:49:11 0.2 C 4.32 g/m*3 0.2 C 0 km/h
2309 14-02-2009 06:01:11 0.2 C 4.32 g/m*3 0.2 C 0 km/h
2310 14-02-2009 06:13:11 0.2 C 4.27 g/m*3 0.2 C 0 km/h
2311 14-02-2009 06:25:11 0.2 C 4.27 g/m*3 0.2 C 0 km/h
2312 14-02-2009 06:37:12 0.2 C 4.22 g/m*3 0.2 C 0 km/h
2313 14-02-2009 06:49:12 0.2 C 4.22 g/m*3 0.2 C 0 km/h
2314 14-02-2009 07:01:12 0.2 C 4.22 g/m*3 0.2 C 0 km/h
2315 14-02-2009 07:13:12 0.1 C 4.2 g/m*3 0.1 C 0 km/h
2316 14-02-2009 07:25:12 0.1 C 4.2 g/m*3 0.1 C 0 km/h
2317 14-02-2009 07:37:12 0.2 C 4.22 g/m*3 0.2 C 0 km/h
2318 14-02-2009 07:49:10 0.3 C 4.25 g/m*3 0.3 C 0 km/h
2319 14-02-2009 08:01:09 0.4 C 4.23 g/m*3 0.4 C 0 km/h
2320 14-02-2009 08:13:09 0.5 C 4.16 g/m*3 0.5 C 0 km/h
2321 14-02-2009 08:25:09 0.4 C 4.08 g/m*3 0.4 C 0 km/h
2322 14-02-2009 08:37:09 0.3 C 3.96 g/m*3 0.3 C 0 km/h
2323 14-02-2009 08:49:09 0.2 C 3.88 g/m*3 0.2 C 0 km/h
2324 14-02-2009 09:01:08 0.2 C 3.83 g/m*3 0.2 C 0 km/h
2325 14-02-2009 09:13:08 0.2 C 3.83 g/m*3 0.2 C 0 km/h
Sensor: Nr:Datum:Temp:Abs-Feuchte:Windchill:Wind:
Aussen-T/F 2326 14-02-2009 09:25:08 0.4 C 3.88 g/m*3 0.4 C 0 km/h
2327 14-02-2009 09:37:09 0.3 C 3.86 g/m*3 0.3 C 0 km/h
2328 14-02-2009 09:49:08 0.3 C 3.86 g/m*3 0.3 C 0 km/h
2329 14-02-2009 10:01:08 0.4 C 3.84 g/m*3 0.4 C 0 km/h
2330 14-02-2009 10:13:08 0.2 C 3.68 g/m*3 0.2 C 0 km/h
2331 14-02-2009 10:25:08 0.1 C 3.61 g/m*3 0.1 C 0 km/h
2332 14-02-2009 10:37:08 0.3 C 3.56 g/m*3 0.3 C 0 km/h
2333 14-02-2009 10:49:07 0.6 C 3.53 g/m*3 0.6 C 0 km/h
2334 14-02-2009 11:01:08 0.8 C 3.38 g/m*3 0.8 C 0 km/h
2335 14-02-2009 11:13:08 0.6 C 3.38 g/m*3 0.6 C 0 km/h
2336 14-02-2009 11:25:07 0.9 C 3.45 g/m*3 0.9 C 0 km/h
2337 14-02-2009 11:37:07 0.8 C 3.28 g/m*3 0.8 C 0 km/h
2338 14-02-2009 11:49:07 0.8 C 3.23 g/m*3 0.8 C 0 km/h
2339 14-02-2009 12:01:07 0.9 C 3.14 g/m*3 0.9 C 0 km/h
2340 14-02-2009 12:13:07 0.9 C 3.2 g/m*3 0.9 C 0 km/h
2341 14-02-2009 12:25:07 1.4 C 3.15 g/m*3 1.4 C 0 km/h
2342 14-02-2009 12:37:06 1.5 C 3.06 g/m*3 1.5 C 0 km/h
2343 14-02-2009 12:49:07 2 C 3.06 g/m*3 2 C 0 km/h
2344 14-02-2009 13:01:06 1.8 C 2.85 g/m*3 1.8 C 0 km/h
2345 14-02-2009 13:13:06 2.4 C 2.91 g/m*3 2.4 C 0 km/h
2346 14-02-2009 13:25:06 2.6 C 2.84 g/m*3 2.6 C 0 km/h
2347 14-02-2009 13:37:06 2.9 C 2.72 g/m*3 2.9 C 0 km/h
2348 14-02-2009 13:49:06 3.1 C 2.63 g/m*3 3.1 C 0 km/h
2349 14-02-2009 14:01:05 3.4 C 2.57 g/m*3 3.4 C 0 km/h
2350 14-02-2009 14:13:05 3.7 C 2.55 g/m*3 3.7 C 0 km/h
Sensor: Nr:Datum:Temp:Abs-Feuchte:Windchill:Wind:
Aussen-T/F 2351 14-02-2009 14:25:06 3.7 C 2.62 g/m*3 3.7 C 0 km/h
2352 14-02-2009 14:37:06 3.8 C 2.7 g/m*3 3.8 C 0 km/h
2353 14-02-2009 14:49:05 3.6 C 2.72 g/m*3 3.6 C 0 km/h
2354 14-02-2009 15:01:06 4.1 C 2.69 g/m*3 4.1 C 0 km/h
2355 14-02-2009 15:13:06 4.2 C 2.58 g/m*3 4.2 C 0 km/h
2356 14-02-2009 15:25:05 3.6 C 2.66 g/m*3 3.6 C 0 km/h
2357 14-02-2009 15:37:05 3.3 C 2.67 g/m*3 3.3 C 0 km/h
2358 14-02-2009 15:49:05 2.9 C 2.66 g/m*3 2.9 C 0 km/h
2359 14-02-2009 16:01:05 2.9 C 2.66 g/m*3 2.9 C 0 km/h
2360 14-02-2009 16:13:05 3.2 C 2.65 g/m*3 3.2 C 0 km/h
2361 14-02-2009 16:25:04 3.3 C 2.49 g/m*3 3.3 C 0 km/h
2362 14-02-2009 16:37:04 3.9 C 2.65 g/m*3 3.9 C 0 km/h
2363 14-02-2009 16:49:04 3.9 C 2.46 g/m*3 3.9 C 0 km/h
2364 14-02-2009 17:01:04 3.3 C 2.43 g/m*3 3.3 C 0 km/h
2365 14-02-2009 17:13:04 2.6 C 2.55 g/m*3 2.6 C 0 km/h
2366 14-02-2009 17:25:04 2.2 C 2.59 g/m*3 2.2 C 0 km/h
2367 14-02-2009 17:37:04 1.5 C 2.52 g/m*3 1.5 C 0 km/h
2368 14-02-2009 17:49:04 0.8 C 2.51 g/m*3 0.8 C 0 km/h
2369 14-02-2009 18:01:03 0.4 C 2.59 g/m*3 0.4 C 0 km/h
2370 14-02-2009 18:13:03 0.2 C 2.55 g/m*3 0.2 C 0 km/h
2371 14-02-2009 18:25:04 0.2 C 2.46 g/m*3 0.2 C 0 km/h
2372 14-02-2009 18:37:03 -0.1 C 2.41 g/m*3 -0.1 C 0 km/h
2373 14-02-2009 18:49:03 -0.3 C 2.42 g/m*3 -0.3 C 0 km/h
2374 14-02-2009 19:01:03 -0.3 C 2.42 g/m*3 -0.3 C 0 km/h
2375 14-02-2009 19:13:03 -0.8 C 2.48 g/m*3 -0.8 C 0 km/h
Sensor: Nr:Datum:Temp:Abs-Feuchte:Windchill:Wind:
Aussen-T/F 2376 14-02-2009 19:25:03 -0.9 C 2.55 g/m*3 -0.9 C 0 km/h
2377 14-02-2009 19:37:03 -1 C 2.67 g/m*3 -1 C 0 km/h
2378 14-02-2009 19:49:03 -1.2 C 2.67 g/m*3 -1.2 C 0 km/h
2379 14-02-2009 20:01:03 -1.3 C 2.74 g/m*3 -1.3 C 0 km/h
2380 14-02-2009 20:13:03 -1.4 C 2.77 g/m*3 -1.4 C 0 km/h
2381 14-02-2009 20:25:02 -1.6 C 2.77 g/m*3 -1.6 C 0 km/h
2382 14-02-2009 20:37:02 -1.8 C 2.78 g/m*3 -1.8 C 0 km/h
2383 14-02-2009 20:49:02 -2 C 2.78 g/m*3 -2 C 0 km/h
2384 14-02-2009 21:01:01 -2.1 C 2.76 g/m*3 -2.1 C 0 km/h
2385 14-02-2009 21:13:01 -2.3 C 2.72 g/m*3 -2.3 C 0 km/h
2386 14-02-2009 21:25:02 -2.4 C 2.75 g/m*3 -2.4 C 0 km/h
2387 14-02-2009 21:37:02 -2.6 C 2.75 g/m*3 -2.6 C 0 km/h
2388 14-02-2009 21:49:01 -2.3 C 2.89 g/m*3 -2.3 C 0 km/h
2389 14-02-2009 22:01:02 -2.2 C 2.91 g/m*3 -2.2 C 0 km/h
2390 14-02-2009 22:13:02 -2.3 C 2.89 g/m*3 -2.3 C 0 km/h
2391 14-02-2009 22:25:01 -2.4 C 2.87 g/m*3 -2.4 C 0 km/h
2392 14-02-2009 22:37:01 -2.3 C 2.93 g/m*3 -2.3 C 0 km/h
2393 14-02-2009 22:49:01 -2.3 C 2.89 g/m*3 -2.3 C 0 km/h
2394 14-02-2009 23:01:01 -2.2 C 2.91 g/m*3 -2.2 C 0 km/h
2395 14-02-2009 23:13:02 -2.5 C 2.85 g/m*3 -2.5 C 0 km/h
2396 14-02-2009 23:25:00 -2.6 C 2.83 g/m*3 -2.6 C 0 km/h
2397 14-02-2009 23:37:00 -2.8 C 2.83 g/m*3 -2.8 C 0 km/h
2398 14-02-2009 23:49:00 -2.9 C 2.81 g/m*3 -2.9 C 0 km/h
2399 15-02-2009 00:01:00 -2.9 C 2.85 g/m*3 -2.9 C 0 km/h
2400 15-02-2009 00:13:00 -3.1 C 2.81 g/m*3 -3.1 C 0 km/h
Sensor: Nr:Datum:Temp:Abs-Feuchte:Windchill:Wind:
Aussen-T/F 2401 15-02-2009 00:25:00 -3.3 C 2.77 g/m*3 -3.3 C 0 km/h
2402 15-02-2009 00:37:00 -3.5 C 2.73 g/m*3 -3.5 C 0 km/h
2403 15-02-2009 00:49:59 -3.5 C 2.77 g/m*3 -3.5 C 0 km/h
2404 15-02-2009 01:12:59 -3.6 C 2.79 g/m*3 -3.6 C 0 km/h
2405 15-02-2009 01:13:00 -3.7 C 2.77 g/m*3 -3.7 C 0 km/h
2406 15-02-2009 01:25:00 -3.8 C 2.75 g/m*3 -3.8 C 0 km/h
2407 15-02-2009 01:37:59 -3.9 C 2.76 g/m*3 -3.9 C 0 km/h
2408 15-02-2009 01:49:59 -4 C 2.74 g/m*3 -4 C 0 km/h
2409 15-02-2009 02:01:59 -4 C 2.78 g/m*3 -4 C 0 km/h
2410 15-02-2009 02:13:59 -4.1 C 2.76 g/m*3 -4.1 C 0 km/h
2411 15-02-2009 02:26:00 -4.2 C 2.78 g/m*3 -4.2 C 0 km/h
2412 15-02-2009 02:37:58 -4.2 C 2.78 g/m*3 -4.2 C 0 km/h
2413 15-02-2009 02:51:01 -4.4 C 2.74 g/m*3 -4.4 C 0 km/h
2414 15-02-2009 03:03:01 -4.5 C 2.72 g/m*3 -4.5 C 0 km/h
2415 15-02-2009 03:15:01 -4.6 C 2.73 g/m*3 -4.6 C 0 km/h
2416 15-02-2009 03:27:01 -4.7 C 2.71 g/m*3 -4.7 C 0 km/h
2417 15-02-2009 03:39:01 -4.7 C 2.71 g/m*3 -4.7 C 0 km/h
2418 15-02-2009 03:51:01 -4.8 C 2.69 g/m*3 -4.8 C 0 km/h
2419 15-02-2009 04:03:02 -4.9 C 2.68 g/m*3 -4.9 C 0 km/h
2420 15-02-2009 04:15:01 -5 C 2.66 g/m*3 -5 C 0 km/h
2421 15-02-2009 04:27:01 -5.2 C 2.62 g/m*3 -5.2 C 0 km/h
2422 15-02-2009 04:39:02 -5.2 C 2.62 g/m*3 -5.2 C 0 km/h
2423 15-02-2009 04:51:02 -5.5 C 2.56 g/m*3 -5.5 C 0 km/h
2424 15-02-2009 05:02:59 -5.6 C 2.54 g/m*3 -5.6 C 0 km/h
2425 15-02-2009 05:14:59 -5.4 C 2.58 g/m*3 -5.4 C 0 km/h
Sensor: Nr:Datum:Temp:Abs-Feuchte:Windchill:Wind:
Aussen-T/F 2426 15-02-2009 05:26:59 -5.5 C 2.59 g/m*3 -5.5 C 0 km/h
2427 15-02-2009 05:38:58 -5.6 C 2.54 g/m*3 -5.6 C 0 km/h
2428 15-02-2009 05:50:58 -5.7 C 2.52 g/m*3 -5.7 C 0 km/h
2429 15-02-2009 06:02:59 -5.7 C 2.56 g/m*3 -5.7 C 0 km/h
2430 15-02-2009 06:14:59 -5.8 C 2.54 g/m*3 -5.8 C 0 km/h
2431 15-02-2009 06:26:59 -5.8 C 2.54 g/m*3 -5.8 C 0 km/h
2432 15-02-2009 06:38:58 -6 C 2.5 g/m*3 -6 C 0 km/h
2433 15-02-2009 06:50:59 -6 C 2.5 g/m*3 -6 C 0 km/h
2434 15-02-2009 07:02:58 -6.1 C 2.48 g/m*3 -6.1 C 0 km/h
2435 15-02-2009 07:14:58 -6.1 C 2.48 g/m*3 -6.1 C 0 km/h
2436 15-02-2009 07:26:59 -6.2 C 2.47 g/m*3 -6.2 C 0 km/h
2437 15-02-2009 07:38:57 -6.3 C 2.45 g/m*3 -6.3 C 0 km/h
2438 15-02-2009 07:50:58 -6.3 C 2.45 g/m*3 -6.3 C 0 km/h
2439 15-02-2009 08:02:57 -6.3 C 2.45 g/m*3 -6.3 C 0 km/h
2440 15-02-2009 08:14:57 -6.2 C 2.47 g/m*3 -6.2 C 0 km/h
2441 15-02-2009 08:26:57 -6 C 2.5 g/m*3 -6 C 0 km/h
2442 15-02-2009 08:38:58 -5.9 C 2.52 g/m*3 -5.9 C 0 km/h
2443 15-02-2009 08:50:57 -5.6 C 2.58 g/m*3 -5.6 C 0 km/h
2444 15-02-2009 09:02:57 -5.3 C 2.63 g/m*3 -5.3 C 0 km/h
2445 15-02-2009 09:14:57 -5 C 2.69 g/m*3 -5 C 0 km/h
2446 15-02-2009 09:26:57 -4.8 C 2.69 g/m*3 -4.8 C 0 km/h
2447 15-02-2009 09:38:57 -4.6 C 2.7 g/m*3 -4.6 C 0 km/h
2448 15-02-2009 09:50:56 -4.4 C 2.7 g/m*3 -4.4 C 0 km/h
2449 15-02-2009 10:02:57 -4.2 C 2.7 g/m*3 -4.2 C 0 km/h
2450 15-02-2009 10:14:56 -3.9 C 2.76 g/m*3 -3.9 C 0 km/h
Sensor: Nr:Datum:Temp:Abs-Feuchte:Windchill:Wind:
Aussen-T/F 2451 15-02-2009 10:26:56 -3.5 C 2.77 g/m*3 -3.5 C 0 km/h
2452 15-02-2009 10:38:56 -3.1 C 2.77 g/m*3 -3.1 C 0 km/h
2453 15-02-2009 10:50:55 -2.9 C 2.77 g/m*3 -2.9 C 0 km/h
2454 15-02-2009 11:02:56 -2.5 C 2.81 g/m*3 -2.5 C 0 km/h
2455 15-02-2009 11:14:56 -2 C 2.82 g/m*3 -2 C 0 km/h
2456 15-02-2009 11:26:56 -1.6 C 2.82 g/m*3 -1.6 C 0 km/h
2457 15-02-2009 11:38:55 -1.2 C 2.85 g/m*3 -1.2 C 0 km/h
2458 15-02-2009 11:50:56 -0.9 C 2.87 g/m*3 -0.9 C 0 km/h
2459 15-02-2009 12:02:55 -0.4 C 2.92 g/m*3 -0.4 C 0 km/h
2460 15-02-2009 12:14:55 -0.1 C 2.89 g/m*3 -0.1 C 0 km/h
2461 15-02-2009 12:26:55 0.3 C 2.92 g/m*3 0.3 C 0 km/h
2462 15-02-2009 12:38:55 0.8 C 3.02 g/m*3 0.8 C 0 km/h
2463 15-02-2009 12:50:55 1 C 2.85 g/m*3 1 C 0 km/h
2464 15-02-2009 13:02:55 1.5 C 2.79 g/m*3 1.5 C 0 km/h
2465 15-02-2009 13:14:54 1.8 C 2.69 g/m*3 1.8 C 0 km/h
2466 15-02-2009 13:26:54 1.8 C 2.58 g/m*3 1.8 C 0 km/h
2467 15-02-2009 13:38:55 2 C 2.56 g/m*3 2 C 0 km/h
2468 15-02-2009 13:50:54 1.8 C 2.52 g/m*3 1.8 C 0 km/h
2469 15-02-2009 14:02:54 2 C 2.5 g/m*3 2 C 0 km/h
2470 15-02-2009 14:14:54 2.1 C 2.52 g/m*3 2.1 C 0 km/h
2471 15-02-2009 14:26:54 2.1 C 2.52 g/m*3 2.1 C 0 km/h
2472 15-02-2009 14:38:54 2.2 C 2.53 g/m*3 2.2 C 0 km/h
2473 15-02-2009 14:50:53 2.2 C 2.53 g/m*3 2.2 C 0 km/h
2474 15-02-2009 15:02:54 2.3 C 2.5 g/m*3 2.3 C 0 km/h
2475 15-02-2009 15:14:53 2.4 C 2.51 g/m*3 2.4 C 0 km/h
Sensor: Nr:Datum:Temp:Abs-Feuchte:Windchill:Wind:
Aussen-T/F 2476 15-02-2009 15:26:53 2.4 C 2.57 g/m*3 2.4 C 0 km/h
2477 15-02-2009 15:38:54 2.5 C 2.59 g/m*3 2.5 C 0 km/h
2478 15-02-2009 15:50:53 2.4 C 2.57 g/m*3 2.4 C 0 km/h
2479 15-02-2009 16:02:53 2.4 C 2.57 g/m*3 2.4 C 0 km/h
2480 15-02-2009 16:14:53 2.3 C 2.55 g/m*3 2.3 C 0 km/h
2481 15-02-2009 16:26:54 2.2 C 2.59 g/m*3 2.2 C 0 km/h
2482 15-02-2009 16:38:52 2.1 C 2.63 g/m*3 2.1 C 0 km/h
2483 15-02-2009 16:50:53 2 C 2.67 g/m*3 2 C 0 km/h
2484 15-02-2009 17:02:52 1.8 C 2.74 g/m*3 1.8 C 0 km/h
2485 15-02-2009 17:14:52 1.6 C 2.7 g/m*3 1.6 C 0 km/h
2486 15-02-2009 17:26:52 1.6 C 2.7 g/m*3 1.6 C 0 km/h
2487 15-02-2009 17:38:52 1.4 C 2.67 g/m*3 1.4 C 0 km/h
2488 15-02-2009 17:50:52 1.2 C 2.68 g/m*3 1.2 C 0 km/h
2489 15-02-2009 18:02:52 1.2 C 2.68 g/m*3 1.2 C 0 km/h
2490 15-02-2009 18:14:51 1.1 C 2.67 g/m*3 1.1 C 0 km/h
2491 15-02-2009 18:26:51 0.9 C 2.73 g/m*3 0.9 C 0 km/h
2492 15-02-2009 18:38:52 0.7 C 2.75 g/m*3 0.7 C 0 km/h
2493 15-02-2009 18:50:51 0.7 C 2.75 g/m*3 0.7 C 0 km/h
2494 15-02-2009 19:02:51 0.7 C 2.69 g/m*3 0.7 C 0 km/h
2495 15-02-2009 19:14:51 0.8 C 2.76 g/m*3 0.8 C 0 km/h
2496 15-02-2009 19:26:51 1 C 2.7 g/m*3 1 C 0 km/h
2497 15-02-2009 19:38:51 1.1 C 2.67 g/m*3 1.1 C 0 km/h
2498 15-02-2009 19:50:50 1.2 C 2.68 g/m*3 1.2 C 0 km/h
2499 15-02-2009 20:02:51 1.3 C 2.65 g/m*3 1.3 C 0 km/h
2500 15-02-2009 20:14:51 1.4 C 2.67 g/m*3 1.4 C 0 km/h
Sensor: Nr:Datum:Temp:Abs-Feuchte:Windchill:Wind:
Aussen-T/F 2501 15-02-2009 20:26:51 1.4 C 2.67 g/m*3 1.4 C 0 km/h
2502 15-02-2009 20:38:50 1.4 C 2.67 g/m*3 1.4 C 0 km/h
2503 15-02-2009 20:50:51 1.4 C 2.72 g/m*3 1.4 C 0 km/h
2504 15-02-2009 21:02:50 1.3 C 2.86 g/m*3 1.3 C 0 km/h
2505 15-02-2009 21:14:50 1.2 C 3 g/m*3 1.2 C 0 km/h
2506 15-02-2009 21:26:50 1 C 3.11 g/m*3 1 C 0 km/h
2507 15-02-2009 21:38:49 0.8 C 3.28 g/m*3 0.8 C 0 km/h
2508 15-02-2009 21:50:00 0.8 C 3.33 g/m*3 0.8 C 0 km/h
2509 15-02-2009 22:03:51 0.6 C 3.43 g/m*3 0.6 C 0 km/h
2510 15-02-2009 22:15:51 0.5 C 3.51 g/m*3 0.5 C 0 km/h
2511 15-02-2009 22:27:51 0.5 C 3.61 g/m*3 0.5 C 0 km/h
2512 15-02-2009 22:39:51 0.5 C 3.61 g/m*3 0.5 C 0 km/h
2513 15-02-2009 22:51:51 0.4 C 3.64 g/m*3 0.4 C 0 km/h
2514 15-02-2009 23:03:51 0.4 C 3.74 g/m*3 0.4 C 0 km/h
2515 15-02-2009 23:15:51 0.3 C 3.76 g/m*3 0.3 C 0 km/h
2516 15-02-2009 23:27:51 0.3 C 3.81 g/m*3 0.3 C 0 km/h
2517 15-02-2009 23:39:51 0.2 C 3.83 g/m*3 0.2 C 0 km/h
2518 15-02-2009 23:51:51 0.2 C 3.83 g/m*3 0.2 C 0 km/h
2519 16-02-2009 00:03:51 0.2 C 3.83 g/m*3 0.2 C 0 km/h
2520 16-02-2009 00:15:51 0.2 C 3.88 g/m*3 0.2 C 0 km/h
2521 16-02-2009 00:27:51 0.1 C 3.9 g/m*3 0.1 C 0 km/h
2522 16-02-2009 00:39:51 0.1 C 4 g/m*3 0.1 C 0 km/h
2523 16-02-2009 00:51:51 0 C 4.02 g/m*3 0 C 0 km/h
2524 16-02-2009 01:03:51 0 C 4.02 g/m*3 0 C 0 km/h
2525 16-02-2009 01:15:51 0 C 4.02 g/m*3 0 C 0 km/h
Sensor: Nr:Datum:Temp:Abs-Feuchte:Windchill:Wind:
Aussen-T/F 2526 16-02-2009 01:27:51 0 C 4.02 g/m*3 0 C 0 km/h
2527 16-02-2009 01:39:52 0 C 4.02 g/m*3 0 C 0 km/h
2528 16-02-2009 01:51:52 0 C 4.02 g/m*3 0 C 0 km/h
2529 16-02-2009 02:03:52 0 C 4.02 g/m*3 0 C 0 km/h
2530 16-02-2009 02:15:52 0.1 C 4 g/m*3 0.1 C 0 km/h
2531 16-02-2009 02:27:52 0.1 C 3.95 g/m*3 0.1 C 0 km/h
2532 16-02-2009 02:39:52 0.2 C 3.98 g/m*3 0.2 C 0 km/h
2533 16-02-2009 02:51:52 0.2 C 3.93 g/m*3 0.2 C 0 km/h
2534 16-02-2009 03:03:52 0.2 C 3.93 g/m*3 0.2 C 0 km/h
2535 16-02-2009 03:15:52 0.2 C 3.93 g/m*3 0.2 C 0 km/h
2536 16-02-2009 03:27:52 0.2 C 3.93 g/m*3 0.2 C 0 km/h
2537 16-02-2009 03:39:52 0.3 C 3.96 g/m*3 0.3 C 0 km/h
2538 16-02-2009 03:51:52 0.3 C 3.91 g/m*3 0.3 C 0 km/h
2539 16-02-2009 04:03:52 0.3 C 3.86 g/m*3 0.3 C 0 km/h
2540 16-02-2009 04:15:52 0.4 C 3.88 g/m*3 0.4 C 0 km/h
2541 16-02-2009 04:27:52 0.4 C 3.88 g/m*3 0.4 C 0 km/h
2542 16-02-2009 04:39:52 0.4 C 3.88 g/m*3 0.4 C 0 km/h
2543 16-02-2009 04:51:52 0.4 C 3.88 g/m*3 0.4 C 0 km/h
2544 16-02-2009 05:03:52 0.5 C 3.91 g/m*3 0.5 C 0 km/h
2545 16-02-2009 05:15:52 0.5 C 3.91 g/m*3 0.5 C 0 km/h
2546 16-02-2009 05:27:52 0.5 C 3.91 g/m*3 0.5 C 0 km/h
2547 16-02-2009 05:39:53 0.5 C 3.91 g/m*3 0.5 C 0 km/h
2548 16-02-2009 05:51:53 0.4 C 3.88 g/m*3 0.4 C 0 km/h
2549 16-02-2009 06:03:53 0.4 C 3.93 g/m*3 0.4 C 0 km/h
2550 16-02-2009 06:15:53 0.4 C 4.03 g/m*3 0.4 C 0 km/h
Sensor: Nr:Datum:Temp:Abs-Feuchte:Windchill:Wind:
Aussen-T/F 2551 16-02-2009 06:27:53 0.3 C 4.06 g/m*3 0.3 C 0 km/h
2552 16-02-2009 06:39:53 0.4 C 4.13 g/m*3 0.4 C 0 km/h
2553 16-02-2009 06:51:53 0.4 C 4.13 g/m*3 0.4 C 0 km/h
2554 16-02-2009 07:03:51 0.4 C 4.18 g/m*3 0.4 C 0 km/h
2555 16-02-2009 07:15:50 0.4 C 4.23 g/m*3 0.4 C 0 km/h
2556 16-02-2009 07:27:50 0.4 C 4.23 g/m*3 0.4 C 0 km/h
2557 16-02-2009 07:39:51 0.4 C 4.23 g/m*3 0.4 C 0 km/h
2558 16-02-2009 07:51:50 0.5 C 4.26 g/m*3 0.5 C 0 km/h
2559 16-02-2009 08:03:50 0.5 C 4.26 g/m*3 0.5 C 0 km/h
2560 16-02-2009 08:15:50 0.5 C 4.26 g/m*3 0.5 C 0 km/h
2561 16-02-2009 08:27:50 0.5 C 4.26 g/m*3 0.5 C 0 km/h
2562 16-02-2009 08:39:50 0.6 C 4.29 g/m*3 0.6 C 0 km/h
2563 16-02-2009 08:51:49 0.7 C 4.32 g/m*3 0.7 C 0 km/h
2564 16-02-2009 09:03:50 0.8 C 4.35 g/m*3 0.8 C 0 km/h
2565 16-02-2009 09:15:50 1 C 4.31 g/m*3 1 C 0 km/h
2566 16-02-2009 09:27:50 1.1 C 4.34 g/m*3 1.1 C 0 km/h
2567 16-02-2009 09:39:49 1.2 C 4.31 g/m*3 1.2 C 0 km/h
2568 16-02-2009 09:51:50 1.3 C 4.29 g/m*3 1.3 C 0 km/h
2569 16-02-2009 10:03:49 1.3 C 4.24 g/m*3 1.3 C 0 km/h
2570 16-02-2009 10:15:49 1.3 C 4.24 g/m*3 1.3 C 0 km/h
2571 16-02-2009 10:27:49 1.5 C 4.4 g/m*3 1.5 C 0 km/h
2572 16-02-2009 10:39:48 1.5 C 4.46 g/m*3 1.5 C 0 km/h
2573 16-02-2009 10:51:49 1.4 C 4.48 g/m*3 1.4 C 0 km/h
2574 16-02-2009 11:03:48 1.2 C 4.47 g/m*3 1.2 C 0 km/h
2575 16-02-2009 11:15:48 1.5 C 4.62 g/m*3 1.5 C 0 km/h
Sensor: Nr:Datum:Temp:Abs-Feuchte:Windchill:Wind:
Aussen-T/F 2576 16-02-2009 11:27:48 1.6 C 4.7 g/m*3 1.6 C 0 km/h
2577 16-02-2009 11:39:48 1.7 C 4.68 g/m*3 1.7 C 0 km/h
2578 16-02-2009 11:51:48 1.8 C 4.71 g/m*3 1.8 C 0 km/h
2579 16-02-2009 12:03:48 1.9 C 4.8 g/m*3 1.9 C 0 km/h
2580 16-02-2009 12:15:47 2.1 C 4.81 g/m*3 2.1 C 0 km/h
2581 16-02-2009 12:27:47 2.3 C 4.88 g/m*3 2.3 C 0 km/h
2582 16-02-2009 12:39:48 2.6 C 4.86 g/m*3 2.6 C 0 km/h
2583 16-02-2009 12:51:47 2.7 C 4.84 g/m*3 2.7 C 0 km/h
2584 16-02-2009 13:03:47 2.8 C 4.81 g/m*3 2.8 C 0 km/h
2585 16-02-2009 13:15:47 3 C 4.82 g/m*3 3 C 0 km/h
2586 16-02-2009 13:27:47 3.4 C 4.89 g/m*3 3.4 C 0 km/h
2587 16-02-2009 13:39:47 3.8 C 4.89 g/m*3 3.8 C 0 km/h
2588 16-02-2009 13:51:46 3.8 C 4.89 g/m*3 3.8 C 0 km/h
2589 16-02-2009 14:03:47 3.9 C 4.86 g/m*3 3.9 C 0 km/h
2590 16-02-2009 14:15:47 4 C 4.83 g/m*3 4 C 0 km/h
2591 16-02-2009 14:27:47 3.8 C 4.83 g/m*3 3.8 C 0 km/h
2592 16-02-2009 14:39:46 3.8 C 4.89 g/m*3 3.8 C 0 km/h
2593 16-02-2009 14:51:47 3.6 C 4.83 g/m*3 3.6 C 0 km/h
2594 16-02-2009 15:03:46 3.5 C 4.86 g/m*3 3.5 C 0 km/h
2595 16-02-2009 15:15:46 3.4 C 4.95 g/m*3 3.4 C 0 km/h
2596 16-02-2009 15:27:46 3.4 C 5.01 g/m*3 3.4 C 0 km/h
2597 16-02-2009 15:39:45 3.4 C 5.07 g/m*3 3.4 C 0 km/h
2598 16-02-2009 15:51:46 3.4 C 5.13 g/m*3 3.4 C 0 km/h
2599 16-02-2009 16:03:45 3.4 C 5.19 g/m*3 3.4 C 0 km/h
2600 16-02-2009 16:15:45 3.4 C 5.19 g/m*3 3.4 C 0 km/h
Sensor: Nr:Datum:Temp:Abs-Feuchte:Windchill:Wind:
Aussen-T/F 2601 16-02-2009 16:27:45 3.4 C 5.25 g/m*3 3.4 C 0 km/h
2602 16-02-2009 16:39:46 3.3 C 5.22 g/m*3 3.3 C 0 km/h
2603 16-02-2009 16:51:45 3.3 C 5.28 g/m*3 3.3 C 0 km/h
2604 16-02-2009 17:03:45 3.3 C 5.28 g/m*3 3.3 C 0 km/h
2605 16-02-2009 17:15:45 3.3 C 5.34 g/m*3 3.3 C 0 km/h
2606 16-02-2009 17:27:45 3.2 C 5.3 g/m*3 3.2 C 0 km/h
2607 16-02-2009 17:39:45 3.2 C 5.3 g/m*3 3.2 C 0 km/h
2608 16-02-2009 17:51:44 3.2 C 5.36 g/m*3 3.2 C 0 km/h
2609 16-02-2009 18:03:45 3.2 C 5.36 g/m*3 3.2 C 0 km/h
2610 16-02-2009 18:15:44 3.3 C 5.46 g/m*3 3.3 C 0 km/h
2611 16-02-2009 18:27:44 3.3 C 5.46 g/m*3 3.3 C 0 km/h
2612 16-02-2009 18:39:44 3.3 C 5.46 g/m*3 3.3 C 0 km/h
2613 16-02-2009 18:51:44 3.3 C 5.46 g/m*3 3.3 C 0 km/h
2614 16-02-2009 19:03:44 3.4 C 5.56 g/m*3 3.4 C 0 km/h
2615 16-02-2009 19:15:44 3.4 C 5.56 g/m*3 3.4 C 0 km/h
2616 16-02-2009 19:27:44 3.5 C 5.6 g/m*3 3.5 C 0 km/h
2617 16-02-2009 19:39:43 3.4 C 5.56 g/m*3 3.4 C 0 km/h
2618 16-02-2009 19:51:44 3.4 C 5.56 g/m*3 3.4 C 0 km/h
2619 16-02-2009 20:03:43 3.4 C 5.56 g/m*3 3.4 C 0 km/h
2620 16-02-2009 20:15:43 3.6 C 5.63 g/m*3 3.6 C 0 km/h
2621 16-02-2009 20:27:43 3.6 C 5.63 g/m*3 3.6 C 0 km/h
2622 16-02-2009 20:39:43 3.5 C 5.6 g/m*3 3.5 C 0 km/h
2623 16-02-2009 20:51:43 3.5 C 5.6 g/m*3 3.5 C 0 km/h
2624 16-02-2009 21:03:43 3.5 C 5.6 g/m*3 3.5 C 0 km/h
2625 16-02-2009 21:15:43 3.5 C 5.6 g/m*3 3.5 C 0 km/h
Sensor: Nr:Datum:Temp:Abs-Feuchte:Windchill:Wind:
Aussen-T/F 2626 16-02-2009 21:27:43 3.6 C 5.63 g/m*3 3.6 C 0 km/h
2627 16-02-2009 21:39:42 3.4 C 5.56 g/m*3 3.4 C 0 km/h
2628 16-02-2009 21:52:59 3.5 C 5.6 g/m*3 3.5 C 0 km/h
2629 16-02-2009 22:04:59 3.3 C 5.52 g/m*3 3.3 C 0 km/h
2630 16-02-2009 22:16:59 3.3 C 5.58 g/m*3 3.3 C 0 km/h
2631 16-02-2009 22:28:59 3.3 C 5.58 g/m*3 3.3 C 0 km/h
2632 16-02-2009 22:40:59 3.4 C 5.62 g/m*3 3.4 C 0 km/h
2633 16-02-2009 22:52:59 3.4 C 5.68 g/m*3 3.4 C 0 km/h
2634 16-02-2009 23:04:59 3.5 C 5.72 g/m*3 3.5 C 0 km/h
2635 16-02-2009 23:16:59 3.8 C 5.83 g/m*3 3.8 C 0 km/h
2636 16-02-2009 23:28:59 3.9 C 5.87 g/m*3 3.9 C 0 km/h
2637 16-02-2009 23:40:59 3.9 C 5.81 g/m*3 3.9 C 0 km/h
2638 16-02-2009 23:52:59 4 C 5.79 g/m*3 4 C 0 km/h
2639 17-02-2009 00:04:59 4 C 5.79 g/m*3 4 C 0 km/h
2640 17-02-2009 00:16:59 4 C 5.79 g/m*3 4 C 0 km/h
2641 17-02-2009 00:28:59 3.9 C 5.75 g/m*3 3.9 C 0 km/h
2642 17-02-2009 00:40:59 3.9 C 5.81 g/m*3 3.9 C 0 km/h
2643 17-02-2009 00:51:59 3.9 C 5.81 g/m*3 3.9 C 0 km/h
2644 17-02-2009 01:04:00 3.9 C 5.81 g/m*3 3.9 C 0 km/h
2645 17-02-2009 01:16:00 3.9 C 5.81 g/m*3 3.9 C 0 km/h
2646 17-02-2009 01:28:00 3.9 C 5.81 g/m*3 3.9 C 0 km/h
2647 17-02-2009 01:40:00 4 C 5.85 g/m*3 4 C 0 km/h
2648 17-02-2009 01:52:00 3.9 C 5.87 g/m*3 3.9 C 0 km/h
2649 17-02-2009 02:04:00 3.9 C 5.87 g/m*3 3.9 C 0 km/h
2650 17-02-2009 02:16:00 3.9 C 5.87 g/m*3 3.9 C 0 km/h
Sensor: Nr:Datum:Temp:Abs-Feuchte:Windchill:Wind:
Aussen-T/F 2651 17-02-2009 02:28:00 3.9 C 5.87 g/m*3 3.9 C 0 km/h
2652 17-02-2009 02:40:00 3.9 C 5.87 g/m*3 3.9 C 0 km/h
2653 17-02-2009 02:52:00 3.9 C 5.87 g/m*3 3.9 C 0 km/h
2654 17-02-2009 03:04:00 4 C 5.91 g/m*3 4 C 0 km/h
2655 17-02-2009 03:16:00 4 C 5.91 g/m*3 4 C 0 km/h
2656 17-02-2009 03:28:00 4 C 5.91 g/m*3 4 C 0 km/h
2657 17-02-2009 03:40:00 4 C 5.91 g/m*3 4 C 0 km/h
2658 17-02-2009 03:52:00 4 C 5.91 g/m*3 4 C 0 km/h
2659 17-02-2009 04:04:00 4 C 5.91 g/m*3 4 C 0 km/h
2660 17-02-2009 04:16:00 4.1 C 6.02 g/m*3 4.1 C 0 km/h
2661 17-02-2009 04:28:00 4.2 C 6.06 g/m*3 4.2 C 0 km/h
2662 17-02-2009 04:40:00 4.2 C 6.06 g/m*3 4.2 C 0 km/h
2663 17-02-2009 04:52:00 4.3 C 6.1 g/m*3 4.3 C 0 km/h
2664 17-02-2009 05:04:00 4.3 C 6.1 g/m*3 4.3 C 0 km/h
2665 17-02-2009 05:16:01 4.3 C 6.1 g/m*3 4.3 C 0 km/h
2666 17-02-2009 05:28:01 4.4 C 6.14 g/m*3 4.4 C 0 km/h
2667 17-02-2009 05:40:01 4.4 C 6.14 g/m*3 4.4 C 0 km/h
2668 17-02-2009 05:52:01 4.4 C 6.14 g/m*3 4.4 C 0 km/h
2669 17-02-2009 06:04:01 4.5 C 6.18 g/m*3 4.5 C 0 km/h
2670 17-02-2009 06:16:01 4.4 C 6.14 g/m*3 4.4 C 0 km/h
2671 17-02-2009 06:28:01 4.4 C 6.14 g/m*3 4.4 C 0 km/h
2672 17-02-2009 06:40:01 4.4 C 6.14 g/m*3 4.4 C 0 km/h
2673 17-02-2009 06:52:01 4.5 C 6.18 g/m*3 4.5 C 0 km/h
2674 17-02-2009 07:04:43 4.5 C 6.18 g/m*3 4.5 C 0 km/h
2675 17-02-2009 07:16:43 4.7 C 6.33 g/m*3 4.7 C 0 km/h
Sensor: Nr:Datum:Temp:Abs-Feuchte:Windchill:Wind:
Aussen-T/F 2676 17-02-2009 07:28:43 4.7 C 6.33 g/m*3 4.7 C 0 km/h
2677 17-02-2009 07:40:43 4.6 C 6.29 g/m*3 4.6 C 0 km/h
2678 17-02-2009 07:52:43 4.7 C 6.33 g/m*3 4.7 C 0 km/h
2679 17-02-2009 08:04:42 4.6 C 6.29 g/m*3 4.6 C 0 km/h
2680 17-02-2009 08:16:43 4.6 C 6.29 g/m*3 4.6 C 0 km/h
2681 17-02-2009 08:28:44 4.8 C 6.37 g/m*3 4.8 C 0 km/h
2682 17-02-2009 08:40:42 5 C 6.46 g/m*3 5 C 0 km/h
2683 17-02-2009 08:52:42 5.1 C 6.5 g/m*3 5.1 C 0 km/h
2684 17-02-2009 09:04:42 5.3 C 6.58 g/m*3 5.3 C 0 km/h
2685 17-02-2009 09:16:42 5.5 C 6.67 g/m*3 5.5 C 0 km/h
2686 17-02-2009 09:28:42 5.5 C 6.67 g/m*3 5.5 C 0 km/h
2687 17-02-2009 09:40:42 5.6 C 6.72 g/m*3 5.6 C 0 km/h
2688 17-02-2009 09:52:42 5.6 C 6.65 g/m*3 5.6 C 0 km/h
2689 17-02-2009 10:04:42 5.7 C 6.69 g/m*3 5.7 C 0 km/h
2690 17-02-2009 10:16:41 5.7 C 6.69 g/m*3 5.7 C 0 km/h
2691 17-02-2009 10:28:41 5.7 C 6.62 g/m*3 5.7 C 0 km/h
2692 17-02-2009 10:40:41 6 C 6.68 g/m*3 6 C 0 km/h
2693 17-02-2009 10:52:41 6 C 6.68 g/m*3 6 C 0 km/h
2694 17-02-2009 11:04:41 5.9 C 6.71 g/m*3 5.9 C 0 km/h
2695 17-02-2009 11:16:40 5.9 C 6.71 g/m*3 5.9 C 0 km/h
2696 17-02-2009 11:28:40 6 C 6.68 g/m*3 6 C 0 km/h
2697 17-02-2009 11:40:41 6 C 6.68 g/m*3 6 C 0 km/h
2698 17-02-2009 11:52:41 6 C 6.68 g/m*3 6 C 0 km/h
2699 17-02-2009 12:04:40 6.1 C 6.72 g/m*3 6.1 C 0 km/h
2700 17-02-2009 12:16:41 6.3 C 6.88 g/m*3 6.3 C 0 km/h
Sensor: Nr:Datum:Temp:Abs-Feuchte:Windchill:Wind:
Aussen-T/F 2701 17-02-2009 12:28:41 6.3 C 6.88 g/m*3 6.3 C 0 km/h
2702 17-02-2009 12:40:40 6.3 C 6.88 g/m*3 6.3 C 0 km/h
2703 17-02-2009 12:52:40 6.6 C 7.02 g/m*3 6.6 C 0 km/h
2704 17-02-2009 13:04:39 6.7 C 7.07 g/m*3 6.7 C 0 km/h
2705 17-02-2009 13:16:40 6.7 C 6.99 g/m*3 6.7 C 0 km/h
2706 17-02-2009 13:28:40 6.5 C 6.9 g/m*3 6.5 C 0 km/h
2707 17-02-2009 13:40:39 6.5 C 6.9 g/m*3 6.5 C 0 km/h
2708 17-02-2009 13:52:39 6.4 C 6.71 g/m*3 6.4 C 0 km/h
2709 17-02-2009 14:04:40 6.4 C 6.71 g/m*3 6.4 C 0 km/h
2710 17-02-2009 14:16:39 6.5 C 6.6 g/m*3 6.5 C 0 km/h
2711 17-02-2009 14:28:39 6.7 C 6.53 g/m*3 6.7 C 0 km/h
2712 17-02-2009 14:40:39 6.8 C 6.35 g/m*3 6.8 C 0 km/h
2713 17-02-2009 14:52:39 7 C 6.2 g/m*3 7 C 0 km/h
2714 17-02-2009 15:04:39 6.9 C 6.16 g/m*3 6.9 C 0 km/h
2715 17-02-2009 15:16:38 6.9 C 6.08 g/m*3 6.9 C 0 km/h
2716 17-02-2009 15:28:38 7 C 5.81 g/m*3 7 C 0 km/h
2717 17-02-2009 15:40:38 6.9 C 5.93 g/m*3 6.9 C 0 km/h
2718 17-02-2009 15:52:38 6.8 C 5.58 g/m*3 6.8 C 0 km/h
2719 17-02-2009 16:04:38 5.9 C 5.19 g/m*3 5.9 C 0 km/h
2720 17-02-2009 16:16:38 5.5 C 5.06 g/m*3 5.5 C 0 km/h
2721 17-02-2009 16:28:38 5.1 C 4.99 g/m*3 5.1 C 0 km/h
2722 17-02-2009 16:40:38 4.9 C 5 g/m*3 4.9 C 0 km/h
2723 17-02-2009 16:52:38 4.6 C 4.76 g/m*3 4.6 C 0 km/h
2724 17-02-2009 17:04:37 4.4 C 4.7 g/m*3 4.4 C 0 km/h
2725 17-02-2009 17:16:38 4 C 4.51 g/m*3 4 C 0 km/h
Sensor: Nr:Datum:Temp:Abs-Feuchte:Windchill:Wind:
Aussen-T/F 2726 17-02-2009 17:28:38 3.7 C 4.42 g/m*3 3.7 C 0 km/h
2727 17-02-2009 17:40:37 3.6 C 4.33 g/m*3 3.6 C 0 km/h
2728 17-02-2009 17:52:37 3.4 C 4.15 g/m*3 3.4 C 0 km/h
2729 17-02-2009 18:04:37 3.1 C 4.07 g/m*3 3.1 C 0 km/h
2730 17-02-2009 18:16:37 2.9 C 4.02 g/m*3 2.9 C 0 km/h
2731 17-02-2009 18:28:37 2.8 C 4.05 g/m*3 2.8 C 0 km/h
2732 17-02-2009 18:40:37 2.5 C 3.97 g/m*3 2.5 C 0 km/h
2733 17-02-2009 18:52:37 2.3 C 3.74 g/m*3 2.3 C 0 km/h
2734 17-02-2009 19:04:37 2.1 C 3.41 g/m*3 2.1 C 0 km/h
2735 17-02-2009 19:16:36 2.1 C 3.3 g/m*3 2.1 C 0 km/h
2736 17-02-2009 19:28:36 1.9 C 3.09 g/m*3 1.9 C 0 km/h
2737 17-02-2009 19:40:36 1.6 C 2.97 g/m*3 1.6 C 0 km/h
2738 17-02-2009 19:52:36 1.1 C 2.98 g/m*3 1.1 C 0 km/h
2739 17-02-2009 20:04:36 0.7 C 2.85 g/m*3 0.7 C 0 km/h
2740 17-02-2009 20:16:35 0.3 C 2.67 g/m*3 0.3 C 0 km/h
2741 17-02-2009 20:28:35 0 C 2.66 g/m*3 0 C 0 km/h
2742 17-02-2009 20:40:36 -0.3 C 2.66 g/m*3 -0.3 C 0 km/h
2743 17-02-2009 20:52:35 -0.4 C 2.54 g/m*3 -0.4 C 0 km/h
2744 17-02-2009 21:04:36 -0.5 C 2.57 g/m*3 -0.5 C 0 km/h
2745 17-02-2009 21:16:35 -0.7 C 2.45 g/m*3 -0.7 C 0 km/h
2746 17-02-2009 21:28:35 -0.9 C 2.46 g/m*3 -0.9 C 0 km/h
2747 17-02-2009 21:41:36 -1 C 2.44 g/m*3 -1 C 0 km/h
2748 17-02-2009 21:53:36 -1.2 C 2.41 g/m*3 -1.2 C 0 km/h
2749 17-02-2009 22:05:36 -1.3 C 2.39 g/m*3 -1.3 C 0 km/h
2750 17-02-2009 22:17:36 -1.5 C 2.49 g/m*3 -1.5 C 0 km/h
Sensor: Nr:Datum:Temp:Abs-Feuchte:Windchill:Wind:
Aussen-T/F 2751 17-02-2009 22:29:36 -1.7 C 2.5 g/m*3 -1.7 C 0 km/h
2752 17-02-2009 22:41:36 -1.9 C 2.55 g/m*3 -1.9 C 0 km/h
2753 17-02-2009 22:53:36 -2 C 2.49 g/m*3 -2 C 0 km/h
2754 17-02-2009 23:05:36 -2.2 C 2.49 g/m*3 -2.2 C 0 km/h
2755 17-02-2009 23:17:36 -2.3 C 2.48 g/m*3 -2.3 C 0 km/h
2756 17-02-2009 23:29:36 -2.4 C 2.5 g/m*3 -2.4 C 0 km/h
2757 17-02-2009 23:41:36 -2.6 C 2.51 g/m*3 -2.6 C 0 km/h
2758 17-02-2009 23:53:36 -2.6 C 2.51 g/m*3 -2.6 C 0 km/h
2759 18-02-2009 00:05:36 -2.8 C 2.51 g/m*3 -2.8 C 0 km/h
2760 18-02-2009 00:17:36 -2.9 C 2.53 g/m*3 -2.9 C 0 km/h
2761 18-02-2009 00:29:37 -2.9 C 2.57 g/m*3 -2.9 C 0 km/h
2762 18-02-2009 00:41:37 -3 C 2.59 g/m*3 -3 C 0 km/h
2763 18-02-2009 00:53:37 -3.2 C 2.52 g/m*3 -3.2 C 0 km/h
2764 18-02-2009 01:05:37 -3.3 C 2.5 g/m*3 -3.3 C 0 km/h
2765 18-02-2009 01:17:37 -3.4 C 2.48 g/m*3 -3.4 C 0 km/h
2766 18-02-2009 01:29:37 -3.5 C 2.5 g/m*3 -3.5 C 0 km/h
2767 18-02-2009 01:41:37 -3.5 C 2.5 g/m*3 -3.5 C 0 km/h
2768 18-02-2009 01:53:37 -3.6 C 2.48 g/m*3 -3.6 C 0 km/h
2769 18-02-2009 02:05:37 -3.7 C 2.47 g/m*3 -3.7 C 0 km/h
2770 18-02-2009 02:17:37 -3.7 C 2.5 g/m*3 -3.7 C 0 km/h
2771 18-02-2009 02:29:37 -3.7 C 2.54 g/m*3 -3.7 C 0 km/h
2772 18-02-2009 02:41:37 -3.8 C 2.52 g/m*3 -3.8 C 0 km/h
2773 18-02-2009 02:53:37 -4 C 2.49 g/m*3 -4 C 0 km/h
2774 18-02-2009 03:05:37 -4 C 2.52 g/m*3 -4 C 0 km/h
2775 18-02-2009 03:17:37 -4.1 C 2.51 g/m*3 -4.1 C 0 km/h
Sensor: Nr:Datum:Temp:Abs-Feuchte:Windchill:Wind:
Aussen-T/F 2776 18-02-2009 03:29:37 -4.3 C 2.47 g/m*3 -4.3 C 0 km/h
2777 18-02-2009 03:41:37 -4.3 C 2.51 g/m*3 -4.3 C 0 km/h
2778 18-02-2009 03:53:37 -4.5 C 2.47 g/m*3 -4.5 C 0 km/h
2779 18-02-2009 04:05:37 -4.5 C 2.47 g/m*3 -4.5 C 0 km/h
2780 18-02-2009 04:17:37 -4.7 C 2.44 g/m*3 -4.7 C 0 km/h
2781 18-02-2009 04:29:37 -4.8 C 2.42 g/m*3 -4.8 C 0 km/h
2782 18-02-2009 04:41:38 -4.8 C 2.42 g/m*3 -4.8 C 0 km/h
2783 18-02-2009 04:53:38 -4.9 C 2.4 g/m*3 -4.9 C 0 km/h
2784 18-02-2009 05:05:38 -4.9 C 2.4 g/m*3 -4.9 C 0 km/h
2785 18-02-2009 05:17:38 -5.1 C 2.4 g/m*3 -5.1 C 0 km/h
2786 18-02-2009 05:29:38 -5 C 2.45 g/m*3 -5 C 0 km/h
2787 18-02-2009 05:41:38 -5.1 C 2.43 g/m*3 -5.1 C 0 km/h
2788 18-02-2009 05:53:38 -5.4 C 2.38 g/m*3 -5.4 C 0 km/h
2789 18-02-2009 06:05:38 -5.5 C 2.36 g/m*3 -5.5 C 0 km/h
2790 18-02-2009 06:17:38 -5.6 C 2.35 g/m*3 -5.6 C 0 km/h
2791 18-02-2009 06:29:38 -5.7 C 2.36 g/m*3 -5.7 C 0 km/h
2792 18-02-2009 06:41:38 -5.5 C 2.4 g/m*3 -5.5 C 0 km/h
2793 18-02-2009 06:53:38 -5.5 C 2.43 g/m*3 -5.5 C 0 km/h
2794 18-02-2009 07:05:36 -5.7 C 2.4 g/m*3 -5.7 C 0 km/h
2795 18-02-2009 07:17:35 -6.1 C 2.3 g/m*3 -6.1 C 0 km/h
2796 18-02-2009 07:29:36 -6.2 C 2.28 g/m*3 -6.2 C 0 km/h
2797 18-02-2009 07:41:36 -5.9 C 2.36 g/m*3 -5.9 C 0 km/h
2798 18-02-2009 07:53:35 -5.8 C 2.41 g/m*3 -5.8 C 0 km/h
2799 18-02-2009 08:05:35 -5.7 C 2.43 g/m*3 -5.7 C 0 km/h
2800 18-02-2009 08:17:35 -5.6 C 2.48 g/m*3 -5.6 C 0 km/h
Sensor: Nr:Datum:Temp:Abs-Feuchte:Windchill:Wind:
Aussen-T/F 2801 18-02-2009 08:29:35 -5.8 C 2.44 g/m*3 -5.8 C 0 km/h
2802 18-02-2009 08:41:35 -5.9 C 2.42 g/m*3 -5.9 C 0 km/h
2803 18-02-2009 08:53:34 -5.7 C 2.46 g/m*3 -5.7 C 0 km/h
2804 18-02-2009 09:05:35 -5.7 C 2.46 g/m*3 -5.7 C 0 km/h
2805 18-02-2009 09:17:35 -5.5 C 2.53 g/m*3 -5.5 C 0 km/h
2806 18-02-2009 09:29:34 -5.4 C 2.55 g/m*3 -5.4 C 0 km/h
2807 18-02-2009 09:41:34 -4.9 C 2.64 g/m*3 -4.9 C 0 km/h
2808 18-02-2009 09:53:35 -4.7 C 2.68 g/m*3 -4.7 C 0 km/h
2809 18-02-2009 10:05:34 -4.2 C 2.78 g/m*3 -4.2 C 0 km/h
2810 18-02-2009 10:17:34 -3.5 C 2.84 g/m*3 -3.5 C 0 km/h
2811 18-02-2009 10:29:34 -2.4 C 2.87 g/m*3 -2.4 C 0 km/h
2812 18-02-2009 10:41:34 -1.7 C 2.67 g/m*3 -1.7 C 0 km/h
2813 18-02-2009 10:53:34 -1.3 C 2.52 g/m*3 -1.3 C 0 km/h
2814 18-02-2009 11:05:34 -1.5 C 2.36 g/m*3 -1.5 C 0 km/h
2815 18-02-2009 11:17:33 -1.3 C 2.39 g/m*3 -1.3 C 0 km/h
2816 18-02-2009 11:29:33 -1 C 2.35 g/m*3 -1 C 0 km/h
2817 18-02-2009 11:41:33 -0.7 C 2.12 g/m*3 -0.7 C 0 km/h
2818 18-02-2009 11:53:33 -0.3 C 2.28 g/m*3 -0.3 C 0 km/h
2819 18-02-2009 12:05:33 0 C 2.33 g/m*3 0 C 0 km/h
2820 18-02-2009 12:17:32 0.2 C 2.36 g/m*3 0.2 C 0 km/h
2821 18-02-2009 12:29:33 0.5 C 2.31 g/m*3 0.5 C 0 km/h
2822 18-02-2009 12:41:33 0.7 C 2.29 g/m*3 0.7 C 0 km/h
2823 18-02-2009 12:53:32 1.1 C 2.09 g/m*3 1.1 C 0 km/h
2824 18-02-2009 13:05:32 1.9 C 2.1 g/m*3 1.9 C 0 km/h
2825 18-02-2009 13:17:33 2.3 C 2.04 g/m*3 2.3 C 0 km/h
Sensor: Nr:Datum:Temp:Abs-Feuchte:Windchill:Wind:
Aussen-T/F 2826 18-02-2009 13:29:32 2.7 C 2.04 g/m*3 2.7 C 0 km/h
2827 18-02-2009 13:41:32 2.8 C 1.82 g/m*3 2.8 C 0 km/h
2828 18-02-2009 13:53:32 3.6 C 1.55 g/m*3 3.6 C 0 km/h
2829 18-02-2009 14:05:32 3.6 C 1.55 g/m*3 3.6 C 0 km/h
2830 18-02-2009 14:17:32 4.4 C 1.31 g/m*3 4.4 C 0 km/h
2831 18-02-2009 14:29:31 4.8 C 1.34 g/m*3 4.8 C 0 km/h
2832 18-02-2009 14:41:31 5.5 C 1.4 g/m*3 5.5 C 0 km/h
2833 18-02-2009 14:53:32 5.7 C 1.42 g/m*3 5.7 C 0 km/h
2834 18-02-2009 15:05:31 5.9 C 1.44 g/m*3 5.9 C 0 km/h
2835 18-02-2009 15:17:31 5.5 C 1.4 g/m*3 5.5 C 0 km/h
2836 18-02-2009 15:29:31 5.7 C 1.42 g/m*3 5.7 C 0 km/h
2837 18-02-2009 15:41:31 6 C 1.45 g/m*3 6 C 0 km/h
2838 18-02-2009 15:53:31 6 C 1.45 g/m*3 6 C 0 km/h
2839 18-02-2009 16:05:31 6.7 C 1.52 g/m*3 6.7 C 0 km/h
2840 18-02-2009 16:17:30 6.9 C 1.54 g/m*3 6.9 C 0 km/h
2841 18-02-2009 16:29:31 5.1 C 1.37 g/m*3 5.1 C 0 km/h
2842 18-02-2009 16:41:31 5.5 C 1.4 g/m*3 5.5 C 0 km/h
2843 18-02-2009 16:53:30 5.7 C 1.42 g/m*3 5.7 C 0 km/h
2844 18-02-2009 17:05:30 5.4 C 1.4 g/m*3 5.4 C 0 km/h
2845 18-02-2009 17:17:30 4.7 C 1.67 g/m*3 4.7 C 0 km/h
2846 18-02-2009 17:29:30 3.2 C 1.81 g/m*3 3.2 C 0 km/h
2847 18-02-2009 17:41:30 1.9 C 2.04 g/m*3 1.9 C 0 km/h
2848 18-02-2009 17:53:30 1 C 2.13 g/m*3 1 C 0 km/h
2849 18-02-2009 18:05:29 0.4 C 2.14 g/m*3 0.4 C 0 km/h
2850 18-02-2009 18:17:29 -0.1 C 2.21 g/m*3 -0.1 C 0 km/h
Sensor: Nr:Datum:Temp:Abs-Feuchte:Windchill:Wind:
Aussen-T/F 2851 18-02-2009 18:29:30 -0.4 C 2.26 g/m*3 -0.4 C 0 km/h
2852 18-02-2009 18:41:30 -0.6 C 2.28 g/m*3 -0.6 C 0 km/h
2853 18-02-2009 18:53:29 -0.9 C 2.37 g/m*3 -0.9 C 0 km/h
2854 18-02-2009 19:05:29 -1 C 2.26 g/m*3 -1 C 0 km/h
2855 18-02-2009 19:17:29 -1.2 C 2.27 g/m*3 -1.2 C 0 km/h
2856 18-02-2009 19:29:29 -1.3 C 2.26 g/m*3 -1.3 C 0 km/h
2857 18-02-2009 19:41:29 -1.4 C 2.33 g/m*3 -1.4 C 0 km/h
2858 18-02-2009 19:53:28 -1.6 C 2.3 g/m*3 -1.6 C 0 km/h
2859 18-02-2009 20:05:29 -1.7 C 2.32 g/m*3 -1.7 C 0 km/h
2860 18-02-2009 20:17:28 -1.8 C 2.35 g/m*3 -1.8 C 0 km/h
2861 18-02-2009 20:29:28 -1.9 C 2.33 g/m*3 -1.9 C 0 km/h
2862 18-02-2009 20:41:28 -2 C 2.32 g/m*3 -2 C 0 km/h
2863 18-02-2009 20:53:28 -2.1 C 2.22 g/m*3 -2.1 C 0 km/h
2864 18-02-2009 21:05:28 -2.2 C 2.29 g/m*3 -2.2 C 0 km/h
2865 18-02-2009 21:17:28 -2.3 C 2.27 g/m*3 -2.3 C 0 km/h
2866 18-02-2009 21:29:27 -2.3 C 2.23 g/m*3 -2.3 C 0 km/h
2867 18-02-2009 21:41:27 -2.4 C 2.17 g/m*3 -2.4 C 0 km/h
2868 18-02-2009 21:53:28 -2.6 C 2.3 g/m*3 -2.6 C 0 km/h
2869 18-02-2009 22:06:27 -2.7 C 2.33 g/m*3 -2.7 C 0 km/h
2870 18-02-2009 22:18:27 -2.9 C 2.33 g/m*3 -2.9 C 0 km/h
2871 18-02-2009 22:30:27 -2.9 C 2.37 g/m*3 -2.9 C 0 km/h
2872 18-02-2009 22:42:27 -2.9 C 2.41 g/m*3 -2.9 C 0 km/h
2873 18-02-2009 22:54:27 -3.1 C 2.38 g/m*3 -3.1 C 0 km/h
2874 18-02-2009 23:06:27 -3.3 C 2.35 g/m*3 -3.3 C 0 km/h
2875 18-02-2009 23:18:27 -3.2 C 2.4 g/m*3 -3.2 C 0 km/h
Sensor: Nr:Datum:Temp:Abs-Feuchte:Windchill:Wind:
Aussen-T/F 2876 18-02-2009 23:30:27 -2.9 C 2.45 g/m*3 -2.9 C 0 km/h
2877 18-02-2009 23:42:28 -2.7 C 2.45 g/m*3 -2.7 C 0 km/h
2878 18-02-2009 23:54:28 -2.5 C 2.48 g/m*3 -2.5 C 0 km/h
2879 19-02-2009 00:06:28 -2.5 C 2.56 g/m*3 -2.5 C 0 km/h
2880 19-02-2009 00:18:28 -2.4 C 2.58 g/m*3 -2.4 C 0 km/h
2881 19-02-2009 00:30:28 -2.3 C 2.6 g/m*3 -2.3 C 0 km/h
2882 19-02-2009 00:42:28 -2.3 C 2.56 g/m*3 -2.3 C 0 km/h
2883 19-02-2009 00:54:28 -2.2 C 2.58 g/m*3 -2.2 C 0 km/h
2884 19-02-2009 01:06:28 -2.1 C 2.6 g/m*3 -2.1 C 0 km/h
2885 19-02-2009 01:18:28 -2.1 C 2.6 g/m*3 -2.1 C 0 km/h
2886 19-02-2009 01:30:28 -2.1 C 2.55 g/m*3 -2.1 C 0 km/h
2887 19-02-2009 01:42:28 -2.1 C 2.55 g/m*3 -2.1 C 0 km/h
2888 19-02-2009 01:54:28 -2.3 C 2.52 g/m*3 -2.3 C 0 km/h
2889 19-02-2009 02:06:28 -2.1 C 2.6 g/m*3 -2.1 C 0 km/h
2890 19-02-2009 02:18:28 -2 C 2.57 g/m*3 -2 C 0 km/h
2891 19-02-2009 02:30:28 -2 C 2.57 g/m*3 -2 C 0 km/h
2892 19-02-2009 02:42:28 -2 C 2.57 g/m*3 -2 C 0 km/h
2893 19-02-2009 02:54:28 -2.1 C 2.55 g/m*3 -2.1 C 0 km/h
2894 19-02-2009 03:06:28 -2.2 C 2.58 g/m*3 -2.2 C 0 km/h
2895 19-02-2009 03:18:28 -2.3 C 2.56 g/m*3 -2.3 C 0 km/h
2896 19-02-2009 03:30:29 -2.3 C 2.6 g/m*3 -2.3 C 0 km/h
2897 19-02-2009 03:42:29 -2.1 C 2.64 g/m*3 -2.1 C 0 km/h
2898 19-02-2009 03:54:29 -2.1 C 2.64 g/m*3 -2.1 C 0 km/h
2899 19-02-2009 04:06:29 -2.1 C 2.64 g/m*3 -2.1 C 0 km/h
2900 19-02-2009 04:18:29 -2.2 C 2.58 g/m*3 -2.2 C 0 km/h
Sensor: Nr:Datum:Temp:Abs-Feuchte:Windchill:Wind:
Aussen-T/F 2901 19-02-2009 04:30:29 -2.1 C 2.64 g/m*3 -2.1 C 0 km/h
2902 19-02-2009 04:42:29 -2.1 C 2.64 g/m*3 -2.1 C 0 km/h
2903 19-02-2009 04:54:29 -2.1 C 2.64 g/m*3 -2.1 C 0 km/h
2904 19-02-2009 05:06:29 -2.1 C 2.64 g/m*3 -2.1 C 0 km/h
2905 19-02-2009 05:18:29 -2.1 C 2.64 g/m*3 -2.1 C 0 km/h
2906 19-02-2009 05:30:27 -2.2 C 2.62 g/m*3 -2.2 C 0 km/h
2907 19-02-2009 05:42:27 -2.3 C 2.6 g/m*3 -2.3 C 0 km/h
2908 19-02-2009 05:54:27 -2.3 C 2.64 g/m*3 -2.3 C 0 km/h
2909 19-02-2009 06:06:27 -2.3 C 2.64 g/m*3 -2.3 C 0 km/h
2910 19-02-2009 06:18:27 -2.3 C 2.64 g/m*3 -2.3 C 0 km/h
2911 19-02-2009 06:30:27 -2.2 C 2.66 g/m*3 -2.2 C 0 km/h
2912 19-02-2009 06:42:27 -2.2 C 2.66 g/m*3 -2.2 C 0 km/h
2913 19-02-2009 06:54:27 -2.1 C 2.64 g/m*3 -2.1 C 0 km/h
2914 19-02-2009 07:06:27 -2.1 C 2.55 g/m*3 -2.1 C 0 km/h
2915 19-02-2009 07:18:02 -2 C 2.57 g/m*3 -2 C 0 km/h
2916 19-02-2009 07:30:02 -2 C 2.53 g/m*3 -2 C 0 km/h
2917 19-02-2009 07:42:02 -2 C 2.57 g/m*3 -2 C 0 km/h
2918 19-02-2009 07:54:01 -2 C 2.61 g/m*3 -2 C 0 km/h
2919 19-02-2009 08:06:01 -1.9 C 2.63 g/m*3 -1.9 C 0 km/h
2920 19-02-2009 08:18:02 -1.9 C 2.63 g/m*3 -1.9 C 0 km/h
2921 19-02-2009 08:30:02 -1.6 C 2.69 g/m*3 -1.6 C 0 km/h
2922 19-02-2009 08:42:01 -1.3 C 2.7 g/m*3 -1.3 C 0 km/h
2923 19-02-2009 08:54:01 -1 C 2.71 g/m*3 -1 C 0 km/h
2924 19-02-2009 09:06:01 -0.8 C 2.61 g/m*3 -0.8 C 0 km/h
2925 19-02-2009 09:18:01 -0.9 C 2.55 g/m*3 -0.9 C 0 km/h
Sensor: Nr:Datum:Temp:Abs-Feuchte:Windchill:Wind:
Aussen-T/F 2926 19-02-2009 09:30:01 -0.7 C 2.58 g/m*3 -0.7 C 0 km/h
2927 19-02-2009 09:42:00 -0.7 C 2.54 g/m*3 -0.7 C 0 km/h
2928 19-02-2009 09:54:01 -0.6 C 2.56 g/m*3 -0.6 C 0 km/h
2929 19-02-2009 10:06:01 -0.4 C 2.59 g/m*3 -0.4 C 0 km/h
2930 19-02-2009 10:18:00 -0.1 C 2.55 g/m*3 -0.1 C 0 km/h
2931 19-02-2009 10:30:00 0.1 C 2.54 g/m*3 0.1 C 0 km/h
2932 19-02-2009 10:42:00 0.5 C 2.56 g/m*3 0.5 C 0 km/h
2933 19-02-2009 10:54:00 0.5 C 2.46 g/m*3 0.5 C 0 km/h
2934 19-02-2009 11:06:00 0.8 C 2.51 g/m*3 0.8 C 0 km/h
2935 19-02-2009 11:18:59 1 C 2.44 g/m*3 1 C 0 km/h
2936 19-02-2009 11:29:59 0.9 C 2.47 g/m*3 0.9 C 0 km/h
2937 19-02-2009 11:41:59 1 C 2.44 g/m*3 1 C 0 km/h
2938 19-02-2009 11:54:59 1.1 C 2.4 g/m*3 1.1 C 0 km/h
2939 19-02-2009 12:06:59 1.2 C 2.42 g/m*3 1.2 C 0 km/h
2940 19-02-2009 12:29:59 1.6 C 2.38 g/m*3 1.6 C 0 km/h
2941 19-02-2009 12:30:59 2 C 2.22 g/m*3 2 C 0 km/h
2942 19-02-2009 12:42:59 2.4 C 2.11 g/m*3 2.4 C 0 km/h
2943 19-02-2009 12:54:59 3 C 1.96 g/m*3 3 C 0 km/h
2944 19-02-2009 13:06:58 3.5 C 1.91 g/m*3 3.5 C 0 km/h
2945 19-02-2009 13:18:59 3.9 C 1.96 g/m*3 3.9 C 0 km/h
2946 19-02-2009 13:30:58 4.5 C 1.84 g/m*3 4.5 C 0 km/h
2947 19-02-2009 13:42:58 4.2 C 1.8 g/m*3 4.2 C 0 km/h
2948 19-02-2009 13:54:58 4.3 C 1.82 g/m*3 4.3 C 0 km/h
2949 19-02-2009 14:06:59 4.9 C 1.82 g/m*3 4.9 C 0 km/h
2950 19-02-2009 14:18:58 5.7 C 1.78 g/m*3 5.7 C 0 km/h
Sensor: Nr:Datum:Temp:Abs-Feuchte:Windchill:Wind:
Aussen-T/F 2951 19-02-2009 14:30:58 5.8 C 1.43 g/m*3 5.8 C 0 km/h
2952 19-02-2009 14:42:58 6.5 C 1.5 g/m*3 6.5 C 0 km/h
2953 19-02-2009 14:54:58 6.8 C 1.53 g/m*3 6.8 C 0 km/h
2954 19-02-2009 15:06:58 7.1 C 1.56 g/m*3 7.1 C 0 km/h
2955 19-02-2009 15:18:57 6.6 C 1.51 g/m*3 6.6 C 0 km/h
2956 19-02-2009 15:30:57 6.3 C 1.48 g/m*3 6.3 C 0 km/h
2957 19-02-2009 15:42:57 6.7 C 1.52 g/m*3 6.7 C 0 km/h
2958 19-02-2009 15:54:57 7.1 C 1.56 g/m*3 7.1 C 0 km/h
2959 19-02-2009 16:06:57 7.1 C 1.56 g/m*3 7.1 C 0 km/h
2960 19-02-2009 16:18:57 7.4 C 1.59 g/m*3 7.4 C 0 km/h
2961 19-02-2009 16:30:54 7 C 1.55 g/m*3 7 C 0 km/h
2962 19-02-2009 16:42:54 6.5 C 1.72 g/m*3 6.5 C 0 km/h
2963 19-02-2009 16:54:57 5.8 C 1.79 g/m*3 5.8 C 0 km/h
2964 19-02-2009 17:06:02 5.4 C 2.09 g/m*3 5.4 C 0 km/h
2965 19-02-2009 17:18:02 4.8 C 2.08 g/m*3 4.8 C 0 km/h
2966 19-02-2009 17:30:02 4.4 C 2.15 g/m*3 4.4 C 0 km/h
2967 19-02-2009 17:42:02 4 C 2.29 g/m*3 4 C 0 km/h
2968 19-02-2009 17:54:02 3.7 C 2.43 g/m*3 3.7 C 0 km/h
2969 19-02-2009 18:06:02 3.5 C 2.46 g/m*3 3.5 C 0 km/h
2970 19-02-2009 18:18:02 3.4 C 2.5 g/m*3 3.4 C 0 km/h
2971 19-02-2009 18:30:02 3.3 C 2.43 g/m*3 3.3 C 0 km/h
2972 19-02-2009 18:42:01 3.2 C 2.47 g/m*3 3.2 C 0 km/h
2973 19-02-2009 18:54:01 3.1 C 2.45 g/m*3 3.1 C 0 km/h
2974 19-02-2009 19:06:01 2.9 C 2.48 g/m*3 2.9 C 0 km/h
2975 19-02-2009 19:18:01 2.9 C 2.6 g/m*3 2.9 C 0 km/h
Sensor: Nr:Datum:Temp:Abs-Feuchte:Windchill:Wind:
Aussen-T/F 2976 19-02-2009 19:30:01 3 C 2.5 g/m*3 3 C 0 km/h
2977 19-02-2009 19:42:01 2.9 C 2.6 g/m*3 2.9 C 0 km/h
2978 19-02-2009 19:54:00 2.8 C 2.64 g/m*3 2.8 C 0 km/h
2979 19-02-2009 20:06:01 2.7 C 2.68 g/m*3 2.7 C 0 km/h
2980 19-02-2009 20:18:01 2.9 C 2.66 g/m*3 2.9 C 0 km/h
2981 19-02-2009 20:30:01 2.5 C 2.99 g/m*3 2.5 C 0 km/h
2982 19-02-2009 20:42:00 2 C 3.39 g/m*3 2 C 0 km/h
2983 19-02-2009 20:54:01 1.9 C 3.59 g/m*3 1.9 C 0 km/h
2984 19-02-2009 21:06:00 1.8 C 3.73 g/m*3 1.8 C 0 km/h
2985 19-02-2009 21:18:00 1.7 C 3.81 g/m*3 1.7 C 0 km/h
2986 19-02-2009 21:30:00 1.6 C 3.89 g/m*3 1.6 C 0 km/h
2987 19-02-2009 21:42:00 1.5 C 3.97 g/m*3 1.5 C 0 km/h
2988 19-02-2009 21:54:00 1.3 C 3.97 g/m*3 1.3 C 0 km/h
2989 19-02-2009 22:06:59 1.3 C 4.03 g/m*3 1.3 C 0 km/h
2990 19-02-2009 22:29:59 1.3 C 4.08 g/m*3 1.3 C 0 km/h
2991 19-02-2009 22:30:59 1.3 C 4.13 g/m*3 1.3 C 0 km/h
2992 19-02-2009 22:42:59 1.3 C 4.13 g/m*3 1.3 C 0 km/h
2993 19-02-2009 22:54:59 1.3 C 4.13 g/m*3 1.3 C 0 km/h
2994 19-02-2009 23:06:58 1.2 C 4.1 g/m*3 1.2 C 0 km/h
2995 19-02-2009 23:18:59 1.3 C 4.13 g/m*3 1.3 C 0 km/h
2996 19-02-2009 23:30:59 1.3 C 4.13 g/m*3 1.3 C 0 km/h
2997 19-02-2009 23:42:59 1.3 C 4.08 g/m*3 1.3 C 0 km/h
2998 19-02-2009 23:54:58 1.4 C 4.05 g/m*3 1.4 C 0 km/h
2999 20-02-2009 00:06:59 1.6 C 4.11 g/m*3 1.6 C 0 km/h
3000 20-02-2009 00:18:59 1.6 C 4 g/m*3 1.6 C 0 km/h
Sensor: Nr:Datum:Temp:Abs-Feuchte:Windchill:Wind:
Aussen-T/F 3001 20-02-2009 00:30:58 1.6 C 4 g/m*3 1.6 C 0 km/h
3002 20-02-2009 00:42:58 1.6 C 4 g/m*3 1.6 C 0 km/h
3003 20-02-2009 00:54:58 1.7 C 4.03 g/m*3 1.7 C 0 km/h
3004 20-02-2009 01:06:58 1.7 C 4.03 g/m*3 1.7 C 0 km/h
3005 20-02-2009 01:18:58 1.7 C 4.03 g/m*3 1.7 C 0 km/h
3006 20-02-2009 01:30:57 1.7 C 4.03 g/m*3 1.7 C 0 km/h
3007 20-02-2009 01:42:57 1.6 C 4.11 g/m*3 1.6 C 0 km/h
3008 20-02-2009 01:54:57 1.5 C 4.14 g/m*3 1.5 C 0 km/h
3009 20-02-2009 02:06:57 1.5 C 4.19 g/m*3 1.5 C 0 km/h
3010 20-02-2009 02:18:57 1.5 C 4.24 g/m*3 1.5 C 0 km/h
3011 20-02-2009 02:30:57 1.5 C 4.35 g/m*3 1.5 C 0 km/h
3012 20-02-2009 02:42:57 1.5 C 4.3 g/m*3 1.5 C 0 km/h
3013 20-02-2009 02:55:01 1.6 C 4.27 g/m*3 1.6 C 0 km/h
3014 20-02-2009 03:07:01 1.7 C 4.25 g/m*3 1.7 C 0 km/h
3015 20-02-2009 03:19:01 1.8 C 4.28 g/m*3 1.8 C 0 km/h
3016 20-02-2009 03:31:01 1.7 C 4.19 g/m*3 1.7 C 0 km/h
3017 20-02-2009 03:43:01 1.7 C 4.19 g/m*3 1.7 C 0 km/h
3018 20-02-2009 03:55:02 1.8 C 4.28 g/m*3 1.8 C 0 km/h
3019 20-02-2009 04:07:01 1.7 C 4.25 g/m*3 1.7 C 0 km/h
3020 20-02-2009 04:19:01 1.7 C 4.25 g/m*3 1.7 C 0 km/h
3021 20-02-2009 04:31:02 1.8 C 4.28 g/m*3 1.8 C 0 km/h
3022 20-02-2009 04:43:02 1.9 C 4.3 g/m*3 1.9 C 0 km/h
3023 20-02-2009 04:55:02 1.9 C 4.25 g/m*3 1.9 C 0 km/h
3024 20-02-2009 05:07:01 1.9 C 4.25 g/m*3 1.9 C 0 km/h
3025 20-02-2009 05:19:01 1.9 C 4.19 g/m*3 1.9 C 0 km/h
Sensor: Nr:Datum:Temp:Abs-Feuchte:Windchill:Wind:
Aussen-T/F 3026 20-02-2009 05:31:02 2 C 4.17 g/m*3 2 C 0 km/h
3027 20-02-2009 05:43:02 2 C 4.17 g/m*3 2 C 0 km/h
3028 20-02-2009 05:55:01 2.1 C 4.2 g/m*3 2.1 C 0 km/h
3029 20-02-2009 06:07:01 2.1 C 4.2 g/m*3 2.1 C 0 km/h
3030 20-02-2009 06:19:02 2.1 C 4.25 g/m*3 2.1 C 0 km/h
3031 20-02-2009 06:31:01 2.1 C 4.25 g/m*3 2.1 C 0 km/h
3032 20-02-2009 06:43:01 2 C 4.28 g/m*3 2 C 0 km/h
3033 20-02-2009 06:55:02 1.8 C 4.49 g/m*3 1.8 C 0 km/h
3034 20-02-2009 07:07:01 1.8 C 4.6 g/m*3 1.8 C 0 km/h
3035 20-02-2009 07:19:02 1.8 C 4.66 g/m*3 1.8 C 0 km/h
3036 20-02-2009 07:31:01 1.8 C 4.71 g/m*3 1.8 C 0 km/h
3037 20-02-2009 07:43:01 1.8 C 4.71 g/m*3 1.8 C 0 km/h
3038 20-02-2009 07:55:02 1.9 C 4.75 g/m*3 1.9 C 0 km/h
3039 20-02-2009 08:07:01 1.9 C 4.75 g/m*3 1.9 C 0 km/h
3040 20-02-2009 08:19:01 2 C 4.67 g/m*3 2 C 0 km/h
3041 20-02-2009 08:31:02 2.3 C 4.71 g/m*3 2.3 C 0 km/h
3042 20-02-2009 08:43:02 2.4 C 4.68 g/m*3 2.4 C 0 km/h
3043 20-02-2009 08:55:01 2.4 C 4.68 g/m*3 2.4 C 0 km/h
3044 20-02-2009 09:07:02 2.3 C 4.71 g/m*3 2.3 C 0 km/h
3045 20-02-2009 09:19:01 2.3 C 4.76 g/m*3 2.3 C 0 km/h
3046 20-02-2009 09:31:02 2.4 C 4.85 g/m*3 2.4 C 0 km/h
3047 20-02-2009 09:43:02 2.5 C 4.94 g/m*3 2.5 C 0 km/h
3048 20-02-2009 09:55:01 2.8 C 4.99 g/m*3 2.8 C 0 km/h
3049 20-02-2009 10:07:02 2.8 C 4.93 g/m*3 2.8 C 0 km/h
3050 20-02-2009 10:19:01 3 C 4.93 g/m*3 3 C 0 km/h
Sensor: Nr:Datum:Temp:Abs-Feuchte:Windchill:Wind:
Aussen-T/F 3051 20-02-2009 10:31:01 3.2 C 4.94 g/m*3 3.2 C 0 km/h
3052 20-02-2009 10:43:01 3.2 C 4.88 g/m*3 3.2 C 0 km/h
3053 20-02-2009 10:55:01 3.3 C 4.91 g/m*3 3.3 C 0 km/h
3054 20-02-2009 11:07:01 3.4 C 4.89 g/m*3 3.4 C 0 km/h
3055 20-02-2009 11:19:02 3.5 C 4.92 g/m*3 3.5 C 0 km/h
3056 20-02-2009 11:31:01 3.5 C 4.98 g/m*3 3.5 C 0 km/h
3057 20-02-2009 11:43:01 3.4 C 5.01 g/m*3 3.4 C 0 km/h
3058 20-02-2009 11:55:02 3.4 C 5.07 g/m*3 3.4 C 0 km/h
3059 20-02-2009 12:07:01 3.3 C 5.04 g/m*3 3.3 C 0 km/h
3060 20-02-2009 12:19:02 3.3 C 5.1 g/m*3 3.3 C 0 km/h
3061 20-02-2009 12:31:01 3.5 C 5.29 g/m*3 3.5 C 0 km/h
3062 20-02-2009 12:43:01 3.7 C 5.36 g/m*3 3.7 C 0 km/h
3063 20-02-2009 12:55:02 3.8 C 5.4 g/m*3 3.8 C 0 km/h
3064 20-02-2009 13:07:01 4.1 C 5.44 g/m*3 4.1 C 0 km/h
3065 20-02-2009 13:19:01 4.4 C 5.48 g/m*3 4.4 C 0 km/h
3066 20-02-2009 13:31:02 4.5 C 5.46 g/m*3 4.5 C 0 km/h
3067 20-02-2009 13:43:02 4.7 C 5.53 g/m*3 4.7 C 0 km/h
3068 20-02-2009 13:55:01 4.9 C 5.54 g/m*3 4.9 C 0 km/h
3069 20-02-2009 14:07:02 5.2 C 5.51 g/m*3 5.2 C 0 km/h
3070 20-02-2009 14:19:01 5.4 C 5.37 g/m*3 5.4 C 0 km/h
3071 20-02-2009 14:31:02 5.5 C 5.34 g/m*3 5.5 C 0 km/h
3072 20-02-2009 14:43:02 5.7 C 5.27 g/m*3 5.7 C 0 km/h
3073 20-02-2009 14:55:01 5.7 C 5.19 g/m*3 5.7 C 0 km/h
3074 20-02-2009 15:07:02 5.8 C 5.23 g/m*3 5.8 C 0 km/h
3075 20-02-2009 15:19:01 5.7 C 5.12 g/m*3 5.7 C 0 km/h
Sensor: Nr:Datum:Temp:Abs-Feuchte:Windchill:Wind:
Aussen-T/F 3076 20-02-2009 15:31:01 5.5 C 4.99 g/m*3 5.5 C 0 km/h
3077 20-02-2009 15:43:01 5.4 C 5.09 g/m*3 5.4 C 0 km/h
3078 20-02-2009 15:55:01 5.5 C 5.13 g/m*3 5.5 C 0 km/h
3079 20-02-2009 16:07:01 5.6 C 5.3 g/m*3 5.6 C 0 km/h
3080 20-02-2009 16:19:01 5.6 C 5.3 g/m*3 5.6 C 0 km/h
3081 20-02-2009 16:31:01 5.4 C 5.23 g/m*3 5.4 C 0 km/h
3082 20-02-2009 16:43:01 5.3 C 5.34 g/m*3 5.3 C 0 km/h
3083 20-02-2009 16:55:01 5.1 C 5.4 g/m*3 5.1 C 0 km/h
3084 20-02-2009 17:07:01 5 C 5.5 g/m*3 5 C 0 km/h
3085 20-02-2009 17:19:01 4.9 C 5.67 g/m*3 4.9 C 0 km/h
3086 20-02-2009 17:31:01 4.8 C 5.77 g/m*3 4.8 C 0 km/h
3087 20-02-2009 17:43:01 4.7 C 5.8 g/m*3 4.7 C 0 km/h
3088 20-02-2009 17:55:01 4.7 C 5.86 g/m*3 4.7 C 0 km/h
3089 20-02-2009 18:07:01 4.6 C 5.76 g/m*3 4.6 C 0 km/h
3090 20-02-2009 18:19:02 4.6 C 5.76 g/m*3 4.6 C 0 km/h
3091 20-02-2009 18:31:01 4.6 C 5.76 g/m*3 4.6 C 0 km/h
3092 20-02-2009 18:43:01 4.7 C 5.8 g/m*3 4.7 C 0 km/h
3093 20-02-2009 18:55:02 4.6 C 5.82 g/m*3 4.6 C 0 km/h
3094 20-02-2009 19:07:01 4.6 C 5.82 g/m*3 4.6 C 0 km/h
3095 20-02-2009 19:19:02 4.5 C 5.85 g/m*3 4.5 C 0 km/h
3096 20-02-2009 19:31:01 4.5 C 5.85 g/m*3 4.5 C 0 km/h
3097 20-02-2009 19:43:01 4.6 C 5.96 g/m*3 4.6 C 0 km/h
3098 20-02-2009 19:54:01 4.5 C 5.92 g/m*3 4.5 C 0 km/h
3099 20-02-2009 20:06:02 4.5 C 5.92 g/m*3 4.5 C 0 km/h
3100 20-02-2009 20:18:01 4.6 C 6.02 g/m*3 4.6 C 0 km/h
Sensor: Nr:Datum:Temp:Abs-Feuchte:Windchill:Wind:
Aussen-T/F 3101 20-02-2009 20:30:01 4.6 C 6.02 g/m*3 4.6 C 0 km/h
3102 20-02-2009 20:42:02 4.6 C 6.02 g/m*3 4.6 C 0 km/h
3103 20-02-2009 20:54:01 4.6 C 6.02 g/m*3 4.6 C 0 km/h
3104 20-02-2009 21:06:01 4.7 C 6.06 g/m*3 4.7 C 0 km/h
3105 20-02-2009 21:18:01 4.8 C 6.04 g/m*3 4.8 C 0 km/h
3106 20-02-2009 21:30:01 4.8 C 6.04 g/m*3 4.8 C 0 km/h
3107 20-02-2009 21:42:01 4.8 C 5.97 g/m*3 4.8 C 0 km/h
3108 20-02-2009 21:54:01 4.7 C 5.86 g/m*3 4.7 C 0 km/h
3109 20-02-2009 22:06:01 4.6 C 5.82 g/m*3 4.6 C 0 km/h
3110 20-02-2009 22:19:03 4.6 C 5.82 g/m*3 4.6 C 0 km/h
3111 20-02-2009 22:31:03 4.5 C 5.78 g/m*3 4.5 C 0 km/h
3112 20-02-2009 22:43:03 4.5 C 5.78 g/m*3 4.5 C 0 km/h
3113 20-02-2009 22:55:03 4.5 C 5.78 g/m*3 4.5 C 0 km/h
3114 20-02-2009 23:07:03 4.4 C 5.75 g/m*3 4.4 C 0 km/h
3115 20-02-2009 23:19:03 4.4 C 5.75 g/m*3 4.4 C 0 km/h
3116 20-02-2009 23:31:03 4.3 C 5.71 g/m*3 4.3 C 0 km/h
3117 20-02-2009 23:43:03 4.3 C 5.71 g/m*3 4.3 C 0 km/h
3118 20-02-2009 23:55:03 4.3 C 5.71 g/m*3 4.3 C 0 km/h
3119 21-02-2009 00:07:03 4.2 C 5.67 g/m*3 4.2 C 0 km/h
3120 21-02-2009 00:19:03 4.2 C 5.61 g/m*3 4.2 C 0 km/h
3121 21-02-2009 00:31:03 4.1 C 5.57 g/m*3 4.1 C 0 km/h
3122 21-02-2009 00:43:03 4.1 C 5.5 g/m*3 4.1 C 0 km/h
3123 21-02-2009 00:55:03 4.1 C 5.44 g/m*3 4.1 C 0 km/h
3124 21-02-2009 01:07:03 4 C 5.4 g/m*3 4 C 0 km/h
3125 21-02-2009 01:19:03 4 C 5.4 g/m*3 4 C 0 km/h
Sensor: Nr:Datum:Temp:Abs-Feuchte:Windchill:Wind:
Aussen-T/F 3126 21-02-2009 01:31:03 4 C 5.34 g/m*3 4 C 0 km/h
3127 21-02-2009 01:43:04 4 C 5.34 g/m*3 4 C 0 km/h
3128 21-02-2009 01:55:04 4 C 5.34 g/m*3 4 C 0 km/h
3129 21-02-2009 02:07:04 4 C 5.28 g/m*3 4 C 0 km/h
3130 21-02-2009 02:19:04 4 C 5.28 g/m*3 4 C 0 km/h
3131 21-02-2009 02:31:04 4 C 5.28 g/m*3 4 C 0 km/h
3132 21-02-2009 02:43:04 3.9 C 5.31 g/m*3 3.9 C 0 km/h
3133 21-02-2009 02:55:04 3.9 C 5.31 g/m*3 3.9 C 0 km/h
3134 21-02-2009 03:07:04 3.9 C 5.31 g/m*3 3.9 C 0 km/h
3135 21-02-2009 03:19:04 3.8 C 5.27 g/m*3 3.8 C 0 km/h
3136 21-02-2009 03:31:04 3.8 C 5.27 g/m*3 3.8 C 0 km/h
3137 21-02-2009 03:43:04 3.8 C 5.27 g/m*3 3.8 C 0 km/h
3138 21-02-2009 03:55:04 3.8 C 5.27 g/m*3 3.8 C 0 km/h
3139 21-02-2009 04:07:04 3.8 C 5.27 g/m*3 3.8 C 0 km/h
3140 21-02-2009 04:19:04 3.8 C 5.27 g/m*3 3.8 C 0 km/h
3141 21-02-2009 04:31:04 3.7 C 5.23 g/m*3 3.7 C 0 km/h
3142 21-02-2009 04:43:04 3.7 C 5.23 g/m*3 3.7 C 0 km/h
3143 21-02-2009 04:55:04 3.7 C 5.3 g/m*3 3.7 C 0 km/h
3144 21-02-2009 05:07:04 3.6 C 5.26 g/m*3 3.6 C 0 km/h
3145 21-02-2009 05:19:04 3.6 C 5.26 g/m*3 3.6 C 0 km/h
3146 21-02-2009 05:31:04 3.7 C 5.36 g/m*3 3.7 C 0 km/h
3147 21-02-2009 05:43:05 3.8 C 5.4 g/m*3 3.8 C 0 km/h
3148 21-02-2009 05:55:05 3.7 C 5.36 g/m*3 3.7 C 0 km/h
3149 21-02-2009 06:07:05 3.7 C 5.36 g/m*3 3.7 C 0 km/h
3150 21-02-2009 06:19:05 3.7 C 5.42 g/m*3 3.7 C 0 km/h
Sensor: Nr:Datum:Temp:Abs-Feuchte:Windchill:Wind:
Aussen-T/F 3151 21-02-2009 06:31:05 3.8 C 5.46 g/m*3 3.8 C 0 km/h
3152 21-02-2009 06:43:05 3.8 C 5.46 g/m*3 3.8 C 0 km/h
3153 21-02-2009 06:55:05 3.8 C 5.46 g/m*3 3.8 C 0 km/h
3154 21-02-2009 07:07:05 3.8 C 5.52 g/m*3 3.8 C 0 km/h
3155 21-02-2009 07:19:05 3.7 C 5.48 g/m*3 3.7 C 0 km/h
3156 21-02-2009 07:31:05 3.7 C 5.48 g/m*3 3.7 C 0 km/h
3157 21-02-2009 07:43:05 3.7 C 5.48 g/m*3 3.7 C 0 km/h
3158 21-02-2009 07:55:05 3.6 C 5.45 g/m*3 3.6 C 0 km/h
3159 21-02-2009 08:07:03 3.6 C 5.45 g/m*3 3.6 C 0 km/h
3160 21-02-2009 08:19:03 3.6 C 5.45 g/m*3 3.6 C 0 km/h
3161 21-02-2009 08:31:02 3.6 C 5.45 g/m*3 3.6 C 0 km/h
3162 21-02-2009 08:43:02 3.8 C 5.52 g/m*3 3.8 C 0 km/h
3163 21-02-2009 08:55:03 3.9 C 5.56 g/m*3 3.9 C 0 km/h
3164 21-02-2009 09:07:02 4 C 5.59 g/m*3 4 C 0 km/h
3165 21-02-2009 09:19:02 4 C 5.53 g/m*3 4 C 0 km/h
3166 21-02-2009 09:31:02 4.1 C 5.57 g/m*3 4.1 C 0 km/h
3167 21-02-2009 09:43:02 4.4 C 5.68 g/m*3 4.4 C 0 km/h
3168 21-02-2009 09:55:02 4.4 C 5.62 g/m*3 4.4 C 0 km/h
3169 21-02-2009 10:07:01 4.5 C 5.52 g/m*3 4.5 C 0 km/h
3170 21-02-2009 10:19:02 4.7 C 5.46 g/m*3 4.7 C 0 km/h
3171 21-02-2009 10:31:02 5.1 C 5.47 g/m*3 5.1 C 0 km/h
3172 21-02-2009 10:43:02 5.3 C 5.41 g/m*3 5.3 C 0 km/h
3173 21-02-2009 10:55:01 5.5 C 5.2 g/m*3 5.5 C 0 km/h
3174 21-02-2009 11:07:02 5.5 C 5.13 g/m*3 5.5 C 0 km/h
3175 21-02-2009 11:19:01 5.7 C 5.12 g/m*3 5.7 C 0 km/h
Sensor: Nr:Datum:Temp:Abs-Feuchte:Windchill:Wind:
Aussen-T/F 3176 21-02-2009 11:31:01 6 C 5.01 g/m*3 6 C 0 km/h
3177 21-02-2009 11:43:01 6 C 4.94 g/m*3 6 C 0 km/h
3178 21-02-2009 11:55:01 6.4 C 4.92 g/m*3 6.4 C 0 km/h
3179 21-02-2009 12:07:01 6.7 C 4.86 g/m*3 6.7 C 0 km/h
3180 21-02-2009 12:19:00 6.2 C 4.49 g/m*3 6.2 C 0 km/h
3181 21-02-2009 12:31:00 6.4 C 4.62 g/m*3 6.4 C 0 km/h
3182 21-02-2009 12:43:00 6.4 C 4.62 g/m*3 6.4 C 0 km/h
3183 21-02-2009 12:55:00 6.4 C 4.55 g/m*3 6.4 C 0 km/h
3184 21-02-2009 13:07:00 6.5 C 4.42 g/m*3 6.5 C 0 km/h
3185 21-02-2009 13:19:00 6.6 C 4.23 g/m*3 6.6 C 0 km/h
3186 21-02-2009 13:31:00 6.8 C 4.28 g/m*3 6.8 C 0 km/h
3187 21-02-2009 13:43:00 6.7 C 4.1 g/m*3 6.7 C 0 km/h
3188 21-02-2009 13:55:59 6.5 C 4.05 g/m*3 6.5 C 0 km/h
3189 21-02-2009 14:07:00 6.5 C 4.05 g/m*3 6.5 C 0 km/h
3190 21-02-2009 14:19:00 6.5 C 4.05 g/m*3 6.5 C 0 km/h
3191 21-02-2009 14:31:59 6.8 C 4.05 g/m*3 6.8 C 0 km/h
3192 21-02-2009 14:43:59 6.7 C 4.03 g/m*3 6.7 C 0 km/h
3193 21-02-2009 14:54:59 6.5 C 3.97 g/m*3 6.5 C 0 km/h
3194 21-02-2009 15:07:59 6.5 C 3.97 g/m*3 6.5 C 0 km/h
3195 21-02-2009 15:19:59 6.4 C 3.87 g/m*3 6.4 C 0 km/h
3196 21-02-2009 15:31:59 6.3 C 3.78 g/m*3 6.3 C 0 km/h
3197 21-02-2009 15:43:59 6.2 C 3.75 g/m*3 6.2 C 0 km/h
3198 21-02-2009 15:55:59 6.2 C 3.9 g/m*3 6.2 C 0 km/h
3199 21-02-2009 16:07:59 6.1 C 4.02 g/m*3 6.1 C 0 km/h
3200 21-02-2009 16:19:58 6 C 4.06 g/m*3 6 C 0 km/h
Sensor: Nr:Datum:Temp:Abs-Feuchte:Windchill:Wind:
Aussen-T/F 3201 21-02-2009 16:31:58 5.8 C 4.15 g/m*3 5.8 C 0 km/h
3202 21-02-2009 16:43:58 5.8 C 4.15 g/m*3 5.8 C 0 km/h
3203 21-02-2009 16:55:58 5.7 C 4.2 g/m*3 5.7 C 0 km/h
3204 21-02-2009 17:07:58 5.7 C 4.2 g/m*3 5.7 C 0 km/h
3205 21-02-2009 17:19:57 5.7 C 4.13 g/m*3 5.7 C 0 km/h
3206 21-02-2009 17:31:58 5.6 C 4.24 g/m*3 5.6 C 0 km/h
3207 21-02-2009 17:43:58 5.4 C 4.26 g/m*3 5.4 C 0 km/h
3208 21-02-2009 17:55:57 5.3 C 4.23 g/m*3 5.3 C 0 km/h
3209 21-02-2009 18:07:57 5.1 C 4.24 g/m*3 5.1 C 0 km/h
3210 21-02-2009 18:19:58 4.9 C 4.39 g/m*3 4.9 C 0 km/h
3211 21-02-2009 18:31:57 4.7 C 4.46 g/m*3 4.7 C 0 km/h
3212 21-02-2009 18:43:57 4.6 C 4.43 g/m*3 4.6 C 0 km/h
3213 21-02-2009 18:55:57 4.5 C 4.4 g/m*3 4.5 C 0 km/h
3214 21-02-2009 19:07:57 4.4 C 4.44 g/m*3 4.4 C 0 km/h
3215 21-02-2009 19:19:57 4.2 C 4.32 g/m*3 4.2 C 0 km/h
3216 21-02-2009 19:31:56 4.1 C 4.29 g/m*3 4.1 C 0 km/h
3217 21-02-2009 19:43:56 4.2 C 4.32 g/m*3 4.2 C 0 km/h
3218 21-02-2009 19:55:57 4.3 C 4.35 g/m*3 4.3 C 0 km/h
3219 21-02-2009 20:07:56 4.3 C 4.41 g/m*3 4.3 C 0 km/h
3220 21-02-2009 20:19:56 4.3 C 4.41 g/m*3 4.3 C 0 km/h
3221 21-02-2009 20:31:56 4.3 C 4.41 g/m*3 4.3 C 0 km/h
3222 21-02-2009 20:43:56 4.3 C 4.41 g/m*3 4.3 C 0 km/h
3223 21-02-2009 20:55:56 4.2 C 4.38 g/m*3 4.2 C 0 km/h
3224 21-02-2009 21:07:55 4.2 C 4.45 g/m*3 4.2 C 0 km/h
3225 21-02-2009 21:19:56 4.2 C 4.45 g/m*3 4.2 C 0 km/h
Sensor: Nr:Datum:Temp:Abs-Feuchte:Windchill:Wind:
Aussen-T/F 3226 21-02-2009 21:31:56 4.3 C 4.48 g/m*3 4.3 C 0 km/h
3227 21-02-2009 21:43:56 4.3 C 4.48 g/m*3 4.3 C 0 km/h
3228 21-02-2009 21:55:55 4.3 C 4.48 g/m*3 4.3 C 0 km/h
3229 21-02-2009 22:07:56 4.3 C 4.48 g/m*3 4.3 C 0 km/h
3230 21-02-2009 22:19:55 4.2 C 4.45 g/m*3 4.2 C 0 km/h
3231 21-02-2009 22:31:55 4.2 C 4.45 g/m*3 4.2 C 0 km/h
3232 21-02-2009 22:43:56 4.2 C 4.45 g/m*3 4.2 C 0 km/h
3233 21-02-2009 22:56:57 4.2 C 4.45 g/m*3 4.2 C 0 km/h
3234 21-02-2009 23:08:57 4.4 C 4.37 g/m*3 4.4 C 0 km/h
3235 21-02-2009 23:20:57 4.5 C 4.4 g/m*3 4.5 C 0 km/h
3236 21-02-2009 23:32:57 4.6 C 4.37 g/m*3 4.6 C 0 km/h
3237 21-02-2009 23:44:57 4.6 C 4.37 g/m*3 4.6 C 0 km/h
3238 21-02-2009 23:56:57 4.6 C 4.37 g/m*3 4.6 C 0 km/h
3239 22-02-2009 00:08:57 4.4 C 4.44 g/m*3 4.4 C 0 km/h
3240 22-02-2009 00:20:57 4.2 C 4.45 g/m*3 4.2 C 0 km/h
3241 22-02-2009 00:32:57 4 C 4.58 g/m*3 4 C 0 km/h
3242 22-02-2009 00:44:57 3.7 C 4.74 g/m*3 3.7 C 0 km/h
3243 22-02-2009 00:56:57 3.7 C 4.86 g/m*3 3.7 C 0 km/h
3244 22-02-2009 01:08:57 3.7 C 4.86 g/m*3 3.7 C 0 km/h
3245 22-02-2009 01:20:57 3.7 C 4.86 g/m*3 3.7 C 0 km/h
3246 22-02-2009 01:32:57 3.8 C 4.96 g/m*3 3.8 C 0 km/h